Darstellungsparameter: Aktuell verwendete Einstellungen:
Skalierung der Graphiken ... ?
xyx+y,   Skalierungsfaktor:      Skalierung: Modus: x, Faktor: 1
Darstellungszeitraum ... ?
Vom - - bis: - -   Zeitraum: 11.10.2008 - 10.11.2008
Min/Max/Avg-Anzeige ... ?
Zeige MMA aktuell
Zeige MMA Monat
Zeige MMA alles
Zeige --A aktuell
Zeige --A Monat
Zeige --A alles
Keine MMA-Anzeige
MMA:
Average (ber die Originaldaten)
MMA-Basis: 17.04.2019 - 19.05.2019
Quicknavigation für Darstellung... ?
Tage:      1T, 2T, 3T, 5T -1T -2T -3T -5T +1T +2T +3T +5T
Wochen: 1W, 2W, 3W -1W -2W -3W +1W +2W +3W
Monate: 1M, 3M, 6M -1M -3M -6M +1M +3M +6M
Jahre:    1J, 3J, 5J, 10J -1J -3J -5J -10J +1J +3J +5J +10J
Nutze für die Darstellung ... ?
Originaldaten oder Mittelwerte auf ...
Stundenbasis Tagesbasis Wochenbasis
Monatsbasis Jahresbasis      Datenbasis: Original-Daten
Darstellen als:
Statistik (Auto) Statistik J:M      Darstellung:
Zur Graphik,    zurück zur Übersicht aller Sensoren.
 
Tabellarische Datenbersicht: ?
 
Sensor: Nr:Datum:Temp:Abs-Feuchte:Windchill:Wind:
Aussen-T/F 1 11-10-2008 00:02:03 12.1 C 9.01 g/m*3 12.1 C 0 km/h
2 11-10-2008 00:07:03 11.7 C 8.89 g/m*3 11.7 C 0 km/h
3 11-10-2008 00:12:03 11.7 C 8.89 g/m*3 11.7 C 0 km/h
4 11-10-2008 00:17:03 11.6 C 8.83 g/m*3 11.6 C 0 km/h
5 11-10-2008 00:22:03 11.5 C 8.78 g/m*3 11.5 C 0 km/h
6 11-10-2008 00:27:03 11.4 C 8.72 g/m*3 11.4 C 0 km/h
7 11-10-2008 00:32:03 11.3 C 8.67 g/m*3 11.3 C 0 km/h
8 11-10-2008 00:37:03 11.2 C 8.62 g/m*3 11.2 C 0 km/h
9 11-10-2008 00:42:03 11.1 C 8.56 g/m*3 11.1 C 0 km/h
10 11-10-2008 00:47:03 11.1 C 8.56 g/m*3 11.1 C 0 km/h
11 11-10-2008 00:52:03 11 C 8.51 g/m*3 11 C 0 km/h
12 11-10-2008 00:57:03 10.9 C 8.55 g/m*3 10.9 C 0 km/h
13 11-10-2008 01:02:03 10.9 C 8.55 g/m*3 10.9 C 0 km/h
14 11-10-2008 01:07:03 10.9 C 8.55 g/m*3 10.9 C 0 km/h
15 11-10-2008 01:12:03 10.7 C 8.45 g/m*3 10.7 C 0 km/h
16 11-10-2008 01:17:03 10.6 C 8.39 g/m*3 10.6 C 0 km/h
17 11-10-2008 01:22:03 10.6 C 8.39 g/m*3 10.6 C 0 km/h
18 11-10-2008 01:27:03 10.4 C 8.29 g/m*3 10.4 C 0 km/h
19 11-10-2008 01:32:04 10.4 C 8.29 g/m*3 10.4 C 0 km/h
20 11-10-2008 01:37:04 10.4 C 8.29 g/m*3 10.4 C 0 km/h
21 11-10-2008 01:42:04 10.3 C 8.24 g/m*3 10.3 C 0 km/h
22 11-10-2008 01:47:04 10.2 C 8.18 g/m*3 10.2 C 0 km/h
23 11-10-2008 01:52:04 10.2 C 8.18 g/m*3 10.2 C 0 km/h
24 11-10-2008 01:57:04 10.1 C 8.13 g/m*3 10.1 C 0 km/h
25 11-10-2008 02:02:04 10.1 C 8.13 g/m*3 10.1 C 0 km/h
Sensor: Nr:Datum:Temp:Abs-Feuchte:Windchill:Wind:
Aussen-T/F 26 11-10-2008 02:07:04 10 C 8.08 g/m*3 10 C 0 km/h
27 11-10-2008 02:12:04 10 C 8.08 g/m*3 10 C 0 km/h
28 11-10-2008 02:17:04 10 C 8.08 g/m*3 10 C 0 km/h
29 11-10-2008 02:22:04 10 C 8.08 g/m*3 10 C 0 km/h
30 11-10-2008 02:27:04 10 C 8.08 g/m*3 10 C 0 km/h
31 11-10-2008 02:32:04 9.9 C 8.22 g/m*3 9.9 C 0 km/h
32 11-10-2008 02:37:04 9.9 C 8.22 g/m*3 9.9 C 0 km/h
33 11-10-2008 02:42:04 9.8 C 8.16 g/m*3 9.8 C 0 km/h
34 11-10-2008 02:47:04 9.8 C 8.16 g/m*3 9.8 C 0 km/h
35 11-10-2008 02:52:04 9.8 C 8.16 g/m*3 9.8 C 0 km/h
36 11-10-2008 02:57:04 9.6 C 8.06 g/m*3 9.6 C 0 km/h
37 11-10-2008 03:02:04 9.6 C 8.06 g/m*3 9.6 C 0 km/h
38 11-10-2008 03:07:04 9.5 C 8.01 g/m*3 9.5 C 0 km/h
39 11-10-2008 03:12:05 9.5 C 8.01 g/m*3 9.5 C 0 km/h
40 11-10-2008 03:17:05 9.6 C 8.06 g/m*3 9.6 C 0 km/h
41 11-10-2008 03:22:05 9.6 C 8.06 g/m*3 9.6 C 0 km/h
42 11-10-2008 03:27:05 9.5 C 8.1 g/m*3 9.5 C 0 km/h
43 11-10-2008 03:32:05 9.3 C 8 g/m*3 9.3 C 0 km/h
44 11-10-2008 03:37:05 9.3 C 8 g/m*3 9.3 C 0 km/h
45 11-10-2008 03:42:05 9.3 C 8 g/m*3 9.3 C 0 km/h
46 11-10-2008 03:47:05 9.2 C 7.95 g/m*3 9.2 C 0 km/h
47 11-10-2008 03:52:05 9.1 C 7.9 g/m*3 9.1 C 0 km/h
48 11-10-2008 03:57:05 9.1 C 7.9 g/m*3 9.1 C 0 km/h
49 11-10-2008 04:02:05 9 C 7.85 g/m*3 9 C 0 km/h
50 11-10-2008 04:07:05 9.1 C 7.9 g/m*3 9.1 C 0 km/h
Sensor: Nr:Datum:Temp:Abs-Feuchte:Windchill:Wind:
Aussen-T/F 51 11-10-2008 04:12:05 9.1 C 7.9 g/m*3 9.1 C 0 km/h
52 11-10-2008 04:17:05 9.1 C 7.9 g/m*3 9.1 C 0 km/h
53 11-10-2008 04:22:05 9.1 C 7.9 g/m*3 9.1 C 0 km/h
54 11-10-2008 04:27:05 9.1 C 7.99 g/m*3 9.1 C 0 km/h
55 11-10-2008 04:32:05 9.2 C 8.04 g/m*3 9.2 C 0 km/h
56 11-10-2008 04:37:05 9.2 C 8.04 g/m*3 9.2 C 0 km/h
57 11-10-2008 04:42:05 9.2 C 8.13 g/m*3 9.2 C 0 km/h
58 11-10-2008 04:47:05 9.2 C 8.13 g/m*3 9.2 C 0 km/h
59 11-10-2008 04:52:05 9.3 C 8.18 g/m*3 9.3 C 0 km/h
60 11-10-2008 04:57:06 9.2 C 8.13 g/m*3 9.2 C 0 km/h
61 11-10-2008 05:02:06 9.2 C 8.13 g/m*3 9.2 C 0 km/h
62 11-10-2008 05:07:06 9.2 C 8.13 g/m*3 9.2 C 0 km/h
63 11-10-2008 05:12:06 9.3 C 8.18 g/m*3 9.3 C 0 km/h
64 11-10-2008 05:17:06 9.3 C 8.18 g/m*3 9.3 C 0 km/h
65 11-10-2008 05:22:06 9.3 C 8.18 g/m*3 9.3 C 0 km/h
66 11-10-2008 05:27:06 9.3 C 8.18 g/m*3 9.3 C 0 km/h
67 11-10-2008 05:32:06 9.5 C 8.37 g/m*3 9.5 C 0 km/h
68 11-10-2008 05:37:06 9.4 C 8.32 g/m*3 9.4 C 0 km/h
69 11-10-2008 05:42:06 9.5 C 8.37 g/m*3 9.5 C 0 km/h
70 11-10-2008 05:47:06 9.5 C 8.37 g/m*3 9.5 C 0 km/h
71 11-10-2008 05:52:06 9.4 C 8.32 g/m*3 9.4 C 0 km/h
72 11-10-2008 05:57:06 9.3 C 8.18 g/m*3 9.3 C 0 km/h
73 11-10-2008 06:02:06 9.2 C 8.13 g/m*3 9.2 C 0 km/h
74 11-10-2008 06:07:06 9.2 C 8.13 g/m*3 9.2 C 0 km/h
75 11-10-2008 06:12:06 9.3 C 8.18 g/m*3 9.3 C 0 km/h
Sensor: Nr:Datum:Temp:Abs-Feuchte:Windchill:Wind:
Aussen-T/F 76 11-10-2008 06:17:06 9.2 C 8.13 g/m*3 9.2 C 0 km/h
77 11-10-2008 06:22:06 9.2 C 8.13 g/m*3 9.2 C 0 km/h
78 11-10-2008 06:27:06 9.2 C 8.13 g/m*3 9.2 C 0 km/h
79 11-10-2008 06:32:06 9.2 C 8.13 g/m*3 9.2 C 0 km/h
80 11-10-2008 06:37:06 9.2 C 8.13 g/m*3 9.2 C 0 km/h
81 11-10-2008 06:42:07 9.2 C 8.13 g/m*3 9.2 C 0 km/h
82 11-10-2008 06:47:07 9.2 C 8.13 g/m*3 9.2 C 0 km/h
83 11-10-2008 06:52:07 9.2 C 8.13 g/m*3 9.2 C 0 km/h
84 11-10-2008 06:57:07 9.2 C 8.13 g/m*3 9.2 C 0 km/h
85 11-10-2008 07:02:07 9.2 C 8.13 g/m*3 9.2 C 0 km/h
86 11-10-2008 07:07:07 9.2 C 8.13 g/m*3 9.2 C 0 km/h
87 11-10-2008 07:12:07 9.2 C 8.13 g/m*3 9.2 C 0 km/h
88 11-10-2008 07:17:07 9.1 C 8.07 g/m*3 9.1 C 0 km/h
89 11-10-2008 07:22:07 9.1 C 8.07 g/m*3 9.1 C 0 km/h
90 11-10-2008 07:27:07 9.1 C 8.07 g/m*3 9.1 C 0 km/h
91 11-10-2008 07:32:07 9.1 C 8.07 g/m*3 9.1 C 0 km/h
92 11-10-2008 07:37:07 9.2 C 8.13 g/m*3 9.2 C 0 km/h
93 11-10-2008 07:42:07 9.1 C 8.07 g/m*3 9.1 C 0 km/h
94 11-10-2008 07:47:07 9 C 8.02 g/m*3 9 C 0 km/h
95 11-10-2008 07:52:07 9.1 C 8.07 g/m*3 9.1 C 0 km/h
96 11-10-2008 07:57:07 9 C 8.02 g/m*3 9 C 0 km/h
97 11-10-2008 08:02:02 9.1 C 8.07 g/m*3 9.1 C 0 km/h
98 11-10-2008 08:07:02 9.2 C 8.13 g/m*3 9.2 C 0 km/h
99 11-10-2008 08:12:02 9.3 C 8.18 g/m*3 9.3 C 0 km/h
100 11-10-2008 08:17:02 9.3 C 8.18 g/m*3 9.3 C 0 km/h
Sensor: Nr:Datum:Temp:Abs-Feuchte:Windchill:Wind:
Aussen-T/F 101 11-10-2008 08:22:02 9.3 C 8.18 g/m*3 9.3 C 0 km/h
102 11-10-2008 08:27:02 9.2 C 8.13 g/m*3 9.2 C 0 km/h
103 11-10-2008 08:32:02 9.1 C 8.07 g/m*3 9.1 C 0 km/h
104 11-10-2008 08:37:02 9 C 8.02 g/m*3 9 C 0 km/h
105 11-10-2008 08:42:02 9.1 C 8.07 g/m*3 9.1 C 0 km/h
106 11-10-2008 08:47:02 9 C 8.02 g/m*3 9 C 0 km/h
107 11-10-2008 08:52:02 9 C 8.02 g/m*3 9 C 0 km/h
108 11-10-2008 08:57:02 9 C 8.02 g/m*3 9 C 0 km/h
109 11-10-2008 09:02:05 9 C 8.11 g/m*3 9 C 0 km/h
110 11-10-2008 09:07:05 9.1 C 8.16 g/m*3 9.1 C 0 km/h
111 11-10-2008 09:12:06 9.2 C 8.22 g/m*3 9.2 C 0 km/h
112 11-10-2008 09:17:02 9.1 C 8.16 g/m*3 9.1 C 0 km/h
113 11-10-2008 09:22:02 9.3 C 8.27 g/m*3 9.3 C 0 km/h
114 11-10-2008 09:27:02 9.4 C 8.32 g/m*3 9.4 C 0 km/h
115 11-10-2008 09:32:02 9.4 C 8.23 g/m*3 9.4 C 0 km/h
116 11-10-2008 09:37:02 9.5 C 8.28 g/m*3 9.5 C 0 km/h
117 11-10-2008 09:42:02 9.6 C 8.34 g/m*3 9.6 C 0 km/h
118 11-10-2008 09:47:02 9.7 C 8.39 g/m*3 9.7 C 0 km/h
119 11-10-2008 09:52:02 9.9 C 8.5 g/m*3 9.9 C 0 km/h
120 11-10-2008 09:57:02 10 C 8.46 g/m*3 10 C 0 km/h
121 11-10-2008 10:02:02 10.4 C 8.67 g/m*3 10.4 C 0 km/h
122 11-10-2008 10:07:02 10.6 C 8.78 g/m*3 10.6 C 0 km/h
123 11-10-2008 10:12:02 10.7 C 8.74 g/m*3 10.7 C 0 km/h
124 11-10-2008 10:17:02 10.8 C 8.8 g/m*3 10.8 C 0 km/h
125 11-10-2008 10:22:02 10.7 C 8.55 g/m*3 10.7 C 0 km/h
Sensor: Nr:Datum:Temp:Abs-Feuchte:Windchill:Wind:
Aussen-T/F 126 11-10-2008 10:27:02 10.8 C 8.5 g/m*3 10.8 C 0 km/h
127 11-10-2008 10:32:01 10.8 C 8.5 g/m*3 10.8 C 0 km/h
128 11-10-2008 10:37:01 11 C 8.51 g/m*3 11 C 0 km/h
129 11-10-2008 10:42:01 11.1 C 8.46 g/m*3 11.1 C 0 km/h
130 11-10-2008 10:47:02 11.2 C 8.51 g/m*3 11.2 C 0 km/h
131 11-10-2008 10:52:02 11.3 C 8.57 g/m*3 11.3 C 0 km/h
132 11-10-2008 10:57:02 11.4 C 8.52 g/m*3 11.4 C 0 km/h
133 11-10-2008 11:02:02 11.4 C 8.52 g/m*3 11.4 C 0 km/h
134 11-10-2008 11:07:02 11.7 C 8.68 g/m*3 11.7 C 0 km/h
135 11-10-2008 11:12:02 12.1 C 8.79 g/m*3 12.1 C 0 km/h
136 11-10-2008 11:17:01 12.4 C 8.85 g/m*3 12.4 C 0 km/h
137 11-10-2008 11:22:01 12.4 C 8.85 g/m*3 12.4 C 0 km/h
138 11-10-2008 11:27:01 12.7 C 9.02 g/m*3 12.7 C 0 km/h
139 11-10-2008 11:32:02 12.9 C 8.9 g/m*3 12.9 C 0 km/h
140 11-10-2008 11:37:02 13 C 8.85 g/m*3 13 C 0 km/h
141 11-10-2008 11:42:03 13 C 8.73 g/m*3 13 C 0 km/h
142 11-10-2008 11:47:02 12.9 C 8.79 g/m*3 12.9 C 0 km/h
143 11-10-2008 11:52:02 13 C 8.73 g/m*3 13 C 0 km/h
144 11-10-2008 11:57:02 12.8 C 8.62 g/m*3 12.8 C 0 km/h
145 11-10-2008 12:02:02 12.8 C 8.74 g/m*3 12.8 C 0 km/h
146 11-10-2008 12:07:02 12.7 C 8.68 g/m*3 12.7 C 0 km/h
147 11-10-2008 12:12:02 12.8 C 8.85 g/m*3 12.8 C 0 km/h
148 11-10-2008 12:17:02 12.9 C 8.9 g/m*3 12.9 C 0 km/h
149 11-10-2008 12:22:02 13.2 C 9.07 g/m*3 13.2 C 0 km/h
150 11-10-2008 12:27:02 13.3 C 9.13 g/m*3 13.3 C 0 km/h
Sensor: Nr:Datum:Temp:Abs-Feuchte:Windchill:Wind:
Aussen-T/F 151 11-10-2008 12:32:01 13.4 C 9.07 g/m*3 13.4 C 0 km/h
152 11-10-2008 12:37:01 13.5 C 9.12 g/m*3 13.5 C 0 km/h
153 11-10-2008 12:42:01 13.5 C 9.12 g/m*3 13.5 C 0 km/h
154 11-10-2008 12:47:02 13.7 C 9.24 g/m*3 13.7 C 0 km/h
155 11-10-2008 12:52:02 13.9 C 9.47 g/m*3 13.9 C 0 km/h
156 11-10-2008 12:57:02 14.1 C 9.47 g/m*3 14.1 C 0 km/h
157 11-10-2008 13:02:02 14.2 C 9.4 g/m*3 14.2 C 0 km/h
158 11-10-2008 13:07:02 14.7 C 9.57 g/m*3 14.7 C 0 km/h
159 11-10-2008 13:12:02 14.9 C 9.69 g/m*3 14.9 C 0 km/h
160 11-10-2008 13:17:02 15.3 C 9.53 g/m*3 15.3 C 0 km/h
161 11-10-2008 13:22:02 15.5 C 9.65 g/m*3 15.5 C 0 km/h
162 11-10-2008 13:27:02 16 C 9.4 g/m*3 16 C 0 km/h
163 11-10-2008 13:32:02 16.2 C 9.52 g/m*3 16.2 C 0 km/h
164 11-10-2008 13:37:02 16.6 C 9.61 g/m*3 16.6 C 0 km/h
165 11-10-2008 13:42:02 16.8 C 9.72 g/m*3 16.8 C 0 km/h
166 11-10-2008 13:47:02 17 C 9.55 g/m*3 17 C 0 km/h
167 11-10-2008 13:52:02 17.3 C 9.58 g/m*3 17.3 C 0 km/h
168 11-10-2008 13:57:02 17.6 C 9.6 g/m*3 17.6 C 0 km/h
169 11-10-2008 14:02:02 17.8 C 9.56 g/m*3 17.8 C 0 km/h
170 11-10-2008 14:07:02 17.9 C 9.62 g/m*3 17.9 C 0 km/h
171 11-10-2008 14:12:02 18.1 C 9.43 g/m*3 18.1 C 0 km/h
172 11-10-2008 14:17:02 18.3 C 9.54 g/m*3 18.3 C 0 km/h
173 11-10-2008 14:22:02 18.5 C 9.65 g/m*3 18.5 C 0 km/h
174 11-10-2008 14:27:02 18.9 C 9.72 g/m*3 18.9 C 0 km/h
175 11-10-2008 14:32:02 19.3 C 9.45 g/m*3 19.3 C 0 km/h
Sensor: Nr:Datum:Temp:Abs-Feuchte:Windchill:Wind:
Aussen-T/F 176 11-10-2008 14:37:02 19.5 C 9.57 g/m*3 19.5 C 0 km/h
177 11-10-2008 14:42:02 19.9 C 9.79 g/m*3 19.9 C 0 km/h
178 11-10-2008 14:47:02 20.1 C 9.21 g/m*3 20.1 C 0 km/h
179 11-10-2008 14:52:02 20.1 C 9.21 g/m*3 20.1 C 0 km/h
180 11-10-2008 14:57:02 20.2 C 9.27 g/m*3 20.2 C 0 km/h
181 11-10-2008 15:02:01 20.4 C 9.2 g/m*3 20.4 C 0 km/h
182 11-10-2008 15:07:01 20.5 C 9.25 g/m*3 20.5 C 0 km/h
183 11-10-2008 15:12:01 20.7 C 9.36 g/m*3 20.7 C 0 km/h
184 11-10-2008 15:17:01 20.8 C 9.6 g/m*3 20.8 C 0 km/h
185 11-10-2008 15:22:01 20.8 C 9.6 g/m*3 20.8 C 0 km/h
186 11-10-2008 15:27:01 20.8 C 9.6 g/m*3 20.8 C 0 km/h
187 11-10-2008 15:32:01 21 C 9.53 g/m*3 21 C 0 km/h
188 11-10-2008 15:37:01 21.3 C 9.51 g/m*3 21.3 C 0 km/h
189 11-10-2008 15:42:01 21.3 C 9.51 g/m*3 21.3 C 0 km/h
190 11-10-2008 15:47:01 21.4 C 9.56 g/m*3 21.4 C 0 km/h
191 11-10-2008 15:52:01 21.5 C 9.24 g/m*3 21.5 C 0 km/h
192 11-10-2008 15:57:01 21.6 C 9.48 g/m*3 21.6 C 0 km/h
193 11-10-2008 16:02:01 21.7 C 9.16 g/m*3 21.7 C 0 km/h
194 11-10-2008 16:07:01 21.6 C 8.91 g/m*3 21.6 C 0 km/h
195 11-10-2008 16:12:02 21.6 C 9.1 g/m*3 21.6 C 0 km/h
196 11-10-2008 16:17:01 21.6 C 9.1 g/m*3 21.6 C 0 km/h
197 11-10-2008 16:22:01 21.4 C 9 g/m*3 21.4 C 0 km/h
198 11-10-2008 16:27:01 21.1 C 9.03 g/m*3 21.1 C 0 km/h
199 11-10-2008 16:32:01 21.2 C 9.27 g/m*3 21.2 C 0 km/h
200 11-10-2008 16:37:01 20.8 C 9.23 g/m*3 20.8 C 0 km/h
Sensor: Nr:Datum:Temp:Abs-Feuchte:Windchill:Wind:
Aussen-T/F 201 11-10-2008 16:42:01 20.6 C 9.31 g/m*3 20.6 C 0 km/h
202 11-10-2008 16:47:02 20.5 C 9.43 g/m*3 20.5 C 0 km/h
203 11-10-2008 16:52:02 20.4 C 9.38 g/m*3 20.4 C 0 km/h
204 11-10-2008 16:57:02 20.3 C 9.32 g/m*3 20.3 C 0 km/h
205 11-10-2008 17:02:01 20.2 C 9.09 g/m*3 20.2 C 0 km/h
206 11-10-2008 17:07:01 19.9 C 9.11 g/m*3 19.9 C 0 km/h
207 11-10-2008 17:12:01 19.7 C 9.17 g/m*3 19.7 C 0 km/h
208 11-10-2008 17:17:02 19.5 C 9.06 g/m*3 19.5 C 0 km/h
209 11-10-2008 17:22:03 19.4 C 9.01 g/m*3 19.4 C 0 km/h
210 11-10-2008 17:27:03 19.1 C 9.02 g/m*3 19.1 C 0 km/h
211 11-10-2008 17:32:01 18.8 C 9.02 g/m*3 18.8 C 0 km/h
212 11-10-2008 17:37:01 18.6 C 9.07 g/m*3 18.6 C 0 km/h
213 11-10-2008 17:42:01 18.3 C 9.22 g/m*3 18.3 C 0 km/h
214 11-10-2008 17:47:02 18.3 C 9.38 g/m*3 18.3 C 0 km/h
215 11-10-2008 17:52:02 18.2 C 9.33 g/m*3 18.2 C 0 km/h
216 11-10-2008 17:57:02 17.7 C 9.2 g/m*3 17.7 C 0 km/h
217 11-10-2008 18:02:02 17.2 C 9.08 g/m*3 17.2 C 0 km/h
218 11-10-2008 18:07:02 17 C 9.12 g/m*3 17 C 0 km/h
219 11-10-2008 18:12:02 16.6 C 9.18 g/m*3 16.6 C 0 km/h
220 11-10-2008 18:17:01 16.3 C 9.16 g/m*3 16.3 C 0 km/h
221 11-10-2008 18:22:01 16 C 9.13 g/m*3 16 C 0 km/h
222 11-10-2008 18:27:01 15.9 C 9.34 g/m*3 15.9 C 0 km/h
223 11-10-2008 18:32:02 15.6 C 9.18 g/m*3 15.6 C 0 km/h
224 11-10-2008 18:37:03 15.3 C 9.14 g/m*3 15.3 C 0 km/h
225 11-10-2008 18:42:03 15.2 C 9.22 g/m*3 15.2 C 0 km/h
Sensor: Nr:Datum:Temp:Abs-Feuchte:Windchill:Wind:
Aussen-T/F 226 11-10-2008 18:47:02 15.1 C 9.29 g/m*3 15.1 C 0 km/h
227 11-10-2008 18:52:02 15 C 9.23 g/m*3 15 C 0 km/h
228 11-10-2008 18:57:02 14.9 C 9.43 g/m*3 14.9 C 0 km/h
229 11-10-2008 19:02:02 14.8 C 9.37 g/m*3 14.8 C 0 km/h
230 11-10-2008 19:07:02 14.6 C 9.26 g/m*3 14.6 C 0 km/h
231 11-10-2008 19:12:02 14.4 C 9.15 g/m*3 14.4 C 0 km/h
232 11-10-2008 19:17:02 14.4 C 9.27 g/m*3 14.4 C 0 km/h
233 11-10-2008 19:22:02 14.1 C 9.22 g/m*3 14.1 C 0 km/h
234 11-10-2008 19:27:02 13.6 C 9.18 g/m*3 13.6 C 0 km/h
235 11-10-2008 19:32:02 13.8 C 9.29 g/m*3 13.8 C 0 km/h
236 11-10-2008 19:37:02 13.7 C 9.35 g/m*3 13.7 C 0 km/h
237 11-10-2008 19:42:02 13.7 C 9.35 g/m*3 13.7 C 0 km/h
238 11-10-2008 19:47:02 13.8 C 9.53 g/m*3 13.8 C 0 km/h
239 11-10-2008 19:52:02 14 C 9.53 g/m*3 14 C 0 km/h
240 11-10-2008 19:57:02 14.1 C 9.59 g/m*3 14.1 C 0 km/h
241 11-10-2008 20:02:02 14.1 C 9.59 g/m*3 14.1 C 0 km/h
242 11-10-2008 20:07:02 14.2 C 9.52 g/m*3 14.2 C 0 km/h
243 11-10-2008 20:12:02 14.2 C 9.52 g/m*3 14.2 C 0 km/h
244 11-10-2008 20:17:02 14.2 C 9.52 g/m*3 14.2 C 0 km/h
245 11-10-2008 20:22:02 14.3 C 9.58 g/m*3 14.3 C 0 km/h
246 11-10-2008 20:27:02 14.3 C 9.58 g/m*3 14.3 C 0 km/h
247 11-10-2008 20:32:02 14.4 C 9.64 g/m*3 14.4 C 0 km/h
248 11-10-2008 20:37:02 14.4 C 9.64 g/m*3 14.4 C 0 km/h
249 11-10-2008 20:42:02 14.5 C 9.7 g/m*3 14.5 C 0 km/h
250 11-10-2008 20:47:02 14.5 C 9.58 g/m*3 14.5 C 0 km/h
Sensor: Nr:Datum:Temp:Abs-Feuchte:Windchill:Wind:
Aussen-T/F 251 11-10-2008 20:52:02 14.5 C 9.58 g/m*3 14.5 C 0 km/h
252 11-10-2008 20:57:02 14.7 C 9.69 g/m*3 14.7 C 0 km/h
253 11-10-2008 21:02:01 14.7 C 9.69 g/m*3 14.7 C 0 km/h
254 11-10-2008 21:07:01 14.6 C 9.64 g/m*3 14.6 C 0 km/h
255 11-10-2008 21:12:01 14.6 C 9.64 g/m*3 14.6 C 0 km/h
256 11-10-2008 21:17:02 14.6 C 9.64 g/m*3 14.6 C 0 km/h
257 11-10-2008 21:22:02 14.6 C 9.64 g/m*3 14.6 C 0 km/h
258 11-10-2008 21:27:02 14.6 C 9.64 g/m*3 14.6 C 0 km/h
259 11-10-2008 21:32:01 14.5 C 9.58 g/m*3 14.5 C 0 km/h
260 11-10-2008 21:37:01 14.6 C 9.64 g/m*3 14.6 C 0 km/h
261 11-10-2008 21:42:01 14.6 C 9.64 g/m*3 14.6 C 0 km/h
262 11-10-2008 21:47:01 14.6 C 9.64 g/m*3 14.6 C 0 km/h
263 11-10-2008 21:52:01 14.6 C 9.76 g/m*3 14.6 C 0 km/h
264 11-10-2008 21:57:01 14.6 C 9.76 g/m*3 14.6 C 0 km/h
265 11-10-2008 22:02:02 14.6 C 9.76 g/m*3 14.6 C 0 km/h
266 11-10-2008 22:07:02 14.6 C 9.76 g/m*3 14.6 C 0 km/h
267 11-10-2008 22:12:02 14.6 C 9.76 g/m*3 14.6 C 0 km/h
268 11-10-2008 22:17:01 14.6 C 9.76 g/m*3 14.6 C 0 km/h
269 11-10-2008 22:22:01 14.6 C 9.76 g/m*3 14.6 C 0 km/h
270 11-10-2008 22:27:01 14.6 C 9.76 g/m*3 14.6 C 0 km/h
271 11-10-2008 22:32:02 14.6 C 9.76 g/m*3 14.6 C 0 km/h
272 11-10-2008 22:37:02 14.4 C 9.64 g/m*3 14.4 C 0 km/h
273 11-10-2008 22:42:02 14.4 C 9.64 g/m*3 14.4 C 0 km/h
274 11-10-2008 22:47:02 14.4 C 9.64 g/m*3 14.4 C 0 km/h
275 11-10-2008 22:52:03 14.4 C 9.64 g/m*3 14.4 C 0 km/h
Sensor: Nr:Datum:Temp:Abs-Feuchte:Windchill:Wind:
Aussen-T/F 276 11-10-2008 22:57:03 14.4 C 9.64 g/m*3 14.4 C 0 km/h
277 11-10-2008 23:02:02 14.4 C 9.64 g/m*3 14.4 C 0 km/h
278 11-10-2008 23:07:02 14.4 C 9.64 g/m*3 14.4 C 0 km/h
279 11-10-2008 23:12:02 14.4 C 9.64 g/m*3 14.4 C 0 km/h
280 11-10-2008 23:17:02 14.4 C 9.64 g/m*3 14.4 C 0 km/h
281 11-10-2008 23:22:02 14.4 C 9.64 g/m*3 14.4 C 0 km/h
282 11-10-2008 23:27:02 14.4 C 9.64 g/m*3 14.4 C 0 km/h
283 11-10-2008 23:33:03 14.7 C 9.82 g/m*3 14.7 C 0 km/h
284 11-10-2008 23:38:03 14.3 C 9.58 g/m*3 14.3 C 0 km/h
285 11-10-2008 23:43:03 14.2 C 9.52 g/m*3 14.2 C 0 km/h
286 11-10-2008 23:48:03 14 C 9.41 g/m*3 14 C 0 km/h
287 11-10-2008 23:53:03 14.1 C 9.47 g/m*3 14.1 C 0 km/h
288 11-10-2008 23:58:03 14 C 9.41 g/m*3 14 C 0 km/h
289 12-10-2008 00:03:03 13.7 C 9.35 g/m*3 13.7 C 0 km/h
290 12-10-2008 00:08:03 13.9 C 9.47 g/m*3 13.9 C 0 km/h
291 12-10-2008 00:13:03 13.9 C 9.35 g/m*3 13.9 C 0 km/h
292 12-10-2008 00:18:03 13.8 C 9.29 g/m*3 13.8 C 0 km/h
293 12-10-2008 00:23:03 13.8 C 9.29 g/m*3 13.8 C 0 km/h
294 12-10-2008 00:28:03 13.8 C 9.29 g/m*3 13.8 C 0 km/h
295 12-10-2008 00:33:03 13.7 C 9.12 g/m*3 13.7 C 0 km/h
296 12-10-2008 00:38:04 13.6 C 9.18 g/m*3 13.6 C 0 km/h
297 12-10-2008 00:43:04 13.7 C 9.24 g/m*3 13.7 C 0 km/h
298 12-10-2008 00:48:04 13.6 C 9.18 g/m*3 13.6 C 0 km/h
299 12-10-2008 00:53:04 13.5 C 9.12 g/m*3 13.5 C 0 km/h
300 12-10-2008 00:58:04 13.5 C 9.12 g/m*3 13.5 C 0 km/h
Sensor: Nr:Datum:Temp:Abs-Feuchte:Windchill:Wind:
Aussen-T/F 301 12-10-2008 01:03:04 13.4 C 9.07 g/m*3 13.4 C 0 km/h
302 12-10-2008 01:08:04 13.3 C 9.01 g/m*3 13.3 C 0 km/h
303 12-10-2008 01:13:04 13.2 C 8.96 g/m*3 13.2 C 0 km/h
304 12-10-2008 01:18:04 13.1 C 9.01 g/m*3 13.1 C 0 km/h
305 12-10-2008 01:23:04 12.9 C 8.9 g/m*3 12.9 C 0 km/h
306 12-10-2008 01:28:04 12.8 C 8.96 g/m*3 12.8 C 0 km/h
307 12-10-2008 01:33:04 12.7 C 8.91 g/m*3 12.7 C 0 km/h
308 12-10-2008 01:38:04 12.4 C 8.85 g/m*3 12.4 C 0 km/h
309 12-10-2008 01:43:04 12.2 C 8.74 g/m*3 12.2 C 0 km/h
310 12-10-2008 01:48:04 12.2 C 8.85 g/m*3 12.2 C 0 km/h
311 12-10-2008 01:53:04 12.2 C 8.85 g/m*3 12.2 C 0 km/h
312 12-10-2008 01:58:04 12 C 8.74 g/m*3 12 C 0 km/h
313 12-10-2008 02:03:04 12.1 C 8.9 g/m*3 12.1 C 0 km/h
314 12-10-2008 02:08:04 12.1 C 8.9 g/m*3 12.1 C 0 km/h
315 12-10-2008 02:13:04 12.2 C 9.06 g/m*3 12.2 C 0 km/h
316 12-10-2008 02:18:05 12.1 C 9.01 g/m*3 12.1 C 0 km/h
317 12-10-2008 02:23:05 12.1 C 9.01 g/m*3 12.1 C 0 km/h
318 12-10-2008 02:28:05 12.1 C 9.01 g/m*3 12.1 C 0 km/h
319 12-10-2008 02:33:05 12.3 C 9.12 g/m*3 12.3 C 0 km/h
320 12-10-2008 02:38:05 12.4 C 9.18 g/m*3 12.4 C 0 km/h
321 12-10-2008 02:43:05 12.5 C 9.24 g/m*3 12.5 C 0 km/h
322 12-10-2008 02:48:05 12.6 C 9.29 g/m*3 12.6 C 0 km/h
323 12-10-2008 02:53:05 12.7 C 9.35 g/m*3 12.7 C 0 km/h
324 12-10-2008 02:58:05 12.8 C 9.3 g/m*3 12.8 C 0 km/h
325 12-10-2008 03:03:05 12.8 C 9.3 g/m*3 12.8 C 0 km/h
Sensor: Nr:Datum:Temp:Abs-Feuchte:Windchill:Wind:
Aussen-T/F 326 12-10-2008 03:08:05 12.9 C 9.24 g/m*3 12.9 C 0 km/h
327 12-10-2008 03:13:05 12.9 C 9.24 g/m*3 12.9 C 0 km/h
328 12-10-2008 03:18:05 12.9 C 9.24 g/m*3 12.9 C 0 km/h
329 12-10-2008 03:23:05 13 C 9.19 g/m*3 13 C 0 km/h
330 12-10-2008 03:28:05 13 C 9.19 g/m*3 13 C 0 km/h
331 12-10-2008 03:33:05 13 C 9.19 g/m*3 13 C 0 km/h
332 12-10-2008 03:38:05 13 C 9.19 g/m*3 13 C 0 km/h
333 12-10-2008 03:43:05 13 C 9.19 g/m*3 13 C 0 km/h
334 12-10-2008 03:48:05 13 C 9.19 g/m*3 13 C 0 km/h
335 12-10-2008 03:53:05 12.9 C 9.24 g/m*3 12.9 C 0 km/h
336 12-10-2008 03:58:05 12.9 C 9.24 g/m*3 12.9 C 0 km/h
337 12-10-2008 04:03:06 12.9 C 9.24 g/m*3 12.9 C 0 km/h
338 12-10-2008 04:08:06 12.9 C 9.24 g/m*3 12.9 C 0 km/h
339 12-10-2008 04:13:06 12.9 C 9.24 g/m*3 12.9 C 0 km/h
340 12-10-2008 04:18:06 12.9 C 9.35 g/m*3 12.9 C 0 km/h
341 12-10-2008 04:23:06 12.9 C 9.35 g/m*3 12.9 C 0 km/h
342 12-10-2008 04:28:06 12.9 C 9.35 g/m*3 12.9 C 0 km/h
343 12-10-2008 04:33:06 12.9 C 9.35 g/m*3 12.9 C 0 km/h
344 12-10-2008 04:38:06 12.9 C 9.35 g/m*3 12.9 C 0 km/h
345 12-10-2008 04:43:06 12.9 C 9.35 g/m*3 12.9 C 0 km/h
346 12-10-2008 04:48:06 13 C 9.3 g/m*3 13 C 0 km/h
347 12-10-2008 04:53:06 12.9 C 9.35 g/m*3 12.9 C 0 km/h
348 12-10-2008 04:58:06 12.9 C 9.35 g/m*3 12.9 C 0 km/h
349 12-10-2008 05:03:06 13 C 9.3 g/m*3 13 C 0 km/h
350 12-10-2008 05:08:06 13 C 9.3 g/m*3 13 C 0 km/h
Sensor: Nr:Datum:Temp:Abs-Feuchte:Windchill:Wind:
Aussen-T/F 351 12-10-2008 05:13:06 13 C 9.3 g/m*3 13 C 0 km/h
352 12-10-2008 05:18:06 13.1 C 9.36 g/m*3 13.1 C 0 km/h
353 12-10-2008 05:23:06 13.1 C 9.36 g/m*3 13.1 C 0 km/h
354 12-10-2008 05:28:06 13.1 C 9.36 g/m*3 13.1 C 0 km/h
355 12-10-2008 05:33:06 13.1 C 9.36 g/m*3 13.1 C 0 km/h
356 12-10-2008 05:38:06 13 C 9.3 g/m*3 13 C 0 km/h
357 12-10-2008 05:43:06 12.9 C 9.24 g/m*3 12.9 C 0 km/h
358 12-10-2008 05:48:07 12.8 C 9.3 g/m*3 12.8 C 0 km/h
359 12-10-2008 05:53:07 12.8 C 9.3 g/m*3 12.8 C 0 km/h
360 12-10-2008 05:58:07 12.9 C 9.35 g/m*3 12.9 C 0 km/h
361 12-10-2008 06:03:07 12.9 C 9.35 g/m*3 12.9 C 0 km/h
362 12-10-2008 06:08:07 12.9 C 9.35 g/m*3 12.9 C 0 km/h
363 12-10-2008 06:13:07 13 C 9.3 g/m*3 13 C 0 km/h
364 12-10-2008 06:18:07 12.9 C 9.35 g/m*3 12.9 C 0 km/h
365 12-10-2008 06:23:07 13 C 9.3 g/m*3 13 C 0 km/h
366 12-10-2008 06:28:07 12.9 C 9.35 g/m*3 12.9 C 0 km/h
367 12-10-2008 06:33:07 12.8 C 9.3 g/m*3 12.8 C 0 km/h
368 12-10-2008 06:38:07 12.8 C 9.3 g/m*3 12.8 C 0 km/h
369 12-10-2008 06:43:07 12.8 C 9.3 g/m*3 12.8 C 0 km/h
370 12-10-2008 06:48:07 12.8 C 9.3 g/m*3 12.8 C 0 km/h
371 12-10-2008 06:53:07 12.8 C 9.3 g/m*3 12.8 C 0 km/h
372 12-10-2008 06:58:07 12.7 C 9.24 g/m*3 12.7 C 0 km/h
373 12-10-2008 07:03:07 12.8 C 9.41 g/m*3 12.8 C 0 km/h
374 12-10-2008 07:08:07 12.8 C 9.41 g/m*3 12.8 C 0 km/h
375 12-10-2008 07:13:07 12.8 C 9.3 g/m*3 12.8 C 0 km/h
Sensor: Nr:Datum:Temp:Abs-Feuchte:Windchill:Wind:
Aussen-T/F 376 12-10-2008 07:18:07 12.8 C 9.3 g/m*3 12.8 C 0 km/h
377 12-10-2008 07:23:07 12.8 C 9.3 g/m*3 12.8 C 0 km/h
378 12-10-2008 07:28:08 12.8 C 9.3 g/m*3 12.8 C 0 km/h
379 12-10-2008 07:33:08 12.8 C 9.3 g/m*3 12.8 C 0 km/h
380 12-10-2008 07:38:08 12.8 C 9.3 g/m*3 12.8 C 0 km/h
381 12-10-2008 07:43:08 12.6 C 9.18 g/m*3 12.6 C 0 km/h
382 12-10-2008 07:48:08 12.6 C 9.18 g/m*3 12.6 C 0 km/h
383 12-10-2008 07:53:08 12.6 C 9.18 g/m*3 12.6 C 0 km/h
384 12-10-2008 07:58:08 12.7 C 9.24 g/m*3 12.7 C 0 km/h
385 12-10-2008 08:03:08 12.8 C 9.3 g/m*3 12.8 C 0 km/h
386 12-10-2008 08:08:08 12.8 C 9.3 g/m*3 12.8 C 0 km/h
387 12-10-2008 08:13:08 12.9 C 9.35 g/m*3 12.9 C 0 km/h
388 12-10-2008 08:18:08 12.8 C 9.3 g/m*3 12.8 C 0 km/h
389 12-10-2008 08:23:08 12.9 C 9.35 g/m*3 12.9 C 0 km/h
390 12-10-2008 08:28:08 12.9 C 9.35 g/m*3 12.9 C 0 km/h
391 12-10-2008 08:33:08 13 C 9.41 g/m*3 13 C 0 km/h
392 12-10-2008 08:38:08 13.1 C 9.47 g/m*3 13.1 C 0 km/h
393 12-10-2008 08:43:08 13.1 C 9.36 g/m*3 13.1 C 0 km/h
394 12-10-2008 08:48:08 13.1 C 9.36 g/m*3 13.1 C 0 km/h
395 12-10-2008 08:53:08 13.1 C 9.24 g/m*3 13.1 C 0 km/h
396 12-10-2008 08:58:08 13.1 C 9.24 g/m*3 13.1 C 0 km/h
397 12-10-2008 09:03:08 13.1 C 9.24 g/m*3 13.1 C 0 km/h
398 12-10-2008 09:08:08 13.1 C 9.24 g/m*3 13.1 C 0 km/h
399 12-10-2008 09:13:09 13.1 C 9.13 g/m*3 13.1 C 0 km/h
400 12-10-2008 09:18:02 13.1 C 9.13 g/m*3 13.1 C 0 km/h
Sensor: Nr:Datum:Temp:Abs-Feuchte:Windchill:Wind:
Aussen-T/F 401 12-10-2008 09:23:02 13.1 C 9.13 g/m*3 13.1 C 0 km/h
402 12-10-2008 09:28:02 13.1 C 9.13 g/m*3 13.1 C 0 km/h
403 12-10-2008 09:33:03 13.1 C 9.24 g/m*3 13.1 C 0 km/h
404 12-10-2008 09:38:03 13.1 C 9.13 g/m*3 13.1 C 0 km/h
405 12-10-2008 09:43:03 13.1 C 9.13 g/m*3 13.1 C 0 km/h
406 12-10-2008 09:48:02 13.1 C 9.13 g/m*3 13.1 C 0 km/h
407 12-10-2008 09:53:02 13.2 C 9.19 g/m*3 13.2 C 0 km/h
408 12-10-2008 09:58:02 13.2 C 9.19 g/m*3 13.2 C 0 km/h
409 12-10-2008 10:03:03 13.2 C 9.19 g/m*3 13.2 C 0 km/h
410 12-10-2008 10:08:03 13.2 C 9.19 g/m*3 13.2 C 0 km/h
411 12-10-2008 10:13:03 13.2 C 9.19 g/m*3 13.2 C 0 km/h
412 12-10-2008 10:18:02 13.4 C 9.3 g/m*3 13.4 C 0 km/h
413 12-10-2008 10:23:02 13.4 C 9.3 g/m*3 13.4 C 0 km/h
414 12-10-2008 10:28:02 13.6 C 9.3 g/m*3 13.6 C 0 km/h
415 12-10-2008 10:33:03 13.7 C 9.24 g/m*3 13.7 C 0 km/h
416 12-10-2008 10:38:03 13.8 C 9.29 g/m*3 13.8 C 0 km/h
417 12-10-2008 10:43:03 13.8 C 9.29 g/m*3 13.8 C 0 km/h
418 12-10-2008 10:48:02 13.8 C 9.17 g/m*3 13.8 C 0 km/h
419 12-10-2008 10:53:02 13.9 C 9.23 g/m*3 13.9 C 0 km/h
420 12-10-2008 10:58:02 14 C 9.17 g/m*3 14 C 0 km/h
421 12-10-2008 11:03:02 14.2 C 9.16 g/m*3 14.2 C 0 km/h
422 12-10-2008 11:08:02 14.2 C 9.04 g/m*3 14.2 C 0 km/h
423 12-10-2008 11:13:02 14.3 C 9.09 g/m*3 14.3 C 0 km/h
424 12-10-2008 11:18:02 14.3 C 9.09 g/m*3 14.3 C 0 km/h
425 12-10-2008 11:23:02 14.4 C 9.15 g/m*3 14.4 C 0 km/h
Sensor: Nr:Datum:Temp:Abs-Feuchte:Windchill:Wind:
Aussen-T/F 426 12-10-2008 11:28:02 14.3 C 9.09 g/m*3 14.3 C 0 km/h
427 12-10-2008 11:33:02 14.4 C 9.02 g/m*3 14.4 C 0 km/h
428 12-10-2008 11:38:02 14.5 C 9.08 g/m*3 14.5 C 0 km/h
429 12-10-2008 11:43:02 14.6 C 9.13 g/m*3 14.6 C 0 km/h
430 12-10-2008 11:48:01 14.7 C 9.19 g/m*3 14.7 C 0 km/h
431 12-10-2008 11:53:01 14.8 C 9.12 g/m*3 14.8 C 0 km/h
432 12-10-2008 11:58:01 14.9 C 9.18 g/m*3 14.9 C 0 km/h
433 12-10-2008 12:03:02 15 C 9.1 g/m*3 15 C 0 km/h
434 12-10-2008 12:08:02 15.1 C 9.03 g/m*3 15.1 C 0 km/h
435 12-10-2008 12:13:02 15.1 C 9.03 g/m*3 15.1 C 0 km/h
436 12-10-2008 12:18:01 15.1 C 9.03 g/m*3 15.1 C 0 km/h
437 12-10-2008 12:23:01 15.3 C 9.14 g/m*3 15.3 C 0 km/h
438 12-10-2008 12:28:01 15.5 C 9.25 g/m*3 15.5 C 0 km/h
439 12-10-2008 12:33:02 15.6 C 9.44 g/m*3 15.6 C 0 km/h
440 12-10-2008 12:38:02 15.9 C 9.62 g/m*3 15.9 C 0 km/h
441 12-10-2008 12:43:02 16.3 C 9.71 g/m*3 16.3 C 0 km/h
442 12-10-2008 12:48:02 16.4 C 9.63 g/m*3 16.4 C 0 km/h
443 12-10-2008 12:53:02 16.6 C 9.46 g/m*3 16.6 C 0 km/h
444 12-10-2008 12:58:02 16.7 C 9.38 g/m*3 16.7 C 0 km/h
445 12-10-2008 13:03:02 16.9 C 9.49 g/m*3 16.9 C 0 km/h
446 12-10-2008 13:08:02 16.9 C 9.49 g/m*3 16.9 C 0 km/h
447 12-10-2008 13:13:02 17.4 C 9.48 g/m*3 17.4 C 0 km/h
448 12-10-2008 13:18:02 17.7 C 9.51 g/m*3 17.7 C 0 km/h
449 12-10-2008 13:23:02 17.9 C 9.47 g/m*3 17.9 C 0 km/h
450 12-10-2008 13:28:02 18.1 C 9.27 g/m*3 18.1 C 0 km/h
Sensor: Nr:Datum:Temp:Abs-Feuchte:Windchill:Wind:
Aussen-T/F 451 12-10-2008 13:33:02 18.4 C 9.44 g/m*3 18.4 C 0 km/h
452 12-10-2008 13:38:02 18.6 C 9.39 g/m*3 18.6 C 0 km/h
453 12-10-2008 13:43:02 18.9 C 9.56 g/m*3 18.9 C 0 km/h
454 12-10-2008 13:48:02 19.4 C 9.68 g/m*3 19.4 C 0 km/h
455 12-10-2008 13:53:02 19.8 C 9.57 g/m*3 19.8 C 0 km/h
456 12-10-2008 13:58:02 19.8 C 9.57 g/m*3 19.8 C 0 km/h
457 12-10-2008 14:03:02 20 C 9.16 g/m*3 20 C 0 km/h
458 12-10-2008 14:08:02 20.3 C 9.32 g/m*3 20.3 C 0 km/h
459 12-10-2008 14:13:02 20.4 C 9.38 g/m*3 20.4 C 0 km/h
460 12-10-2008 14:18:02 20.6 C 9.31 g/m*3 20.6 C 0 km/h
461 12-10-2008 14:23:02 20.8 C 9.23 g/m*3 20.8 C 0 km/h
462 12-10-2008 14:28:02 20.9 C 9.29 g/m*3 20.9 C 0 km/h
463 12-10-2008 14:33:02 21.2 C 9.45 g/m*3 21.2 C 0 km/h
464 12-10-2008 14:38:02 21.2 C 8.9 g/m*3 21.2 C 0 km/h
465 12-10-2008 14:43:02 21.2 C 9.08 g/m*3 21.2 C 0 km/h
466 12-10-2008 14:48:02 21.4 C 9.19 g/m*3 21.4 C 0 km/h
467 12-10-2008 14:53:02 21.6 C 9.48 g/m*3 21.6 C 0 km/h
468 12-10-2008 14:58:02 21.8 C 9.21 g/m*3 21.8 C 0 km/h
469 12-10-2008 15:03:02 21.9 C 9.26 g/m*3 21.9 C 0 km/h
470 12-10-2008 15:08:02 22.2 C 9.62 g/m*3 22.2 C 0 km/h
471 12-10-2008 15:13:02 22.4 C 9.53 g/m*3 22.4 C 0 km/h
472 12-10-2008 15:18:02 22.6 C 9.24 g/m*3 22.6 C 0 km/h
473 12-10-2008 15:23:02 22.7 C 9.29 g/m*3 22.7 C 0 km/h
474 12-10-2008 15:28:02 22.8 C 9.35 g/m*3 22.8 C 0 km/h
475 12-10-2008 15:33:02 23 C 9.45 g/m*3 23 C 0 km/h
Sensor: Nr:Datum:Temp:Abs-Feuchte:Windchill:Wind:
Aussen-T/F 476 12-10-2008 15:38:02 23.3 C 9.62 g/m*3 23.3 C 0 km/h
477 12-10-2008 15:43:02 23.3 C 9.62 g/m*3 23.3 C 0 km/h
478 12-10-2008 15:48:02 23.5 C 9.52 g/m*3 23.5 C 0 km/h
479 12-10-2008 15:53:02 23.6 C 9.57 g/m*3 23.6 C 0 km/h
480 12-10-2008 15:58:02 23.6 C 9.36 g/m*3 23.6 C 0 km/h
481 12-10-2008 16:03:02 23.4 C 9.46 g/m*3 23.4 C 0 km/h
482 12-10-2008 16:08:02 23.4 C 9.46 g/m*3 23.4 C 0 km/h
483 12-10-2008 16:13:02 23.1 C 9.3 g/m*3 23.1 C 0 km/h
484 12-10-2008 16:18:02 22.9 C 9.61 g/m*3 22.9 C 0 km/h
485 12-10-2008 16:23:02 22.9 C 9.61 g/m*3 22.9 C 0 km/h
486 12-10-2008 16:28:02 22.8 C 9.55 g/m*3 22.8 C 0 km/h
487 12-10-2008 16:33:02 22.5 C 9.59 g/m*3 22.5 C 0 km/h
488 12-10-2008 16:38:02 22.4 C 9.53 g/m*3 22.4 C 0 km/h
489 12-10-2008 16:43:02 22 C 9.51 g/m*3 22 C 0 km/h
490 12-10-2008 16:48:02 22.1 C 9.76 g/m*3 22.1 C 0 km/h
491 12-10-2008 16:53:02 21.9 C 9.65 g/m*3 21.9 C 0 km/h
492 12-10-2008 16:58:02 21.8 C 9.78 g/m*3 21.8 C 0 km/h
493 12-10-2008 17:03:01 21.7 C 9.73 g/m*3 21.7 C 0 km/h
494 12-10-2008 17:08:01 21.5 C 9.62 g/m*3 21.5 C 0 km/h
495 12-10-2008 17:13:01 21.4 C 9.75 g/m*3 21.4 C 0 km/h
496 12-10-2008 17:18:02 21.1 C 9.77 g/m*3 21.1 C 0 km/h
497 12-10-2008 17:23:02 20.8 C 9.78 g/m*3 20.8 C 0 km/h
498 12-10-2008 17:28:02 20.7 C 9.9 g/m*3 20.7 C 0 km/h
499 12-10-2008 17:33:02 20.7 C 10.08 g/m*3 20.7 C 0 km/h
500 12-10-2008 17:38:02 20.8 C 9.96 g/m*3 20.8 C 0 km/h
Sensor: Nr:Datum:Temp:Abs-Feuchte:Windchill:Wind:
Aussen-T/F 501 12-10-2008 17:43:02 20.8 C 9.96 g/m*3 20.8 C 0 km/h
502 12-10-2008 17:48:02 20.7 C 9.9 g/m*3 20.7 C 0 km/h
503 12-10-2008 17:53:02 20.5 C 9.79 g/m*3 20.5 C 0 km/h
504 12-10-2008 17:58:02 20.2 C 9.97 g/m*3 20.2 C 0 km/h
505 12-10-2008 18:03:02 20 C 9.85 g/m*3 20 C 0 km/h
506 12-10-2008 18:08:02 19.6 C 9.96 g/m*3 19.6 C 0 km/h
507 12-10-2008 18:13:02 19.3 C 10.12 g/m*3 19.3 C 0 km/h
508 12-10-2008 18:18:02 19.1 C 10 g/m*3 19.1 C 0 km/h
509 12-10-2008 18:23:02 18.8 C 10.15 g/m*3 18.8 C 0 km/h
510 12-10-2008 18:28:02 18.4 C 10.07 g/m*3 18.4 C 0 km/h
511 12-10-2008 18:33:02 18.2 C 10.1 g/m*3 18.2 C 0 km/h
512 12-10-2008 18:38:02 17.9 C 10.38 g/m*3 17.9 C 0 km/h
513 12-10-2008 18:43:02 17.7 C 10.41 g/m*3 17.7 C 0 km/h
514 12-10-2008 18:48:02 17.5 C 10.44 g/m*3 17.5 C 0 km/h
515 12-10-2008 18:53:02 17.5 C 10.44 g/m*3 17.5 C 0 km/h
516 12-10-2008 18:58:02 17.4 C 10.37 g/m*3 17.4 C 0 km/h
517 12-10-2008 19:03:01 17.1 C 10.34 g/m*3 17.1 C 0 km/h
518 12-10-2008 19:08:01 17 C 10.27 g/m*3 17 C 0 km/h
519 12-10-2008 19:13:01 16.8 C 10.44 g/m*3 16.8 C 0 km/h
520 12-10-2008 19:18:02 16.5 C 10.39 g/m*3 16.5 C 0 km/h
521 12-10-2008 19:23:02 16.4 C 10.33 g/m*3 16.4 C 0 km/h
522 12-10-2008 19:28:02 16.4 C 10.47 g/m*3 16.4 C 0 km/h
523 12-10-2008 19:33:02 16.3 C 10.54 g/m*3 16.3 C 0 km/h
524 12-10-2008 19:38:02 16.2 C 10.48 g/m*3 16.2 C 0 km/h
525 12-10-2008 19:43:02 16.1 C 10.42 g/m*3 16.1 C 0 km/h
Sensor: Nr:Datum:Temp:Abs-Feuchte:Windchill:Wind:
Aussen-T/F 526 12-10-2008 19:48:02 16.1 C 10.42 g/m*3 16.1 C 0 km/h
527 12-10-2008 19:53:02 16 C 10.49 g/m*3 16 C 0 km/h
528 12-10-2008 19:58:02 15.9 C 10.56 g/m*3 15.9 C 0 km/h
529 12-10-2008 20:03:02 15.8 C 10.5 g/m*3 15.8 C 0 km/h
530 12-10-2008 20:08:02 15.7 C 10.44 g/m*3 15.7 C 0 km/h
531 12-10-2008 20:13:02 15.7 C 10.44 g/m*3 15.7 C 0 km/h
532 12-10-2008 20:18:02 15.6 C 10.51 g/m*3 15.6 C 0 km/h
533 12-10-2008 20:23:02 15.5 C 10.44 g/m*3 15.5 C 0 km/h
534 12-10-2008 20:28:02 15.4 C 10.38 g/m*3 15.4 C 0 km/h
535 12-10-2008 20:33:02 15.2 C 10.25 g/m*3 15.2 C 0 km/h
536 12-10-2008 20:38:02 15.1 C 10.19 g/m*3 15.1 C 0 km/h
537 12-10-2008 20:43:02 15 C 10.13 g/m*3 15 C 0 km/h
538 12-10-2008 20:48:02 15 C 10.26 g/m*3 15 C 0 km/h
539 12-10-2008 20:53:02 15 C 10.26 g/m*3 15 C 0 km/h
540 12-10-2008 20:58:02 15 C 10.39 g/m*3 15 C 0 km/h
541 12-10-2008 21:03:02 15 C 10.39 g/m*3 15 C 0 km/h
542 12-10-2008 21:08:02 15 C 10.39 g/m*3 15 C 0 km/h
543 12-10-2008 21:13:02 14.8 C 10.26 g/m*3 14.8 C 0 km/h
544 12-10-2008 21:18:01 14.8 C 10.26 g/m*3 14.8 C 0 km/h
545 12-10-2008 21:23:01 14.7 C 10.32 g/m*3 14.7 C 0 km/h
546 12-10-2008 21:28:01 14.7 C 10.32 g/m*3 14.7 C 0 km/h
547 12-10-2008 21:33:02 14.7 C 10.32 g/m*3 14.7 C 0 km/h
548 12-10-2008 21:38:02 14.6 C 10.14 g/m*3 14.6 C 0 km/h
549 12-10-2008 21:43:02 14.5 C 10.2 g/m*3 14.5 C 0 km/h
550 12-10-2008 21:48:02 14.4 C 10.14 g/m*3 14.4 C 0 km/h
Sensor: Nr:Datum:Temp:Abs-Feuchte:Windchill:Wind:
Aussen-T/F 551 12-10-2008 21:53:03 14.2 C 10.01 g/m*3 14.2 C 0 km/h
552 12-10-2008 21:58:03 13.8 C 9.89 g/m*3 13.8 C 0 km/h
553 12-10-2008 22:03:02 13.8 C 9.89 g/m*3 13.8 C 0 km/h
554 12-10-2008 22:08:02 13.8 C 9.89 g/m*3 13.8 C 0 km/h
555 12-10-2008 22:13:02 13.7 C 9.83 g/m*3 13.7 C 0 km/h
556 12-10-2008 22:18:02 13.7 C 9.95 g/m*3 13.7 C 0 km/h
557 12-10-2008 22:23:02 13.6 C 9.89 g/m*3 13.6 C 0 km/h
558 12-10-2008 22:28:02 13.5 C 9.83 g/m*3 13.5 C 0 km/h
559 12-10-2008 22:33:02 13.5 C 9.83 g/m*3 13.5 C 0 km/h
560 12-10-2008 22:38:02 13.5 C 9.83 g/m*3 13.5 C 0 km/h
561 12-10-2008 22:43:02 13.4 C 9.76 g/m*3 13.4 C 0 km/h
562 12-10-2008 22:48:01 13.3 C 9.7 g/m*3 13.3 C 0 km/h
563 12-10-2008 22:53:01 13.3 C 9.7 g/m*3 13.3 C 0 km/h
564 12-10-2008 22:58:01 13.2 C 9.64 g/m*3 13.2 C 0 km/h
565 12-10-2008 23:03:02 13.2 C 9.64 g/m*3 13.2 C 0 km/h
566 12-10-2008 23:08:02 13.1 C 9.59 g/m*3 13.1 C 0 km/h
567 12-10-2008 23:13:02 13 C 9.53 g/m*3 13 C 0 km/h
568 12-10-2008 23:18:01 12.9 C 9.58 g/m*3 12.9 C 0 km/h
569 12-10-2008 23:23:01 12.8 C 9.52 g/m*3 12.8 C 0 km/h
570 12-10-2008 23:28:02 12.8 C 9.52 g/m*3 12.8 C 0 km/h
571 12-10-2008 23:33:01 12.7 C 9.46 g/m*3 12.7 C 0 km/h
572 12-10-2008 23:38:01 12.7 C 9.46 g/m*3 12.7 C 0 km/h
573 12-10-2008 23:43:01 12.6 C 9.4 g/m*3 12.6 C 0 km/h
574 12-10-2008 23:48:02 12.5 C 9.35 g/m*3 12.5 C 0 km/h
575 12-10-2008 23:53:02 12.4 C 9.29 g/m*3 12.4 C 0 km/h
Sensor: Nr:Datum:Temp:Abs-Feuchte:Windchill:Wind:
Aussen-T/F 576 12-10-2008 23:58:02 12.4 C 9.29 g/m*3 12.4 C 0 km/h
577 13-10-2008 00:04:04 12.3 C 9.23 g/m*3 12.3 C 0 km/h
578 13-10-2008 00:09:04 12.2 C 9.17 g/m*3 12.2 C 0 km/h
579 13-10-2008 00:14:04 12.2 C 9.17 g/m*3 12.2 C 0 km/h
580 13-10-2008 00:19:04 12.1 C 9.12 g/m*3 12.1 C 0 km/h
581 13-10-2008 00:24:04 12 C 9.06 g/m*3 12 C 0 km/h
582 13-10-2008 00:29:04 12 C 9.06 g/m*3 12 C 0 km/h
583 13-10-2008 00:34:04 12 C 9.06 g/m*3 12 C 0 km/h
584 13-10-2008 00:39:04 12 C 9.06 g/m*3 12 C 0 km/h
585 13-10-2008 00:44:04 11.8 C 9.05 g/m*3 11.8 C 0 km/h
586 13-10-2008 00:49:04 11.8 C 9.05 g/m*3 11.8 C 0 km/h
587 13-10-2008 00:54:04 11.7 C 8.99 g/m*3 11.7 C 0 km/h
588 13-10-2008 00:59:05 11.6 C 8.94 g/m*3 11.6 C 0 km/h
589 13-10-2008 01:04:05 11.5 C 8.88 g/m*3 11.5 C 0 km/h
590 13-10-2008 01:09:05 11.5 C 8.88 g/m*3 11.5 C 0 km/h
591 13-10-2008 01:14:05 11.4 C 8.83 g/m*3 11.4 C 0 km/h
592 13-10-2008 01:19:05 11.4 C 8.83 g/m*3 11.4 C 0 km/h
593 13-10-2008 01:24:05 11.3 C 8.77 g/m*3 11.3 C 0 km/h
594 13-10-2008 01:29:05 11.2 C 8.72 g/m*3 11.2 C 0 km/h
595 13-10-2008 01:34:05 11.2 C 8.82 g/m*3 11.2 C 0 km/h
596 13-10-2008 01:39:05 11.2 C 8.82 g/m*3 11.2 C 0 km/h
597 13-10-2008 01:44:05 11.1 C 8.76 g/m*3 11.1 C 0 km/h
598 13-10-2008 01:49:05 11.2 C 8.82 g/m*3 11.2 C 0 km/h
599 13-10-2008 01:54:05 11.3 C 8.87 g/m*3 11.3 C 0 km/h
600 13-10-2008 01:59:05 11.3 C 8.87 g/m*3 11.3 C 0 km/h
Sensor: Nr:Datum:Temp:Abs-Feuchte:Windchill:Wind:
Aussen-T/F 601 13-10-2008 02:04:05 11.4 C 8.93 g/m*3 11.4 C 0 km/h
602 13-10-2008 02:09:05 11.4 C 8.93 g/m*3 11.4 C 0 km/h
603 13-10-2008 02:14:05 11.4 C 8.93 g/m*3 11.4 C 0 km/h
604 13-10-2008 02:19:05 11.5 C 8.99 g/m*3 11.5 C 0 km/h
605 13-10-2008 02:24:05 11.5 C 8.99 g/m*3 11.5 C 0 km/h
606 13-10-2008 02:29:05 11.5 C 8.88 g/m*3 11.5 C 0 km/h
607 13-10-2008 02:34:05 11.6 C 8.94 g/m*3 11.6 C 0 km/h
608 13-10-2008 02:39:06 11.6 C 8.94 g/m*3 11.6 C 0 km/h
609 13-10-2008 02:44:06 11.7 C 8.99 g/m*3 11.7 C 0 km/h
610 13-10-2008 02:49:06 11.7 C 8.99 g/m*3 11.7 C 0 km/h
611 13-10-2008 02:54:06 11.7 C 8.99 g/m*3 11.7 C 0 km/h
612 13-10-2008 02:59:06 11.7 C 8.99 g/m*3 11.7 C 0 km/h
613 13-10-2008 03:04:06 11.6 C 8.94 g/m*3 11.6 C 0 km/h
614 13-10-2008 03:09:06 11.6 C 8.94 g/m*3 11.6 C 0 km/h
615 13-10-2008 03:14:06 11.5 C 8.88 g/m*3 11.5 C 0 km/h
616 13-10-2008 03:19:06 11.5 C 8.88 g/m*3 11.5 C 0 km/h
617 13-10-2008 03:24:06 11.5 C 8.88 g/m*3 11.5 C 0 km/h
618 13-10-2008 03:29:06 11.5 C 8.88 g/m*3 11.5 C 0 km/h
619 13-10-2008 03:34:06 11.5 C 8.88 g/m*3 11.5 C 0 km/h
620 13-10-2008 03:39:06 11.5 C 8.88 g/m*3 11.5 C 0 km/h
621 13-10-2008 03:44:06 11.5 C 8.88 g/m*3 11.5 C 0 km/h
622 13-10-2008 03:49:06 11.4 C 8.83 g/m*3 11.4 C 0 km/h
623 13-10-2008 03:54:06 11.3 C 8.77 g/m*3 11.3 C 0 km/h
624 13-10-2008 03:59:06 11.3 C 8.77 g/m*3 11.3 C 0 km/h
625 13-10-2008 04:04:06 11.2 C 8.82 g/m*3 11.2 C 0 km/h
Sensor: Nr:Datum:Temp:Abs-Feuchte:Windchill:Wind:
Aussen-T/F 626 13-10-2008 04:09:06 11.2 C 8.82 g/m*3 11.2 C 0 km/h
627 13-10-2008 04:14:07 11.2 C 8.82 g/m*3 11.2 C 0 km/h
628 13-10-2008 04:19:07 11.2 C 8.82 g/m*3 11.2 C 0 km/h
629 13-10-2008 04:24:07 11.2 C 8.82 g/m*3 11.2 C 0 km/h
630 13-10-2008 04:29:07 11.2 C 8.82 g/m*3 11.2 C 0 km/h
631 13-10-2008 04:34:07 11.2 C 8.82 g/m*3 11.2 C 0 km/h
632 13-10-2008 04:39:07 11.2 C 8.82 g/m*3 11.2 C 0 km/h
633 13-10-2008 04:44:07 11.2 C 8.82 g/m*3 11.2 C 0 km/h
634 13-10-2008 04:49:07 11.2 C 8.82 g/m*3 11.2 C 0 km/h
635 13-10-2008 04:54:07 11.2 C 8.82 g/m*3 11.2 C 0 km/h
636 13-10-2008 04:59:07 11.1 C 8.76 g/m*3 11.1 C 0 km/h
637 13-10-2008 05:04:07 11.1 C 8.76 g/m*3 11.1 C 0 km/h
638 13-10-2008 05:09:07 11 C 8.71 g/m*3 11 C 0 km/h
639 13-10-2008 05:14:07 10.7 C 8.64 g/m*3 10.7 C 0 km/h
640 13-10-2008 05:19:07 10.6 C 8.59 g/m*3 10.6 C 0 km/h
641 13-10-2008 05:24:07 10.5 C 8.63 g/m*3 10.5 C 0 km/h
642 13-10-2008 05:29:07 10.6 C 8.69 g/m*3 10.6 C 0 km/h
643 13-10-2008 05:34:07 10.6 C 8.69 g/m*3 10.6 C 0 km/h
644 13-10-2008 05:39:07 10.6 C 8.78 g/m*3 10.6 C 0 km/h
645 13-10-2008 05:44:07 10.7 C 8.84 g/m*3 10.7 C 0 km/h
646 13-10-2008 05:49:08 10.7 C 8.84 g/m*3 10.7 C 0 km/h
647 13-10-2008 05:54:08 10.6 C 8.78 g/m*3 10.6 C 0 km/h
648 13-10-2008 05:59:08 10.6 C 8.78 g/m*3 10.6 C 0 km/h
649 13-10-2008 06:04:08 10.7 C 8.84 g/m*3 10.7 C 0 km/h
650 13-10-2008 06:09:08 10.7 C 8.84 g/m*3 10.7 C 0 km/h
Sensor: Nr:Datum:Temp:Abs-Feuchte:Windchill:Wind:
Aussen-T/F 651 13-10-2008 06:14:08 10.6 C 8.78 g/m*3 10.6 C 0 km/h
652 13-10-2008 06:19:08 10.6 C 8.78 g/m*3 10.6 C 0 km/h
653 13-10-2008 06:24:08 10.6 C 8.78 g/m*3 10.6 C 0 km/h
654 13-10-2008 06:29:08 10.5 C 8.73 g/m*3 10.5 C 0 km/h
655 13-10-2008 06:34:08 10.4 C 8.67 g/m*3 10.4 C 0 km/h
656 13-10-2008 06:39:08 10.6 C 8.78 g/m*3 10.6 C 0 km/h
657 13-10-2008 06:44:08 10.5 C 8.73 g/m*3 10.5 C 0 km/h
658 13-10-2008 06:49:08 10.5 C 8.73 g/m*3 10.5 C 0 km/h
659 13-10-2008 06:54:08 10.5 C 8.73 g/m*3 10.5 C 0 km/h
660 13-10-2008 06:59:08 10.4 C 8.67 g/m*3 10.4 C 0 km/h
661 13-10-2008 07:04:03 10.2 C 8.56 g/m*3 10.2 C 0 km/h
662 13-10-2008 07:09:03 10.1 C 8.51 g/m*3 10.1 C 0 km/h
663 13-10-2008 07:14:04 10.1 C 8.51 g/m*3 10.1 C 0 km/h
664 13-10-2008 07:19:03 10 C 8.55 g/m*3 10 C 0 km/h
665 13-10-2008 07:24:03 9.9 C 8.59 g/m*3 9.9 C 0 km/h
666 13-10-2008 07:29:03 10 C 8.55 g/m*3 10 C 0 km/h
667 13-10-2008 07:34:04 10 C 8.55 g/m*3 10 C 0 km/h
668 13-10-2008 07:39:04 10 C 8.55 g/m*3 10 C 0 km/h
669 13-10-2008 07:44:04 10 C 8.55 g/m*3 10 C 0 km/h
670 13-10-2008 07:49:03 10 C 8.55 g/m*3 10 C 0 km/h
671 13-10-2008 07:54:03 10 C 8.55 g/m*3 10 C 0 km/h
672 13-10-2008 07:59:03 10.1 C 8.61 g/m*3 10.1 C 0 km/h
673 13-10-2008 08:04:02 10.2 C 8.76 g/m*3 10.2 C 0 km/h
674 13-10-2008 08:09:02 10.1 C 8.61 g/m*3 10.1 C 0 km/h
675 13-10-2008 08:14:02 10.2 C 8.66 g/m*3 10.2 C 0 km/h
Sensor: Nr:Datum:Temp:Abs-Feuchte:Windchill:Wind:
Aussen-T/F 676 13-10-2008 08:19:02 10.2 C 8.66 g/m*3 10.2 C 0 km/h
677 13-10-2008 08:24:02 10.2 C 8.66 g/m*3 10.2 C 0 km/h
678 13-10-2008 08:29:02 10.2 C 8.66 g/m*3 10.2 C 0 km/h
679 13-10-2008 08:34:02 10.2 C 8.66 g/m*3 10.2 C 0 km/h
680 13-10-2008 08:39:02 10.2 C 8.66 g/m*3 10.2 C 0 km/h
681 13-10-2008 08:44:02 10.2 C 8.66 g/m*3 10.2 C 0 km/h
682 13-10-2008 08:49:02 10.2 C 8.66 g/m*3 10.2 C 0 km/h
683 13-10-2008 08:54:02 10.2 C 8.66 g/m*3 10.2 C 0 km/h
684 13-10-2008 08:59:02 10.2 C 8.66 g/m*3 10.2 C 0 km/h
685 13-10-2008 09:04:03 10.2 C 8.66 g/m*3 10.2 C 0 km/h
686 13-10-2008 09:09:04 10.1 C 8.61 g/m*3 10.1 C 0 km/h
687 13-10-2008 09:14:04 10.1 C 8.61 g/m*3 10.1 C 0 km/h
688 13-10-2008 09:19:02 10.2 C 8.66 g/m*3 10.2 C 0 km/h
689 13-10-2008 09:24:02 10.3 C 8.71 g/m*3 10.3 C 0 km/h
690 13-10-2008 09:29:02 10.4 C 8.77 g/m*3 10.4 C 0 km/h
691 13-10-2008 09:34:01 10.4 C 8.77 g/m*3 10.4 C 0 km/h
692 13-10-2008 09:39:01 10.5 C 8.73 g/m*3 10.5 C 0 km/h
693 13-10-2008 09:44:01 10.5 C 8.73 g/m*3 10.5 C 0 km/h
694 13-10-2008 09:49:02 10.7 C 8.84 g/m*3 10.7 C 0 km/h
695 13-10-2008 09:54:02 10.8 C 8.9 g/m*3 10.8 C 0 km/h
696 13-10-2008 09:59:02 11 C 8.91 g/m*3 11 C 0 km/h
697 13-10-2008 10:04:02 11.2 C 9.02 g/m*3 11.2 C 0 km/h
698 13-10-2008 10:09:02 11.4 C 9.14 g/m*3 11.4 C 0 km/h
699 13-10-2008 10:14:02 11.5 C 9.19 g/m*3 11.5 C 0 km/h
700 13-10-2008 10:19:02 11.6 C 9.15 g/m*3 11.6 C 0 km/h
Sensor: Nr:Datum:Temp:Abs-Feuchte:Windchill:Wind:
Aussen-T/F 701 13-10-2008 10:24:02 11.7 C 9.1 g/m*3 11.7 C 0 km/h
702 13-10-2008 10:29:02 11.9 C 9.11 g/m*3 11.9 C 0 km/h
703 13-10-2008 10:34:02 11.9 C 9 g/m*3 11.9 C 0 km/h
704 13-10-2008 10:39:02 12.4 C 9.07 g/m*3 12.4 C 0 km/h
705 13-10-2008 10:44:02 12.2 C 8.96 g/m*3 12.2 C 0 km/h
706 13-10-2008 10:49:02 12.3 C 8.9 g/m*3 12.3 C 0 km/h
707 13-10-2008 10:54:02 12.4 C 8.96 g/m*3 12.4 C 0 km/h
708 13-10-2008 10:59:02 12.8 C 9.07 g/m*3 12.8 C 0 km/h
709 13-10-2008 11:04:02 12.9 C 9.13 g/m*3 12.9 C 0 km/h
710 13-10-2008 11:09:02 13 C 8.96 g/m*3 13 C 0 km/h
711 13-10-2008 11:14:02 13.2 C 9.07 g/m*3 13.2 C 0 km/h
712 13-10-2008 11:19:02 13.3 C 9.13 g/m*3 13.3 C 0 km/h
713 13-10-2008 11:24:02 13.5 C 9.12 g/m*3 13.5 C 0 km/h
714 13-10-2008 11:29:02 13.6 C 9.06 g/m*3 13.6 C 0 km/h
715 13-10-2008 11:34:02 13.9 C 9.23 g/m*3 13.9 C 0 km/h
716 13-10-2008 11:39:02 14 C 9.17 g/m*3 14 C 0 km/h
717 13-10-2008 11:44:02 14.1 C 9.22 g/m*3 14.1 C 0 km/h
718 13-10-2008 11:49:02 14.2 C 9.28 g/m*3 14.2 C 0 km/h
719 13-10-2008 11:54:02 14.2 C 9.28 g/m*3 14.2 C 0 km/h
720 13-10-2008 11:59:02 14.4 C 9.52 g/m*3 14.4 C 0 km/h
721 13-10-2008 12:04:02 14.6 C 9.64 g/m*3 14.6 C 0 km/h
722 13-10-2008 12:09:02 14.7 C 9.69 g/m*3 14.7 C 0 km/h
723 13-10-2008 12:14:03 15.1 C 9.93 g/m*3 15.1 C 0 km/h
724 13-10-2008 12:19:01 15.5 C 9.91 g/m*3 15.5 C 0 km/h
725 13-10-2008 12:24:01 15.7 C 9.9 g/m*3 15.7 C 0 km/h
Sensor: Nr:Datum:Temp:Abs-Feuchte:Windchill:Wind:
Aussen-T/F 726 13-10-2008 12:29:01 15.8 C 9.83 g/m*3 15.8 C 0 km/h
727 13-10-2008 12:34:02 15.9 C 9.75 g/m*3 15.9 C 0 km/h
728 13-10-2008 12:39:02 16.2 C 9.79 g/m*3 16.2 C 0 km/h
729 13-10-2008 12:44:02 16.4 C 10.05 g/m*3 16.4 C 0 km/h
730 13-10-2008 12:49:02 16.6 C 10.03 g/m*3 16.6 C 0 km/h
731 13-10-2008 12:54:03 16.9 C 10.36 g/m*3 16.9 C 0 km/h
732 13-10-2008 12:59:03 17.1 C 10.34 g/m*3 17.1 C 0 km/h
733 13-10-2008 13:04:02 17.5 C 10.44 g/m*3 17.5 C 0 km/h
734 13-10-2008 13:09:02 17.7 C 10.11 g/m*3 17.7 C 0 km/h
735 13-10-2008 13:14:02 17.8 C 10.17 g/m*3 17.8 C 0 km/h
736 13-10-2008 13:19:02 18.2 C 10.1 g/m*3 18.2 C 0 km/h
737 13-10-2008 13:24:02 18.2 C 10.1 g/m*3 18.2 C 0 km/h
738 13-10-2008 13:29:02 18.2 C 10.1 g/m*3 18.2 C 0 km/h
739 13-10-2008 13:34:02 18.4 C 10.38 g/m*3 18.4 C 0 km/h
740 13-10-2008 13:39:02 18.6 C 10.66 g/m*3 18.6 C 0 km/h
741 13-10-2008 13:44:02 18.6 C 10.35 g/m*3 18.6 C 0 km/h
742 13-10-2008 13:49:02 18.7 C 10.41 g/m*3 18.7 C 0 km/h
743 13-10-2008 13:54:02 18.7 C 10.57 g/m*3 18.7 C 0 km/h
744 13-10-2008 13:59:02 18.6 C 10.03 g/m*3 18.6 C 0 km/h
745 13-10-2008 14:04:02 18.6 C 10.19 g/m*3 18.6 C 0 km/h
746 13-10-2008 14:09:02 18.8 C 9.99 g/m*3 18.8 C 0 km/h
747 13-10-2008 14:14:02 19 C 10.1 g/m*3 19 C 0 km/h
748 13-10-2008 14:19:02 19 C 9.78 g/m*3 19 C 0 km/h
749 13-10-2008 14:24:02 19.1 C 9.67 g/m*3 19.1 C 0 km/h
750 13-10-2008 14:29:02 19.1 C 9.51 g/m*3 19.1 C 0 km/h
Sensor: Nr:Datum:Temp:Abs-Feuchte:Windchill:Wind:
Aussen-T/F 751 13-10-2008 14:34:02 19.1 C 9.51 g/m*3 19.1 C 0 km/h
752 13-10-2008 14:39:02 19.2 C 9.56 g/m*3 19.2 C 0 km/h
753 13-10-2008 14:44:02 19.5 C 9.9 g/m*3 19.5 C 0 km/h
754 13-10-2008 14:49:02 19.8 C 9.74 g/m*3 19.8 C 0 km/h
755 13-10-2008 14:54:02 19.8 C 9.57 g/m*3 19.8 C 0 km/h
756 13-10-2008 14:59:02 20.1 C 9.21 g/m*3 20.1 C 0 km/h
757 13-10-2008 15:04:02 20.6 C 9.49 g/m*3 20.6 C 0 km/h
758 13-10-2008 15:09:02 20.9 C 9.65 g/m*3 20.9 C 0 km/h
759 13-10-2008 15:14:02 21.2 C 9.08 g/m*3 21.2 C 0 km/h
760 13-10-2008 15:19:02 21.3 C 8.95 g/m*3 21.3 C 0 km/h
761 13-10-2008 15:24:02 21.4 C 9.19 g/m*3 21.4 C 0 km/h
762 13-10-2008 15:29:02 21.6 C 8.91 g/m*3 21.6 C 0 km/h
763 13-10-2008 15:34:02 21.6 C 8.91 g/m*3 21.6 C 0 km/h
764 13-10-2008 15:39:02 21.5 C 8.86 g/m*3 21.5 C 0 km/h
765 13-10-2008 15:44:02 21.2 C 8.71 g/m*3 21.2 C 0 km/h
766 13-10-2008 15:49:02 21 C 8.98 g/m*3 21 C 0 km/h
767 13-10-2008 15:54:02 20.8 C 9.23 g/m*3 20.8 C 0 km/h
768 13-10-2008 15:59:02 20.7 C 9 g/m*3 20.7 C 0 km/h
769 13-10-2008 16:04:02 20.5 C 9.07 g/m*3 20.5 C 0 km/h
770 13-10-2008 16:09:02 20.3 C 8.97 g/m*3 20.3 C 0 km/h
771 13-10-2008 16:14:02 20.2 C 9.09 g/m*3 20.2 C 0 km/h
772 13-10-2008 16:19:02 20.2 C 9.09 g/m*3 20.2 C 0 km/h
773 13-10-2008 16:24:02 20.2 C 8.92 g/m*3 20.2 C 0 km/h
774 13-10-2008 16:29:02 20.2 C 9.09 g/m*3 20.2 C 0 km/h
775 13-10-2008 16:34:02 20.2 C 9.09 g/m*3 20.2 C 0 km/h
Sensor: Nr:Datum:Temp:Abs-Feuchte:Windchill:Wind:
Aussen-T/F 776 13-10-2008 16:39:02 20.2 C 9.09 g/m*3 20.2 C 0 km/h
777 13-10-2008 16:44:02 20 C 9.16 g/m*3 20 C 0 km/h
778 13-10-2008 16:49:02 19.9 C 9.28 g/m*3 19.9 C 0 km/h
779 13-10-2008 16:54:02 19.8 C 9.39 g/m*3 19.8 C 0 km/h
780 13-10-2008 16:59:02 19.7 C 9.68 g/m*3 19.7 C 0 km/h
781 13-10-2008 17:04:02 19.7 C 9.68 g/m*3 19.7 C 0 km/h
782 13-10-2008 17:09:02 19.7 C 9.68 g/m*3 19.7 C 0 km/h
783 13-10-2008 17:14:03 19.5 C 9.57 g/m*3 19.5 C 0 km/h
784 13-10-2008 17:19:02 19.4 C 9.68 g/m*3 19.4 C 0 km/h
785 13-10-2008 17:24:02 19.3 C 9.45 g/m*3 19.3 C 0 km/h
786 13-10-2008 17:29:02 19.1 C 9.34 g/m*3 19.1 C 0 km/h
787 13-10-2008 17:34:02 18.9 C 9.56 g/m*3 18.9 C 0 km/h
788 13-10-2008 17:39:02 18.9 C 9.23 g/m*3 18.9 C 0 km/h
789 13-10-2008 17:44:02 18.8 C 9.18 g/m*3 18.8 C 0 km/h
790 13-10-2008 17:49:02 18.8 C 9.18 g/m*3 18.8 C 0 km/h
791 13-10-2008 17:54:03 18.7 C 9.29 g/m*3 18.7 C 0 km/h
792 13-10-2008 17:59:03 18.5 C 9.18 g/m*3 18.5 C 0 km/h
793 13-10-2008 18:04:01 18.4 C 9.28 g/m*3 18.4 C 0 km/h
794 13-10-2008 18:09:01 18.3 C 9.07 g/m*3 18.3 C 0 km/h
795 13-10-2008 18:14:01 18.2 C 9.01 g/m*3 18.2 C 0 km/h
796 13-10-2008 18:19:02 18.2 C 9.17 g/m*3 18.2 C 0 km/h
797 13-10-2008 18:24:02 18.1 C 9.27 g/m*3 18.1 C 0 km/h
798 13-10-2008 18:29:02 17.9 C 9.16 g/m*3 17.9 C 0 km/h
799 13-10-2008 18:34:03 17.8 C 9.11 g/m*3 17.8 C 0 km/h
800 13-10-2008 18:39:04 17.7 C 9.05 g/m*3 17.7 C 0 km/h
Sensor: Nr:Datum:Temp:Abs-Feuchte:Windchill:Wind:
Aussen-T/F 801 13-10-2008 18:44:04 17.7 C 9.2 g/m*3 17.7 C 0 km/h
802 13-10-2008 18:49:02 17.6 C 9.15 g/m*3 17.6 C 0 km/h
803 13-10-2008 18:54:02 17.4 C 9.19 g/m*3 17.4 C 0 km/h
804 13-10-2008 18:59:02 17.4 C 9.19 g/m*3 17.4 C 0 km/h
805 13-10-2008 19:04:02 17.5 C 9.24 g/m*3 17.5 C 0 km/h
806 13-10-2008 19:09:02 17.6 C 9.3 g/m*3 17.6 C 0 km/h
807 13-10-2008 19:14:02 17.6 C 9.3 g/m*3 17.6 C 0 km/h
808 13-10-2008 19:19:02 17.5 C 9.39 g/m*3 17.5 C 0 km/h
809 13-10-2008 19:24:02 17.6 C 9.45 g/m*3 17.6 C 0 km/h
810 13-10-2008 19:29:03 17.5 C 9.54 g/m*3 17.5 C 0 km/h
811 13-10-2008 19:34:02 17.5 C 9.54 g/m*3 17.5 C 0 km/h
812 13-10-2008 19:39:02 17.2 C 9.67 g/m*3 17.2 C 0 km/h
813 13-10-2008 19:44:02 17 C 9.55 g/m*3 17 C 0 km/h
814 13-10-2008 19:49:03 17.1 C 9.75 g/m*3 17.1 C 0 km/h
815 13-10-2008 19:54:03 16.7 C 9.81 g/m*3 16.7 C 0 km/h
816 13-10-2008 19:59:03 16.5 C 9.83 g/m*3 16.5 C 0 km/h
817 13-10-2008 20:04:02 16.4 C 9.77 g/m*3 16.4 C 0 km/h
818 13-10-2008 20:09:02 16.3 C 9.85 g/m*3 16.3 C 0 km/h
819 13-10-2008 20:14:02 16.4 C 10.05 g/m*3 16.4 C 0 km/h
820 13-10-2008 20:19:02 16.3 C 9.99 g/m*3 16.3 C 0 km/h
821 13-10-2008 20:24:02 16.3 C 10.13 g/m*3 16.3 C 0 km/h
822 13-10-2008 20:29:02 16.3 C 10.13 g/m*3 16.3 C 0 km/h
823 13-10-2008 20:34:03 16.4 C 10.19 g/m*3 16.4 C 0 km/h
824 13-10-2008 20:39:03 16.4 C 10.19 g/m*3 16.4 C 0 km/h
825 13-10-2008 20:44:03 16.4 C 10.19 g/m*3 16.4 C 0 km/h
Sensor: Nr:Datum:Temp:Abs-Feuchte:Windchill:Wind:
Aussen-T/F 826 13-10-2008 20:49:02 16.4 C 10.19 g/m*3 16.4 C 0 km/h
827 13-10-2008 20:54:02 16.4 C 10.33 g/m*3 16.4 C 0 km/h
828 13-10-2008 20:59:02 16.4 C 10.19 g/m*3 16.4 C 0 km/h
829 13-10-2008 21:04:02 16.3 C 10.27 g/m*3 16.3 C 0 km/h
830 13-10-2008 21:09:02 16.2 C 10.2 g/m*3 16.2 C 0 km/h
831 13-10-2008 21:14:02 16.2 C 10.34 g/m*3 16.2 C 0 km/h
832 13-10-2008 21:19:02 16.1 C 10.28 g/m*3 16.1 C 0 km/h
833 13-10-2008 21:24:02 16 C 10.22 g/m*3 16 C 0 km/h
834 13-10-2008 21:29:02 16.1 C 10.28 g/m*3 16.1 C 0 km/h
835 13-10-2008 21:34:02 16 C 10.08 g/m*3 16 C 0 km/h
836 13-10-2008 21:39:02 15.8 C 10.1 g/m*3 15.8 C 0 km/h
837 13-10-2008 21:44:02 15.7 C 10.03 g/m*3 15.7 C 0 km/h
838 13-10-2008 21:50:03 15.5 C 10.05 g/m*3 15.5 C 0 km/h
839 13-10-2008 21:55:03 15.4 C 10.12 g/m*3 15.4 C 0 km/h
840 13-10-2008 22:00:03 15.3 C 10.06 g/m*3 15.3 C 0 km/h
841 13-10-2008 22:05:03 15.2 C 9.99 g/m*3 15.2 C 0 km/h
842 13-10-2008 22:10:03 15.2 C 10.12 g/m*3 15.2 C 0 km/h
843 13-10-2008 22:15:03 15.2 C 10.12 g/m*3 15.2 C 0 km/h
844 13-10-2008 22:20:03 15.1 C 10.19 g/m*3 15.1 C 0 km/h
845 13-10-2008 22:25:03 15.1 C 10.19 g/m*3 15.1 C 0 km/h
846 13-10-2008 22:30:03 15 C 10.13 g/m*3 15 C 0 km/h
847 13-10-2008 22:35:03 15 C 10.13 g/m*3 15 C 0 km/h
848 13-10-2008 22:40:03 15 C 10.13 g/m*3 15 C 0 km/h
849 13-10-2008 22:45:03 14.9 C 10.2 g/m*3 14.9 C 0 km/h
850 13-10-2008 22:50:03 14.8 C 10.13 g/m*3 14.8 C 0 km/h
Sensor: Nr:Datum:Temp:Abs-Feuchte:Windchill:Wind:
Aussen-T/F 851 13-10-2008 22:55:03 14.8 C 10.26 g/m*3 14.8 C 0 km/h
852 13-10-2008 23:00:03 14.7 C 10.32 g/m*3 14.7 C 0 km/h
853 13-10-2008 23:05:03 14.6 C 10.26 g/m*3 14.6 C 0 km/h
854 13-10-2008 23:10:04 14.5 C 10.2 g/m*3 14.5 C 0 km/h
855 13-10-2008 23:15:04 14.4 C 10.14 g/m*3 14.4 C 0 km/h
856 13-10-2008 23:20:04 14.4 C 10.14 g/m*3 14.4 C 0 km/h
857 13-10-2008 23:25:04 14.5 C 10.32 g/m*3 14.5 C 0 km/h
858 13-10-2008 23:30:04 14.6 C 10.51 g/m*3 14.6 C 0 km/h
859 13-10-2008 23:35:04 14.6 C 10.64 g/m*3 14.6 C 0 km/h
860 13-10-2008 23:40:04 14.8 C 10.77 g/m*3 14.8 C 0 km/h
861 13-10-2008 23:45:04 14.9 C 10.96 g/m*3 14.9 C 0 km/h
862 13-10-2008 23:50:04 14.8 C 10.77 g/m*3 14.8 C 0 km/h
863 13-10-2008 23:55:04 14.8 C 10.77 g/m*3 14.8 C 0 km/h
864 14-10-2008 00:00:04 14.8 C 10.64 g/m*3 14.8 C 0 km/h
865 14-10-2008 00:05:04 14.8 C 10.64 g/m*3 14.8 C 0 km/h
866 14-10-2008 00:10:04 14.9 C 10.71 g/m*3 14.9 C 0 km/h
867 14-10-2008 00:15:04 15 C 10.64 g/m*3 15 C 0 km/h
868 14-10-2008 00:20:04 14.8 C 10.51 g/m*3 14.8 C 0 km/h
869 14-10-2008 00:25:04 14.8 C 10.51 g/m*3 14.8 C 0 km/h
870 14-10-2008 00:30:04 14.8 C 10.64 g/m*3 14.8 C 0 km/h
871 14-10-2008 00:35:04 14.7 C 10.58 g/m*3 14.7 C 0 km/h
872 14-10-2008 00:40:04 14.6 C 10.51 g/m*3 14.6 C 0 km/h
873 14-10-2008 00:45:05 14.6 C 10.64 g/m*3 14.6 C 0 km/h
874 14-10-2008 00:50:05 14.5 C 10.45 g/m*3 14.5 C 0 km/h
875 14-10-2008 00:55:05 14.5 C 10.45 g/m*3 14.5 C 0 km/h
Sensor: Nr:Datum:Temp:Abs-Feuchte:Windchill:Wind:
Aussen-T/F 876 14-10-2008 01:00:05 14.5 C 10.57 g/m*3 14.5 C 0 km/h
877 14-10-2008 01:05:05 14.5 C 10.7 g/m*3 14.5 C 0 km/h
878 14-10-2008 01:10:05 14.8 C 10.89 g/m*3 14.8 C 0 km/h
879 14-10-2008 01:15:05 14.8 C 10.89 g/m*3 14.8 C 0 km/h
880 14-10-2008 01:20:05 14.9 C 10.96 g/m*3 14.9 C 0 km/h
881 14-10-2008 01:25:05 14.9 C 10.83 g/m*3 14.9 C 0 km/h
882 14-10-2008 01:30:05 15 C 10.77 g/m*3 15 C 0 km/h
883 14-10-2008 01:35:05 15 C 10.77 g/m*3 15 C 0 km/h
884 14-10-2008 01:40:05 15 C 10.77 g/m*3 15 C 0 km/h
885 14-10-2008 01:45:05 15 C 10.77 g/m*3 15 C 0 km/h
886 14-10-2008 01:50:05 15 C 10.77 g/m*3 15 C 0 km/h
887 14-10-2008 01:55:05 14.9 C 10.83 g/m*3 14.9 C 0 km/h
888 14-10-2008 02:00:05 14.9 C 10.83 g/m*3 14.9 C 0 km/h
889 14-10-2008 02:05:05 14.8 C 10.77 g/m*3 14.8 C 0 km/h
890 14-10-2008 02:10:05 14.9 C 10.83 g/m*3 14.9 C 0 km/h
891 14-10-2008 02:15:05 15 C 10.77 g/m*3 15 C 0 km/h
892 14-10-2008 02:20:05 15.1 C 10.97 g/m*3 15.1 C 0 km/h
893 14-10-2008 02:25:06 15.1 C 10.97 g/m*3 15.1 C 0 km/h
894 14-10-2008 02:30:06 15.2 C 10.9 g/m*3 15.2 C 0 km/h
895 14-10-2008 02:35:06 15.1 C 10.84 g/m*3 15.1 C 0 km/h
896 14-10-2008 02:40:06 15.1 C 10.84 g/m*3 15.1 C 0 km/h
897 14-10-2008 02:45:06 15.2 C 10.9 g/m*3 15.2 C 0 km/h
898 14-10-2008 02:50:06 15.3 C 10.97 g/m*3 15.3 C 0 km/h
899 14-10-2008 02:55:06 15.3 C 10.97 g/m*3 15.3 C 0 km/h
900 14-10-2008 03:00:06 15.4 C 11.04 g/m*3 15.4 C 0 km/h
Sensor: Nr:Datum:Temp:Abs-Feuchte:Windchill:Wind:
Aussen-T/F 901 14-10-2008 03:05:06 15.4 C 11.04 g/m*3 15.4 C 0 km/h
902 14-10-2008 03:10:06 15.4 C 11.04 g/m*3 15.4 C 0 km/h
903 14-10-2008 03:15:06 15.4 C 11.04 g/m*3 15.4 C 0 km/h
904 14-10-2008 03:20:06 15.4 C 11.04 g/m*3 15.4 C 0 km/h
905 14-10-2008 03:25:06 15.4 C 11.04 g/m*3 15.4 C 0 km/h
906 14-10-2008 03:30:06 15.4 C 11.04 g/m*3 15.4 C 0 km/h
907 14-10-2008 03:35:06 15.2 C 10.77 g/m*3 15.2 C 0 km/h
908 14-10-2008 03:40:06 15.1 C 10.71 g/m*3 15.1 C 0 km/h
909 14-10-2008 03:45:06 15.2 C 10.77 g/m*3 15.2 C 0 km/h
910 14-10-2008 03:50:06 15.2 C 10.9 g/m*3 15.2 C 0 km/h
911 14-10-2008 03:55:06 15.3 C 10.97 g/m*3 15.3 C 0 km/h
912 14-10-2008 04:00:07 15.3 C 10.97 g/m*3 15.3 C 0 km/h
913 14-10-2008 04:05:07 15.4 C 11.04 g/m*3 15.4 C 0 km/h
914 14-10-2008 04:10:07 15.4 C 11.04 g/m*3 15.4 C 0 km/h
915 14-10-2008 04:15:07 15.4 C 11.04 g/m*3 15.4 C 0 km/h
916 14-10-2008 04:20:07 15.3 C 10.97 g/m*3 15.3 C 0 km/h
917 14-10-2008 04:25:07 15.3 C 10.97 g/m*3 15.3 C 0 km/h
918 14-10-2008 04:30:07 15.2 C 10.9 g/m*3 15.2 C 0 km/h
919 14-10-2008 04:35:07 15.4 C 11.04 g/m*3 15.4 C 0 km/h
920 14-10-2008 04:40:07 15.4 C 11.04 g/m*3 15.4 C 0 km/h
921 14-10-2008 04:45:07 15.5 C 11.24 g/m*3 15.5 C 0 km/h
922 14-10-2008 04:50:07 15.5 C 11.24 g/m*3 15.5 C 0 km/h
923 14-10-2008 04:55:07 15.5 C 11.24 g/m*3 15.5 C 0 km/h
924 14-10-2008 05:00:07 15.3 C 10.97 g/m*3 15.3 C 0 km/h
925 14-10-2008 05:05:07 15.1 C 10.71 g/m*3 15.1 C 0 km/h
Sensor: Nr:Datum:Temp:Abs-Feuchte:Windchill:Wind:
Aussen-T/F 926 14-10-2008 05:10:07 15 C 10.64 g/m*3 15 C 0 km/h
927 14-10-2008 05:15:07 15 C 10.64 g/m*3 15 C 0 km/h
928 14-10-2008 05:20:07 14.9 C 10.71 g/m*3 14.9 C 0 km/h
929 14-10-2008 05:25:07 14.8 C 10.64 g/m*3 14.8 C 0 km/h
930 14-10-2008 05:30:07 14.8 C 10.64 g/m*3 14.8 C 0 km/h
931 14-10-2008 05:35:08 14.7 C 10.58 g/m*3 14.7 C 0 km/h
932 14-10-2008 05:40:08 14.7 C 10.58 g/m*3 14.7 C 0 km/h
933 14-10-2008 05:45:08 14.6 C 10.51 g/m*3 14.6 C 0 km/h
934 14-10-2008 05:50:08 14.6 C 10.51 g/m*3 14.6 C 0 km/h
935 14-10-2008 05:55:08 14.5 C 10.45 g/m*3 14.5 C 0 km/h
936 14-10-2008 06:00:08 14.5 C 10.45 g/m*3 14.5 C 0 km/h
937 14-10-2008 06:05:08 14.5 C 10.57 g/m*3 14.5 C 0 km/h
938 14-10-2008 06:10:08 14.4 C 10.51 g/m*3 14.4 C 0 km/h
939 14-10-2008 06:15:08 14.3 C 10.44 g/m*3 14.3 C 0 km/h
940 14-10-2008 06:20:08 14.4 C 10.51 g/m*3 14.4 C 0 km/h
941 14-10-2008 06:25:08 14.2 C 10.38 g/m*3 14.2 C 0 km/h
942 14-10-2008 06:30:08 14.2 C 10.5 g/m*3 14.2 C 0 km/h
943 14-10-2008 06:35:08 14.2 C 10.5 g/m*3 14.2 C 0 km/h
944 14-10-2008 06:40:08 14.3 C 10.57 g/m*3 14.3 C 0 km/h
945 14-10-2008 06:45:08 14.4 C 10.63 g/m*3 14.4 C 0 km/h
946 14-10-2008 06:50:08 14.3 C 10.57 g/m*3 14.3 C 0 km/h
947 14-10-2008 06:55:08 14.3 C 10.57 g/m*3 14.3 C 0 km/h
948 14-10-2008 07:00:08 14.5 C 10.7 g/m*3 14.5 C 0 km/h
949 14-10-2008 07:05:02 14.2 C 10.5 g/m*3 14.2 C 0 km/h
950 14-10-2008 07:10:02 14.2 C 10.62 g/m*3 14.2 C 0 km/h
Sensor: Nr:Datum:Temp:Abs-Feuchte:Windchill:Wind:
Aussen-T/F 951 14-10-2008 07:15:01 14.4 C 10.75 g/m*3 14.4 C 0 km/h
952 14-10-2008 07:20:01 14.2 C 10.5 g/m*3 14.2 C 0 km/h
953 14-10-2008 07:25:01 14.3 C 10.69 g/m*3 14.3 C 0 km/h
954 14-10-2008 07:30:01 14.5 C 10.82 g/m*3 14.5 C 0 km/h
955 14-10-2008 07:35:02 14.7 C 10.83 g/m*3 14.7 C 0 km/h
956 14-10-2008 07:40:02 14.7 C 10.83 g/m*3 14.7 C 0 km/h
957 14-10-2008 07:45:03 14.6 C 10.64 g/m*3 14.6 C 0 km/h
958 14-10-2008 07:50:03 14.4 C 10.38 g/m*3 14.4 C 0 km/h
959 14-10-2008 07:55:03 14.3 C 10.32 g/m*3 14.3 C 0 km/h
960 14-10-2008 08:00:03 14.1 C 10.07 g/m*3 14.1 C 0 km/h
961 14-10-2008 08:05:02 14 C 10.01 g/m*3 14 C 0 km/h
962 14-10-2008 08:10:02 14 C 9.89 g/m*3 14 C 0 km/h
963 14-10-2008 08:15:02 13.9 C 10.07 g/m*3 13.9 C 0 km/h
964 14-10-2008 08:20:02 13.7 C 9.95 g/m*3 13.7 C 0 km/h
965 14-10-2008 08:25:02 13.8 C 10.01 g/m*3 13.8 C 0 km/h
966 14-10-2008 08:30:02 13.8 C 10.01 g/m*3 13.8 C 0 km/h
967 14-10-2008 08:35:02 14 C 10.01 g/m*3 14 C 0 km/h
968 14-10-2008 08:40:03 14.1 C 10.07 g/m*3 14.1 C 0 km/h
969 14-10-2008 08:45:02 14.2 C 10.14 g/m*3 14.2 C 0 km/h
970 14-10-2008 08:50:02 14.2 C 10.14 g/m*3 14.2 C 0 km/h
971 14-10-2008 08:55:02 14.5 C 10.32 g/m*3 14.5 C 0 km/h
972 14-10-2008 09:00:02 14.5 C 10.32 g/m*3 14.5 C 0 km/h
973 14-10-2008 09:05:01 14.6 C 10.39 g/m*3 14.6 C 0 km/h
974 14-10-2008 09:10:01 14.7 C 10.45 g/m*3 14.7 C 0 km/h
975 14-10-2008 09:15:02 14.8 C 10.51 g/m*3 14.8 C 0 km/h
Sensor: Nr:Datum:Temp:Abs-Feuchte:Windchill:Wind:
Aussen-T/F 976 14-10-2008 09:20:03 14.9 C 10.58 g/m*3 14.9 C 0 km/h
977 14-10-2008 09:25:03 15 C 10.39 g/m*3 15 C 0 km/h
978 14-10-2008 09:30:03 15.1 C 9.93 g/m*3 15.1 C 0 km/h
979 14-10-2008 09:35:01 15.2 C 9.61 g/m*3 15.2 C 0 km/h
980 14-10-2008 09:40:01 15.4 C 9.46 g/m*3 15.4 C 0 km/h
981 14-10-2008 09:45:01 15.5 C 9.52 g/m*3 15.5 C 0 km/h
982 14-10-2008 09:50:01 15.6 C 9.44 g/m*3 15.6 C 0 km/h
983 14-10-2008 09:55:01 15.8 C 9.42 g/m*3 15.8 C 0 km/h
984 14-10-2008 10:00:01 15.9 C 9.21 g/m*3 15.9 C 0 km/h
985 14-10-2008 10:05:02 15.9 C 9.21 g/m*3 15.9 C 0 km/h
986 14-10-2008 10:10:02 16 C 9.26 g/m*3 16 C 0 km/h
987 14-10-2008 10:15:01 16.1 C 9.18 g/m*3 16.1 C 0 km/h
988 14-10-2008 10:20:01 16.3 C 9.16 g/m*3 16.3 C 0 km/h
989 14-10-2008 10:25:01 16.4 C 9.21 g/m*3 16.4 C 0 km/h
990 14-10-2008 10:30:01 16.7 C 9.24 g/m*3 16.7 C 0 km/h
991 14-10-2008 10:35:02 16.8 C 9.29 g/m*3 16.8 C 0 km/h
992 14-10-2008 10:40:02 16.8 C 9.15 g/m*3 16.8 C 0 km/h
993 14-10-2008 10:45:02 16.8 C 9.15 g/m*3 16.8 C 0 km/h
994 14-10-2008 10:50:02 16.7 C 9.1 g/m*3 16.7 C 0 km/h
995 14-10-2008 10:55:03 16.7 C 9.1 g/m*3 16.7 C 0 km/h
996 14-10-2008 11:00:03 16.7 C 9.1 g/m*3 16.7 C 0 km/h
997 14-10-2008 11:05:02 16.7 C 9.1 g/m*3 16.7 C 0 km/h
998 14-10-2008 11:10:02 16.8 C 9.15 g/m*3 16.8 C 0 km/h
999 14-10-2008 11:15:02 16.8 C 9.15 g/m*3 16.8 C 0 km/h
1000 14-10-2008 11:20:02 16.9 C 9.21 g/m*3 16.9 C 0 km/h
Sensor: Nr:Datum:Temp:Abs-Feuchte:Windchill:Wind:
Aussen-T/F 1001 14-10-2008 11:25:02 17 C 8.97 g/m*3 17 C 0 km/h
1002 14-10-2008 11:30:02 17 C 8.97 g/m*3 17 C 0 km/h
1003 14-10-2008 11:35:02 17.4 C 9.04 g/m*3 17.4 C 0 km/h
1004 14-10-2008 11:40:02 17.6 C 9 g/m*3 17.6 C 0 km/h
1005 14-10-2008 11:45:02 17.7 C 8.9 g/m*3 17.7 C 0 km/h
1006 14-10-2008 11:50:02 18.1 C 8.96 g/m*3 18.1 C 0 km/h
1007 14-10-2008 11:55:02 18.2 C 8.7 g/m*3 18.2 C 0 km/h
1008 14-10-2008 12:00:02 18.1 C 8.65 g/m*3 18.1 C 0 km/h
1009 14-10-2008 12:05:03 18.2 C 8.55 g/m*3 18.2 C 0 km/h
1010 14-10-2008 12:10:03 18.4 C 8.49 g/m*3 18.4 C 0 km/h
1011 14-10-2008 12:15:02 18.4 C 8.34 g/m*3 18.4 C 0 km/h
1012 14-10-2008 12:20:02 18.5 C 8.23 g/m*3 18.5 C 0 km/h
1013 14-10-2008 12:25:02 18.5 C 8.23 g/m*3 18.5 C 0 km/h
1014 14-10-2008 12:30:02 18.7 C 8.01 g/m*3 18.7 C 0 km/h
1015 14-10-2008 12:35:02 18.7 C 8.17 g/m*3 18.7 C 0 km/h
1016 14-10-2008 12:40:02 18.5 C 7.59 g/m*3 18.5 C 0 km/h
1017 14-10-2008 12:45:01 18.7 C 7.68 g/m*3 18.7 C 0 km/h
1018 14-10-2008 12:50:01 18.7 C 8.01 g/m*3 18.7 C 0 km/h
1019 14-10-2008 12:55:01 18.4 C 8.18 g/m*3 18.4 C 0 km/h
1020 14-10-2008 13:00:01 18.1 C 8.19 g/m*3 18.1 C 0 km/h
1021 14-10-2008 13:05:02 17.9 C 8.4 g/m*3 17.9 C 0 km/h
1022 14-10-2008 13:10:02 17.7 C 8.45 g/m*3 17.7 C 0 km/h
1023 14-10-2008 13:15:01 17.5 C 8.5 g/m*3 17.5 C 0 km/h
1024 14-10-2008 13:20:01 17.3 C 8.54 g/m*3 17.3 C 0 km/h
1025 14-10-2008 13:25:01 17.2 C 8.49 g/m*3 17.2 C 0 km/h
Sensor: Nr:Datum:Temp:Abs-Feuchte:Windchill:Wind:
Aussen-T/F 1026 14-10-2008 13:30:01 17.2 C 8.64 g/m*3 17.2 C 0 km/h
1027 14-10-2008 13:35:02 17.1 C 8.59 g/m*3 17.1 C 0 km/h
1028 14-10-2008 13:40:02 17.1 C 8.59 g/m*3 17.1 C 0 km/h
1029 14-10-2008 13:45:02 17.2 C 8.79 g/m*3 17.2 C 0 km/h
1030 14-10-2008 13:50:02 17.2 C 8.79 g/m*3 17.2 C 0 km/h
1031 14-10-2008 13:55:03 17.2 C 8.79 g/m*3 17.2 C 0 km/h
1032 14-10-2008 14:00:03 17.2 C 8.79 g/m*3 17.2 C 0 km/h
1033 14-10-2008 14:05:02 17.2 C 8.79 g/m*3 17.2 C 0 km/h
1034 14-10-2008 14:10:02 17.2 C 8.79 g/m*3 17.2 C 0 km/h
1035 14-10-2008 14:15:03 17.2 C 8.79 g/m*3 17.2 C 0 km/h
1036 14-10-2008 14:20:03 17 C 8.54 g/m*3 17 C 0 km/h
1037 14-10-2008 14:25:03 17.3 C 8.84 g/m*3 17.3 C 0 km/h
1038 14-10-2008 14:30:03 17.3 C 8.69 g/m*3 17.3 C 0 km/h
1039 14-10-2008 14:35:02 17.4 C 8.6 g/m*3 17.4 C 0 km/h
1040 14-10-2008 14:40:02 17.6 C 8.55 g/m*3 17.6 C 0 km/h
1041 14-10-2008 14:45:01 17.7 C 8.6 g/m*3 17.7 C 0 km/h
1042 14-10-2008 14:50:01 17.8 C 8.35 g/m*3 17.8 C 0 km/h
1043 14-10-2008 14:55:01 17.9 C 8.55 g/m*3 17.9 C 0 km/h
1044 14-10-2008 15:00:01 17.9 C 8.4 g/m*3 17.9 C 0 km/h
1045 14-10-2008 15:05:02 17.7 C 8.15 g/m*3 17.7 C 0 km/h
1046 14-10-2008 15:10:03 17.6 C 8.25 g/m*3 17.6 C 0 km/h
1047 14-10-2008 15:15:02 17.5 C 8.2 g/m*3 17.5 C 0 km/h
1048 14-10-2008 15:20:02 17.5 C 8.2 g/m*3 17.5 C 0 km/h
1049 14-10-2008 15:25:02 17.5 C 8.2 g/m*3 17.5 C 0 km/h
1050 14-10-2008 15:30:02 17.4 C 8 g/m*3 17.4 C 0 km/h
Sensor: Nr:Datum:Temp:Abs-Feuchte:Windchill:Wind:
Aussen-T/F 1051 14-10-2008 15:35:02 17.4 C 8 g/m*3 17.4 C 0 km/h
1052 14-10-2008 15:40:02 17.5 C 8.05 g/m*3 17.5 C 0 km/h
1053 14-10-2008 15:45:02 17.7 C 8 g/m*3 17.7 C 0 km/h
1054 14-10-2008 15:50:02 17.8 C 8.04 g/m*3 17.8 C 0 km/h
1055 14-10-2008 15:55:02 17.9 C 7.94 g/m*3 17.9 C 0 km/h
1056 14-10-2008 16:00:02 18 C 7.83 g/m*3 18 C 0 km/h
1057 14-10-2008 16:05:01 18 C 7.83 g/m*3 18 C 0 km/h
1058 14-10-2008 16:10:01 18 C 7.68 g/m*3 18 C 0 km/h
1059 14-10-2008 16:15:02 18 C 7.83 g/m*3 18 C 0 km/h
1060 14-10-2008 16:20:02 18 C 7.68 g/m*3 18 C 0 km/h
1061 14-10-2008 16:25:03 18 C 7.83 g/m*3 18 C 0 km/h
1062 14-10-2008 16:30:03 18.3 C 7.97 g/m*3 18.3 C 0 km/h
1063 14-10-2008 16:35:01 18.5 C 7.59 g/m*3 18.5 C 0 km/h
1064 14-10-2008 16:40:01 18.8 C 7.57 g/m*3 18.8 C 0 km/h
1065 14-10-2008 16:45:01 19.3 C 7.3 g/m*3 19.3 C 0 km/h
1066 14-10-2008 16:50:01 19.5 C 7.22 g/m*3 19.5 C 0 km/h
1067 14-10-2008 16:55:01 19.5 C 7.22 g/m*3 19.5 C 0 km/h
1068 14-10-2008 17:00:01 19.4 C 7.17 g/m*3 19.4 C 0 km/h
1069 14-10-2008 17:05:02 19.3 C 7.13 g/m*3 19.3 C 0 km/h
1070 14-10-2008 17:10:02 19.1 C 7.21 g/m*3 19.1 C 0 km/h
1071 14-10-2008 17:15:01 18.8 C 7.41 g/m*3 18.8 C 0 km/h
1072 14-10-2008 17:20:01 18.5 C 7.12 g/m*3 18.5 C 0 km/h
1073 14-10-2008 17:25:01 18.2 C 7.15 g/m*3 18.2 C 0 km/h
1074 14-10-2008 17:30:01 18.1 C 7.26 g/m*3 18.1 C 0 km/h
1075 14-10-2008 17:35:01 17.9 C 7.33 g/m*3 17.9 C 0 km/h
Sensor: Nr:Datum:Temp:Abs-Feuchte:Windchill:Wind:
Aussen-T/F 1076 14-10-2008 17:40:01 17.5 C 7.45 g/m*3 17.5 C 0 km/h
1077 14-10-2008 17:45:03 17.3 C 7.51 g/m*3 17.3 C 0 km/h
1078 14-10-2008 17:50:03 17 C 7.67 g/m*3 17 C 0 km/h
1079 14-10-2008 17:55:03 17.1 C 7.71 g/m*3 17.1 C 0 km/h
1080 14-10-2008 18:00:03 16.8 C 7.72 g/m*3 16.8 C 0 km/h
1081 14-10-2008 18:05:02 16.5 C 7.72 g/m*3 16.5 C 0 km/h
1082 14-10-2008 18:10:02 16.2 C 7.72 g/m*3 16.2 C 0 km/h
1083 14-10-2008 18:15:02 15.8 C 7.81 g/m*3 15.8 C 0 km/h
1084 14-10-2008 18:20:02 15.7 C 7.89 g/m*3 15.7 C 0 km/h
1085 14-10-2008 18:25:02 15.6 C 7.85 g/m*3 15.6 C 0 km/h
1086 14-10-2008 18:30:02 15.5 C 8.06 g/m*3 15.5 C 0 km/h
1087 14-10-2008 18:35:02 15.4 C 8.01 g/m*3 15.4 C 0 km/h
1088 14-10-2008 18:40:03 15.3 C 8.1 g/m*3 15.3 C 0 km/h
1089 14-10-2008 18:45:02 15.2 C 8.18 g/m*3 15.2 C 0 km/h
1090 14-10-2008 18:50:02 15.2 C 8.18 g/m*3 15.2 C 0 km/h
1091 14-10-2008 18:55:02 15.2 C 8.18 g/m*3 15.2 C 0 km/h
1092 14-10-2008 19:00:02 15.2 C 8.31 g/m*3 15.2 C 0 km/h
1093 14-10-2008 19:05:02 15.1 C 8.13 g/m*3 15.1 C 0 km/h
1094 14-10-2008 19:10:02 15.1 C 8.13 g/m*3 15.1 C 0 km/h
1095 14-10-2008 19:15:02 15 C 8.08 g/m*3 15 C 0 km/h
1096 14-10-2008 19:20:02 15 C 8.08 g/m*3 15 C 0 km/h
1097 14-10-2008 19:25:03 14.9 C 8.16 g/m*3 14.9 C 0 km/h
1098 14-10-2008 19:30:03 14.8 C 8.23 g/m*3 14.8 C 0 km/h
1099 14-10-2008 19:35:02 14.8 C 8.23 g/m*3 14.8 C 0 km/h
1100 14-10-2008 19:40:02 14.8 C 8.23 g/m*3 14.8 C 0 km/h
Sensor: Nr:Datum:Temp:Abs-Feuchte:Windchill:Wind:
Aussen-T/F 1101 14-10-2008 19:45:01 14.8 C 8.23 g/m*3 14.8 C 0 km/h
1102 14-10-2008 19:50:01 14.8 C 8.36 g/m*3 14.8 C 0 km/h
1103 14-10-2008 19:55:01 14.8 C 8.23 g/m*3 14.8 C 0 km/h
1104 14-10-2008 20:00:01 14.7 C 8.31 g/m*3 14.7 C 0 km/h
1105 14-10-2008 20:05:02 14.7 C 8.31 g/m*3 14.7 C 0 km/h
1106 14-10-2008 20:10:02 14.6 C 8.26 g/m*3 14.6 C 0 km/h
1107 14-10-2008 20:15:02 14.7 C 8.31 g/m*3 14.7 C 0 km/h
1108 14-10-2008 20:20:02 14.6 C 8.38 g/m*3 14.6 C 0 km/h
1109 14-10-2008 20:25:02 14.6 C 8.38 g/m*3 14.6 C 0 km/h
1110 14-10-2008 20:30:02 14.6 C 8.38 g/m*3 14.6 C 0 km/h
1111 14-10-2008 20:35:02 14.6 C 8.26 g/m*3 14.6 C 0 km/h
1112 14-10-2008 20:40:02 14.7 C 8.44 g/m*3 14.7 C 0 km/h
1113 14-10-2008 20:45:01 14.7 C 8.44 g/m*3 14.7 C 0 km/h
1114 14-10-2008 20:50:01 14.6 C 8.38 g/m*3 14.6 C 0 km/h
1115 14-10-2008 20:55:02 14.6 C 8.38 g/m*3 14.6 C 0 km/h
1116 14-10-2008 21:00:02 14.5 C 8.33 g/m*3 14.5 C 0 km/h
1117 14-10-2008 21:05:01 14.5 C 8.33 g/m*3 14.5 C 0 km/h
1118 14-10-2008 21:10:01 14.6 C 8.51 g/m*3 14.6 C 0 km/h
1119 14-10-2008 21:15:02 14.4 C 8.28 g/m*3 14.4 C 0 km/h
1120 14-10-2008 21:20:02 14.3 C 8.23 g/m*3 14.3 C 0 km/h
1121 14-10-2008 21:25:02 14.2 C 8.18 g/m*3 14.2 C 0 km/h
1122 14-10-2008 21:30:02 14.2 C 8.18 g/m*3 14.2 C 0 km/h
1123 14-10-2008 21:35:01 14.2 C 8.18 g/m*3 14.2 C 0 km/h
1124 14-10-2008 21:40:01 14.2 C 8.06 g/m*3 14.2 C 0 km/h
1125 14-10-2008 21:45:01 14 C 7.96 g/m*3 14 C 0 km/h
Sensor: Nr:Datum:Temp:Abs-Feuchte:Windchill:Wind:
Aussen-T/F 1126 14-10-2008 21:50:01 14 C 7.96 g/m*3 14 C 0 km/h
1127 14-10-2008 21:55:01 14 C 7.96 g/m*3 14 C 0 km/h
1128 14-10-2008 22:00:01 14 C 7.96 g/m*3 14 C 0 km/h
1129 14-10-2008 22:06:03 14.1 C 8.13 g/m*3 14.1 C 0 km/h
1130 14-10-2008 22:11:03 14 C 8.2 g/m*3 14 C 0 km/h
1131 14-10-2008 22:16:03 13.9 C 8.39 g/m*3 13.9 C 0 km/h
1132 14-10-2008 22:21:03 13.6 C 8.36 g/m*3 13.6 C 0 km/h
1133 14-10-2008 22:26:03 13.6 C 8.36 g/m*3 13.6 C 0 km/h
1134 14-10-2008 22:31:03 13.4 C 8.37 g/m*3 13.4 C 0 km/h
1135 14-10-2008 22:36:03 13.4 C 8.37 g/m*3 13.4 C 0 km/h
1136 14-10-2008 22:41:03 13.4 C 8.37 g/m*3 13.4 C 0 km/h
1137 14-10-2008 22:46:03 13.4 C 8.37 g/m*3 13.4 C 0 km/h
1138 14-10-2008 22:51:03 13.2 C 8.27 g/m*3 13.2 C 0 km/h
1139 14-10-2008 22:56:03 13.2 C 8.15 g/m*3 13.2 C 0 km/h
1140 14-10-2008 23:01:03 13.1 C 8.22 g/m*3 13.1 C 0 km/h
1141 14-10-2008 23:06:03 12.9 C 8.34 g/m*3 12.9 C 0 km/h
1142 14-10-2008 23:11:03 12.9 C 8.34 g/m*3 12.9 C 0 km/h
1143 14-10-2008 23:16:03 12.8 C 8.4 g/m*3 12.8 C 0 km/h
1144 14-10-2008 23:21:03 12.8 C 8.4 g/m*3 12.8 C 0 km/h
1145 14-10-2008 23:26:04 12.8 C 8.51 g/m*3 12.8 C 0 km/h
1146 14-10-2008 23:31:04 12.9 C 8.57 g/m*3 12.9 C 0 km/h
1147 14-10-2008 23:36:04 12.8 C 8.51 g/m*3 12.8 C 0 km/h
1148 14-10-2008 23:41:04 12.7 C 8.35 g/m*3 12.7 C 0 km/h
1149 14-10-2008 23:46:04 12.7 C 8.35 g/m*3 12.7 C 0 km/h
1150 14-10-2008 23:51:04 12.6 C 8.41 g/m*3 12.6 C 0 km/h
Sensor: Nr:Datum:Temp:Abs-Feuchte:Windchill:Wind:
Aussen-T/F 1151 14-10-2008 23:56:04 12.5 C 8.36 g/m*3 12.5 C 0 km/h
1152 15-10-2008 00:01:04 12.5 C 8.47 g/m*3 12.5 C 0 km/h
1153 15-10-2008 00:06:04 12.4 C 8.41 g/m*3 12.4 C 0 km/h
1154 15-10-2008 00:11:04 12.5 C 8.47 g/m*3 12.5 C 0 km/h
1155 15-10-2008 00:16:04 12.5 C 8.47 g/m*3 12.5 C 0 km/h
1156 15-10-2008 00:21:04 12.5 C 8.47 g/m*3 12.5 C 0 km/h
1157 15-10-2008 00:26:04 12.5 C 8.47 g/m*3 12.5 C 0 km/h
1158 15-10-2008 00:31:04 12.4 C 8.41 g/m*3 12.4 C 0 km/h
1159 15-10-2008 00:36:04 12.4 C 8.41 g/m*3 12.4 C 0 km/h
1160 15-10-2008 00:41:04 12.4 C 8.41 g/m*3 12.4 C 0 km/h
1161 15-10-2008 00:46:04 12.4 C 8.41 g/m*3 12.4 C 0 km/h
1162 15-10-2008 00:51:04 12.4 C 8.41 g/m*3 12.4 C 0 km/h
1163 15-10-2008 00:56:04 12.3 C 8.36 g/m*3 12.3 C 0 km/h
1164 15-10-2008 01:01:04 12.3 C 8.47 g/m*3 12.3 C 0 km/h
1165 15-10-2008 01:06:05 12.2 C 8.42 g/m*3 12.2 C 0 km/h
1166 15-10-2008 01:11:05 12.2 C 8.42 g/m*3 12.2 C 0 km/h
1167 15-10-2008 01:16:05 12.1 C 8.36 g/m*3 12.1 C 0 km/h
1168 15-10-2008 01:21:05 12.1 C 8.36 g/m*3 12.1 C 0 km/h
1169 15-10-2008 01:26:05 12.1 C 8.47 g/m*3 12.1 C 0 km/h
1170 15-10-2008 01:31:05 12 C 8.42 g/m*3 12 C 0 km/h
1171 15-10-2008 01:36:05 12 C 8.42 g/m*3 12 C 0 km/h
1172 15-10-2008 01:41:05 12.1 C 8.47 g/m*3 12.1 C 0 km/h
1173 15-10-2008 01:46:05 12.1 C 8.47 g/m*3 12.1 C 0 km/h
1174 15-10-2008 01:51:05 12.1 C 8.47 g/m*3 12.1 C 0 km/h
1175 15-10-2008 01:56:05 12.1 C 8.47 g/m*3 12.1 C 0 km/h
Sensor: Nr:Datum:Temp:Abs-Feuchte:Windchill:Wind:
Aussen-T/F 1176 15-10-2008 02:01:05 12.1 C 8.47 g/m*3 12.1 C 0 km/h
1177 15-10-2008 02:06:05 12.1 C 8.36 g/m*3 12.1 C 0 km/h
1178 15-10-2008 02:11:05 11.8 C 8.31 g/m*3 11.8 C 0 km/h
1179 15-10-2008 02:16:05 11.9 C 8.37 g/m*3 11.9 C 0 km/h
1180 15-10-2008 02:21:05 11.8 C 8.31 g/m*3 11.8 C 0 km/h
1181 15-10-2008 02:26:05 11.9 C 8.37 g/m*3 11.9 C 0 km/h
1182 15-10-2008 02:31:05 11.9 C 8.37 g/m*3 11.9 C 0 km/h
1183 15-10-2008 02:36:05 11.9 C 8.37 g/m*3 11.9 C 0 km/h
1184 15-10-2008 02:41:06 11.9 C 8.37 g/m*3 11.9 C 0 km/h
1185 15-10-2008 02:46:06 11.8 C 8.31 g/m*3 11.8 C 0 km/h
1186 15-10-2008 02:51:06 11.7 C 8.26 g/m*3 11.7 C 0 km/h
1187 15-10-2008 02:56:06 11.6 C 8.21 g/m*3 11.6 C 0 km/h
1188 15-10-2008 03:01:06 11.5 C 8.16 g/m*3 11.5 C 0 km/h
1189 15-10-2008 03:06:06 11.5 C 8.16 g/m*3 11.5 C 0 km/h
1190 15-10-2008 03:11:06 11.5 C 8.26 g/m*3 11.5 C 0 km/h
1191 15-10-2008 03:16:06 11.5 C 8.26 g/m*3 11.5 C 0 km/h
1192 15-10-2008 03:21:06 11.5 C 8.26 g/m*3 11.5 C 0 km/h
1193 15-10-2008 03:26:06 11.5 C 8.26 g/m*3 11.5 C 0 km/h
1194 15-10-2008 03:31:06 11.5 C 8.26 g/m*3 11.5 C 0 km/h
1195 15-10-2008 03:36:06 11.5 C 8.26 g/m*3 11.5 C 0 km/h
1196 15-10-2008 03:41:06 11.5 C 8.26 g/m*3 11.5 C 0 km/h
1197 15-10-2008 03:46:06 11.5 C 8.26 g/m*3 11.5 C 0 km/h
1198 15-10-2008 03:51:06 11.5 C 8.16 g/m*3 11.5 C 0 km/h
1199 15-10-2008 03:56:06 11.4 C 8.21 g/m*3 11.4 C 0 km/h
1200 15-10-2008 04:01:06 11.3 C 8.16 g/m*3 11.3 C 0 km/h
Sensor: Nr:Datum:Temp:Abs-Feuchte:Windchill:Wind:
Aussen-T/F 1201 15-10-2008 04:06:06 11.3 C 8.26 g/m*3 11.3 C 0 km/h
1202 15-10-2008 04:11:06 11.4 C 8.31 g/m*3 11.4 C 0 km/h
1203 15-10-2008 04:16:06 11.4 C 8.31 g/m*3 11.4 C 0 km/h
1204 15-10-2008 04:21:07 11.4 C 8.21 g/m*3 11.4 C 0 km/h
1205 15-10-2008 04:26:07 11.4 C 8.21 g/m*3 11.4 C 0 km/h
1206 15-10-2008 04:31:07 11.4 C 8.21 g/m*3 11.4 C 0 km/h
1207 15-10-2008 04:36:07 11.4 C 8.21 g/m*3 11.4 C 0 km/h
1208 15-10-2008 04:41:07 11.4 C 8.21 g/m*3 11.4 C 0 km/h
1209 15-10-2008 04:46:07 11.4 C 8.21 g/m*3 11.4 C 0 km/h
1210 15-10-2008 04:51:07 11.5 C 8.26 g/m*3 11.5 C 0 km/h
1211 15-10-2008 04:56:07 11.5 C 8.26 g/m*3 11.5 C 0 km/h
1212 15-10-2008 05:01:07 11.5 C 8.26 g/m*3 11.5 C 0 km/h
1213 15-10-2008 05:06:07 11.4 C 8.21 g/m*3 11.4 C 0 km/h
1214 15-10-2008 05:11:07 11.5 C 8.26 g/m*3 11.5 C 0 km/h
1215 15-10-2008 05:16:07 11.5 C 8.26 g/m*3 11.5 C 0 km/h
1216 15-10-2008 05:21:07 11.5 C 8.26 g/m*3 11.5 C 0 km/h
1217 15-10-2008 05:26:07 11.5 C 8.16 g/m*3 11.5 C 0 km/h
1218 15-10-2008 05:31:07 11.5 C 8.16 g/m*3 11.5 C 0 km/h
1219 15-10-2008 05:36:07 11.5 C 8.16 g/m*3 11.5 C 0 km/h
1220 15-10-2008 05:41:07 11.5 C 8.16 g/m*3 11.5 C 0 km/h
1221 15-10-2008 05:46:07 11.4 C 8.11 g/m*3 11.4 C 0 km/h
1222 15-10-2008 05:51:07 11.4 C 8.21 g/m*3 11.4 C 0 km/h
1223 15-10-2008 05:56:07 11.4 C 8.21 g/m*3 11.4 C 0 km/h
1224 15-10-2008 06:01:02 11.4 C 8.11 g/m*3 11.4 C 0 km/h
1225 15-10-2008 06:06:02 11.3 C 8.06 g/m*3 11.3 C 0 km/h
Sensor: Nr:Datum:Temp:Abs-Feuchte:Windchill:Wind:
Aussen-T/F 1226 15-10-2008 06:11:02 11.3 C 8.16 g/m*3 11.3 C 0 km/h
1227 15-10-2008 06:16:03 11.2 C 8.21 g/m*3 11.2 C 0 km/h
1228 15-10-2008 06:21:03 11.2 C 8.21 g/m*3 11.2 C 0 km/h
1229 15-10-2008 06:26:04 11.2 C 8.21 g/m*3 11.2 C 0 km/h
1230 15-10-2008 06:31:03 11.2 C 8.21 g/m*3 11.2 C 0 km/h
1231 15-10-2008 06:36:03 11.2 C 8.21 g/m*3 11.2 C 0 km/h
1232 15-10-2008 06:41:03 11.2 C 8.21 g/m*3 11.2 C 0 km/h
1233 15-10-2008 06:46:02 11.2 C 8.21 g/m*3 11.2 C 0 km/h
1234 15-10-2008 06:51:02 11.2 C 8.21 g/m*3 11.2 C 0 km/h
1235 15-10-2008 06:56:02 11.1 C 8.16 g/m*3 11.1 C 0 km/h
1236 15-10-2008 07:01:02 11.1 C 8.16 g/m*3 11.1 C 0 km/h
1237 15-10-2008 07:06:02 11.1 C 8.16 g/m*3 11.1 C 0 km/h
1238 15-10-2008 07:11:02 11 C 8.21 g/m*3 11 C 0 km/h
1239 15-10-2008 07:16:01 11 C 8.21 g/m*3 11 C 0 km/h
1240 15-10-2008 07:21:01 11 C 8.21 g/m*3 11 C 0 km/h
1241 15-10-2008 07:26:02 11.1 C 8.26 g/m*3 11.1 C 0 km/h
1242 15-10-2008 07:31:01 11.1 C 8.26 g/m*3 11.1 C 0 km/h
1243 15-10-2008 07:36:01 11.2 C 8.31 g/m*3 11.2 C 0 km/h
1244 15-10-2008 07:41:01 11.2 C 8.21 g/m*3 11.2 C 0 km/h
1245 15-10-2008 07:46:01 11.3 C 8.26 g/m*3 11.3 C 0 km/h
1246 15-10-2008 07:51:01 11.4 C 8.31 g/m*3 11.4 C 0 km/h
1247 15-10-2008 07:56:01 11.4 C 8.31 g/m*3 11.4 C 0 km/h
1248 15-10-2008 08:01:02 11.4 C 8.31 g/m*3 11.4 C 0 km/h
1249 15-10-2008 08:06:02 11.3 C 8.26 g/m*3 11.3 C 0 km/h
1250 15-10-2008 08:11:02 11.3 C 8.36 g/m*3 11.3 C 0 km/h
Sensor: Nr:Datum:Temp:Abs-Feuchte:Windchill:Wind:
Aussen-T/F 1251 15-10-2008 08:16:01 11.3 C 8.36 g/m*3 11.3 C 0 km/h
1252 15-10-2008 08:21:01 11.3 C 8.36 g/m*3 11.3 C 0 km/h
1253 15-10-2008 08:26:01 11.3 C 8.36 g/m*3 11.3 C 0 km/h
1254 15-10-2008 08:31:02 11.4 C 8.42 g/m*3 11.4 C 0 km/h
1255 15-10-2008 08:36:02 11.5 C 8.47 g/m*3 11.5 C 0 km/h
1256 15-10-2008 08:41:02 11.6 C 8.52 g/m*3 11.6 C 0 km/h
1257 15-10-2008 08:46:03 11.7 C 8.58 g/m*3 11.7 C 0 km/h
1258 15-10-2008 08:51:03 11.7 C 8.58 g/m*3 11.7 C 0 km/h
1259 15-10-2008 08:56:03 11.8 C 8.63 g/m*3 11.8 C 0 km/h
1260 15-10-2008 09:01:02 11.9 C 8.68 g/m*3 11.9 C 0 km/h
1261 15-10-2008 09:06:02 12.2 C 8.74 g/m*3 12.2 C 0 km/h
1262 15-10-2008 09:11:02 12.2 C 8.74 g/m*3 12.2 C 0 km/h
1263 15-10-2008 09:16:02 12.2 C 8.63 g/m*3 12.2 C 0 km/h
1264 15-10-2008 09:21:02 12.2 C 8.52 g/m*3 12.2 C 0 km/h
1265 15-10-2008 09:26:02 12.2 C 8.52 g/m*3 12.2 C 0 km/h
1266 15-10-2008 09:31:02 12.3 C 8.58 g/m*3 12.3 C 0 km/h
1267 15-10-2008 09:36:02 12.4 C 8.63 g/m*3 12.4 C 0 km/h
1268 15-10-2008 09:41:02 12.4 C 8.63 g/m*3 12.4 C 0 km/h
1269 15-10-2008 09:46:02 12.5 C 8.58 g/m*3 12.5 C 0 km/h
1270 15-10-2008 09:51:02 12.5 C 8.58 g/m*3 12.5 C 0 km/h
1271 15-10-2008 09:56:03 12.5 C 8.58 g/m*3 12.5 C 0 km/h
1272 15-10-2008 10:01:01 12.5 C 8.58 g/m*3 12.5 C 0 km/h
1273 15-10-2008 10:06:01 12.6 C 8.63 g/m*3 12.6 C 0 km/h
1274 15-10-2008 10:11:01 12.7 C 8.68 g/m*3 12.7 C 0 km/h
1275 15-10-2008 10:16:02 12.7 C 8.68 g/m*3 12.7 C 0 km/h
Sensor: Nr:Datum:Temp:Abs-Feuchte:Windchill:Wind:
Aussen-T/F 1276 15-10-2008 10:21:02 12.8 C 8.74 g/m*3 12.8 C 0 km/h
1277 15-10-2008 10:26:02 12.9 C 8.79 g/m*3 12.9 C 0 km/h
1278 15-10-2008 10:31:01 13 C 8.73 g/m*3 13 C 0 km/h
1279 15-10-2008 10:36:01 13.2 C 8.84 g/m*3 13.2 C 0 km/h
1280 15-10-2008 10:41:01 13.3 C 8.78 g/m*3 13.3 C 0 km/h
1281 15-10-2008 10:46:02 13.4 C 8.83 g/m*3 13.4 C 0 km/h
1282 15-10-2008 10:51:02 13.5 C 8.89 g/m*3 13.5 C 0 km/h
1283 15-10-2008 10:56:02 13.8 C 9.06 g/m*3 13.8 C 0 km/h
1284 15-10-2008 11:01:02 13.9 C 9.11 g/m*3 13.9 C 0 km/h
1285 15-10-2008 11:06:02 13.9 C 9.11 g/m*3 13.9 C 0 km/h
1286 15-10-2008 11:11:02 14.1 C 9.1 g/m*3 14.1 C 0 km/h
1287 15-10-2008 11:16:02 14.3 C 9.09 g/m*3 14.3 C 0 km/h
1288 15-10-2008 11:21:02 14.4 C 9.15 g/m*3 14.4 C 0 km/h
1289 15-10-2008 11:26:02 14.6 C 9.13 g/m*3 14.6 C 0 km/h
1290 15-10-2008 11:31:02 14.8 C 9.12 g/m*3 14.8 C 0 km/h
1291 15-10-2008 11:36:02 14.9 C 9.18 g/m*3 14.9 C 0 km/h
1292 15-10-2008 11:41:02 15.1 C 9.03 g/m*3 15.1 C 0 km/h
1293 15-10-2008 11:46:02 15.2 C 8.96 g/m*3 15.2 C 0 km/h
1294 15-10-2008 11:51:02 15.1 C 8.9 g/m*3 15.1 C 0 km/h
1295 15-10-2008 11:56:02 15.1 C 8.9 g/m*3 15.1 C 0 km/h
1296 15-10-2008 12:01:01 15 C 8.85 g/m*3 15 C 0 km/h
1297 15-10-2008 12:06:01 15 C 8.98 g/m*3 15 C 0 km/h
1298 15-10-2008 12:11:01 15 C 8.85 g/m*3 15 C 0 km/h
1299 15-10-2008 12:16:01 15 C 8.98 g/m*3 15 C 0 km/h
1300 15-10-2008 12:21:01 15 C 8.98 g/m*3 15 C 0 km/h
Sensor: Nr:Datum:Temp:Abs-Feuchte:Windchill:Wind:
Aussen-T/F 1301 15-10-2008 12:26:01 15 C 8.98 g/m*3 15 C 0 km/h
1302 15-10-2008 12:31:02 14.9 C 9.05 g/m*3 14.9 C 0 km/h
1303 15-10-2008 12:36:02 14.9 C 9.05 g/m*3 14.9 C 0 km/h
1304 15-10-2008 12:41:03 14.9 C 9.18 g/m*3 14.9 C 0 km/h
1305 15-10-2008 12:46:02 14.8 C 9.12 g/m*3 14.8 C 0 km/h
1306 15-10-2008 12:51:02 14.7 C 9.19 g/m*3 14.7 C 0 km/h
1307 15-10-2008 12:56:02 14.7 C 9.32 g/m*3 14.7 C 0 km/h
1308 15-10-2008 13:01:02 14.7 C 9.19 g/m*3 14.7 C 0 km/h
1309 15-10-2008 13:06:02 14.8 C 9.25 g/m*3 14.8 C 0 km/h
1310 15-10-2008 13:11:02 15 C 9.1 g/m*3 15 C 0 km/h
1311 15-10-2008 13:16:02 15.1 C 9.03 g/m*3 15.1 C 0 km/h
1312 15-10-2008 13:21:03 15.1 C 8.9 g/m*3 15.1 C 0 km/h
1313 15-10-2008 13:26:03 15.2 C 8.83 g/m*3 15.2 C 0 km/h
1314 15-10-2008 13:31:02 15.3 C 8.88 g/m*3 15.3 C 0 km/h
1315 15-10-2008 13:36:02 15.5 C 8.86 g/m*3 15.5 C 0 km/h
1316 15-10-2008 13:41:02 15.7 C 8.83 g/m*3 15.7 C 0 km/h
1317 15-10-2008 13:46:01 15.8 C 9.02 g/m*3 15.8 C 0 km/h
1318 15-10-2008 13:51:01 16 C 8.72 g/m*3 16 C 0 km/h
1319 15-10-2008 13:56:01 16.2 C 8.83 g/m*3 16.2 C 0 km/h
1320 15-10-2008 14:01:02 15.9 C 8.8 g/m*3 15.9 C 0 km/h
1321 15-10-2008 14:06:02 15.9 C 8.8 g/m*3 15.9 C 0 km/h
1322 15-10-2008 14:11:03 15.7 C 8.83 g/m*3 15.7 C 0 km/h
1323 15-10-2008 14:16:01 15.6 C 8.78 g/m*3 15.6 C 0 km/h
1324 15-10-2008 14:21:01 15.5 C 8.86 g/m*3 15.5 C 0 km/h
1325 15-10-2008 14:26:01 15.7 C 8.96 g/m*3 15.7 C 0 km/h
Sensor: Nr:Datum:Temp:Abs-Feuchte:Windchill:Wind:
Aussen-T/F 1326 15-10-2008 14:31:02 15.8 C 8.88 g/m*3 15.8 C 0 km/h
1327 15-10-2008 14:36:02 15.8 C 9.02 g/m*3 15.8 C 0 km/h
1328 15-10-2008 14:41:02 15.8 C 8.88 g/m*3 15.8 C 0 km/h
1329 15-10-2008 14:46:02 15.7 C 8.83 g/m*3 15.7 C 0 km/h
1330 15-10-2008 14:51:02 15.6 C 8.78 g/m*3 15.6 C 0 km/h
1331 15-10-2008 14:56:03 15.7 C 8.83 g/m*3 15.7 C 0 km/h
1332 15-10-2008 15:01:02 15.6 C 8.78 g/m*3 15.6 C 0 km/h
1333 15-10-2008 15:06:02 15.6 C 8.78 g/m*3 15.6 C 0 km/h
1334 15-10-2008 15:11:02 15.5 C 8.72 g/m*3 15.5 C 0 km/h
1335 15-10-2008 15:16:02 15.5 C 8.72 g/m*3 15.5 C 0 km/h
1336 15-10-2008 15:21:02 15.5 C 8.72 g/m*3 15.5 C 0 km/h
1337 15-10-2008 15:26:02 15.5 C 8.72 g/m*3 15.5 C 0 km/h
1338 15-10-2008 15:31:02 15.6 C 8.78 g/m*3 15.6 C 0 km/h
1339 15-10-2008 15:36:02 15.6 C 8.64 g/m*3 15.6 C 0 km/h
1340 15-10-2008 15:41:02 15.6 C 8.64 g/m*3 15.6 C 0 km/h
1341 15-10-2008 15:46:02 15.6 C 8.64 g/m*3 15.6 C 0 km/h
1342 15-10-2008 15:51:02 15.6 C 8.64 g/m*3 15.6 C 0 km/h
1343 15-10-2008 15:56:02 15.6 C 8.64 g/m*3 15.6 C 0 km/h
1344 15-10-2008 16:01:02 15.5 C 8.72 g/m*3 15.5 C 0 km/h
1345 15-10-2008 16:06:02 15.5 C 8.59 g/m*3 15.5 C 0 km/h
1346 15-10-2008 16:11:02 15.6 C 8.64 g/m*3 15.6 C 0 km/h
1347 15-10-2008 16:16:02 15.5 C 8.59 g/m*3 15.5 C 0 km/h
1348 15-10-2008 16:21:02 15.6 C 8.78 g/m*3 15.6 C 0 km/h
1349 15-10-2008 16:26:02 15.6 C 8.78 g/m*3 15.6 C 0 km/h
1350 15-10-2008 16:31:02 15.6 C 8.78 g/m*3 15.6 C 0 km/h
Sensor: Nr:Datum:Temp:Abs-Feuchte:Windchill:Wind:
Aussen-T/F 1351 15-10-2008 16:36:02 15.6 C 8.78 g/m*3 15.6 C 0 km/h
1352 15-10-2008 16:41:02 15.7 C 8.7 g/m*3 15.7 C 0 km/h
1353 15-10-2008 16:46:02 15.7 C 8.7 g/m*3 15.7 C 0 km/h
1354 15-10-2008 16:51:02 15.7 C 8.7 g/m*3 15.7 C 0 km/h
1355 15-10-2008 16:56:02 15.7 C 8.7 g/m*3 15.7 C 0 km/h
1356 15-10-2008 17:01:02 15.6 C 8.64 g/m*3 15.6 C 0 km/h
1357 15-10-2008 17:06:02 15.6 C 8.64 g/m*3 15.6 C 0 km/h
1358 15-10-2008 17:11:02 15.6 C 8.64 g/m*3 15.6 C 0 km/h
1359 15-10-2008 17:16:01 15.6 C 8.78 g/m*3 15.6 C 0 km/h
1360 15-10-2008 17:21:01 15.5 C 8.72 g/m*3 15.5 C 0 km/h
1361 15-10-2008 17:26:01 15.5 C 8.59 g/m*3 15.5 C 0 km/h
1362 15-10-2008 17:31:02 15.5 C 8.72 g/m*3 15.5 C 0 km/h
1363 15-10-2008 17:36:02 15.5 C 8.72 g/m*3 15.5 C 0 km/h
1364 15-10-2008 17:41:03 15.5 C 8.72 g/m*3 15.5 C 0 km/h
1365 15-10-2008 17:46:02 15.5 C 8.72 g/m*3 15.5 C 0 km/h
1366 15-10-2008 17:51:02 15.5 C 8.72 g/m*3 15.5 C 0 km/h
1367 15-10-2008 17:56:02 15.5 C 8.72 g/m*3 15.5 C 0 km/h
1368 15-10-2008 18:01:03 15.5 C 8.72 g/m*3 15.5 C 0 km/h
1369 15-10-2008 18:06:03 15.5 C 8.72 g/m*3 15.5 C 0 km/h
1370 15-10-2008 18:11:03 15.4 C 8.8 g/m*3 15.4 C 0 km/h
1371 15-10-2008 18:16:02 15.4 C 8.8 g/m*3 15.4 C 0 km/h
1372 15-10-2008 18:21:02 15.4 C 8.8 g/m*3 15.4 C 0 km/h
1373 15-10-2008 18:26:03 15.4 C 8.8 g/m*3 15.4 C 0 km/h
1374 15-10-2008 18:31:02 15.4 C 8.93 g/m*3 15.4 C 0 km/h
1375 15-10-2008 18:36:02 15.4 C 8.93 g/m*3 15.4 C 0 km/h
Sensor: Nr:Datum:Temp:Abs-Feuchte:Windchill:Wind:
Aussen-T/F 1376 15-10-2008 18:41:02 15.4 C 8.93 g/m*3 15.4 C 0 km/h
1377 15-10-2008 18:46:02 15 C 9.1 g/m*3 15 C 0 km/h
1378 15-10-2008 18:51:02 14.4 C 9.52 g/m*3 14.4 C 0 km/h
1379 15-10-2008 18:56:02 14.1 C 9.71 g/m*3 14.1 C 0 km/h
1380 15-10-2008 19:01:02 13.9 C 9.83 g/m*3 13.9 C 0 km/h
1381 15-10-2008 19:06:02 13.9 C 9.95 g/m*3 13.9 C 0 km/h
1382 15-10-2008 19:11:02 13.8 C 9.89 g/m*3 13.8 C 0 km/h
1383 15-10-2008 19:16:02 13.8 C 10.01 g/m*3 13.8 C 0 km/h
1384 15-10-2008 19:21:02 13.8 C 10.01 g/m*3 13.8 C 0 km/h
1385 15-10-2008 19:26:02 13.9 C 10.07 g/m*3 13.9 C 0 km/h
1386 15-10-2008 19:31:02 13.9 C 10.07 g/m*3 13.9 C 0 km/h
1387 15-10-2008 19:36:03 14 C 10.01 g/m*3 14 C 0 km/h
1388 15-10-2008 19:41:03 14 C 10.01 g/m*3 14 C 0 km/h
1389 15-10-2008 19:46:01 14 C 9.89 g/m*3 14 C 0 km/h
1390 15-10-2008 19:51:01 14.1 C 9.95 g/m*3 14.1 C 0 km/h
1391 15-10-2008 19:56:01 14.2 C 10.01 g/m*3 14.2 C 0 km/h
1392 15-10-2008 20:01:01 14.2 C 10.01 g/m*3 14.2 C 0 km/h
1393 15-10-2008 20:06:01 14.2 C 9.89 g/m*3 14.2 C 0 km/h
1394 15-10-2008 20:11:01 14.4 C 10.01 g/m*3 14.4 C 0 km/h
1395 15-10-2008 20:16:02 14.4 C 10.01 g/m*3 14.4 C 0 km/h
1396 15-10-2008 20:21:03 14.6 C 10.01 g/m*3 14.6 C 0 km/h
1397 15-10-2008 20:26:03 14.6 C 10.01 g/m*3 14.6 C 0 km/h
1398 15-10-2008 20:31:01 14.6 C 9.89 g/m*3 14.6 C 0 km/h
1399 15-10-2008 20:36:01 14.6 C 9.89 g/m*3 14.6 C 0 km/h
1400 15-10-2008 20:41:01 14.7 C 9.95 g/m*3 14.7 C 0 km/h
Sensor: Nr:Datum:Temp:Abs-Feuchte:Windchill:Wind:
Aussen-T/F 1401 15-10-2008 20:46:01 14.7 C 9.95 g/m*3 14.7 C 0 km/h
1402 15-10-2008 20:51:01 14.7 C 9.95 g/m*3 14.7 C 0 km/h
1403 15-10-2008 20:56:01 14.7 C 9.95 g/m*3 14.7 C 0 km/h
1404 15-10-2008 21:01:01 14.7 C 9.95 g/m*3 14.7 C 0 km/h
1405 15-10-2008 21:06:01 14.7 C 9.95 g/m*3 14.7 C 0 km/h
1406 15-10-2008 21:11:01 14.7 C 9.95 g/m*3 14.7 C 0 km/h
1407 15-10-2008 21:16:01 14.8 C 10.01 g/m*3 14.8 C 0 km/h
1408 15-10-2008 21:21:01 14.8 C 10.01 g/m*3 14.8 C 0 km/h
1409 15-10-2008 21:26:01 14.8 C 10.01 g/m*3 14.8 C 0 km/h
1410 15-10-2008 21:31:01 14.8 C 10.01 g/m*3 14.8 C 0 km/h
1411 15-10-2008 21:36:02 14.8 C 9.88 g/m*3 14.8 C 0 km/h
1412 15-10-2008 21:41:02 14.9 C 9.94 g/m*3 14.9 C 0 km/h
1413 15-10-2008 21:47:02 15 C 9.87 g/m*3 15 C 0 km/h
1414 15-10-2008 21:52:02 15 C 9.75 g/m*3 15 C 0 km/h
1415 15-10-2008 21:57:02 15 C 9.75 g/m*3 15 C 0 km/h
1416 15-10-2008 22:02:02 15 C 9.75 g/m*3 15 C 0 km/h
1417 15-10-2008 22:07:02 15 C 9.87 g/m*3 15 C 0 km/h
1418 15-10-2008 22:12:02 15 C 9.75 g/m*3 15 C 0 km/h
1419 15-10-2008 22:17:02 15.1 C 9.8 g/m*3 15.1 C 0 km/h
1420 15-10-2008 22:22:02 15.1 C 9.8 g/m*3 15.1 C 0 km/h
1421 15-10-2008 22:27:02 15.1 C 9.8 g/m*3 15.1 C 0 km/h
1422 15-10-2008 22:32:02 15.2 C 9.86 g/m*3 15.2 C 0 km/h
1423 15-10-2008 22:37:02 15.2 C 9.86 g/m*3 15.2 C 0 km/h
1424 15-10-2008 22:42:02 15.2 C 9.86 g/m*3 15.2 C 0 km/h
1425 15-10-2008 22:47:02 15.1 C 9.8 g/m*3 15.1 C 0 km/h
Sensor: Nr:Datum:Temp:Abs-Feuchte:Windchill:Wind:
Aussen-T/F 1426 15-10-2008 22:52:02 15.1 C 9.8 g/m*3 15.1 C 0 km/h
1427 15-10-2008 22:57:02 15.1 C 9.93 g/m*3 15.1 C 0 km/h
1428 15-10-2008 23:02:02 15.1 C 9.93 g/m*3 15.1 C 0 km/h
1429 15-10-2008 23:07:02 15 C 9.87 g/m*3 15 C 0 km/h
1430 15-10-2008 23:12:03 14.9 C 10.07 g/m*3 14.9 C 0 km/h
1431 15-10-2008 23:17:03 14.9 C 10.07 g/m*3 14.9 C 0 km/h
1432 15-10-2008 23:22:03 14.9 C 10.07 g/m*3 14.9 C 0 km/h
1433 15-10-2008 23:27:03 14.8 C 10.01 g/m*3 14.8 C 0 km/h
1434 15-10-2008 23:32:03 14.8 C 10.01 g/m*3 14.8 C 0 km/h
1435 15-10-2008 23:37:03 14.8 C 10.01 g/m*3 14.8 C 0 km/h
1436 15-10-2008 23:42:03 14.8 C 9.88 g/m*3 14.8 C 0 km/h
1437 15-10-2008 23:47:03 14.8 C 9.88 g/m*3 14.8 C 0 km/h
1438 15-10-2008 23:52:03 14.9 C 9.94 g/m*3 14.9 C 0 km/h
1439 15-10-2008 23:57:03 15 C 9.87 g/m*3 15 C 0 km/h
1440 16-10-2008 00:02:03 15 C 9.75 g/m*3 15 C 0 km/h
1441 16-10-2008 00:07:03 15 C 9.75 g/m*3 15 C 0 km/h
1442 16-10-2008 00:12:03 15 C 9.75 g/m*3 15 C 0 km/h
1443 16-10-2008 00:17:03 15 C 9.87 g/m*3 15 C 0 km/h
1444 16-10-2008 00:22:03 14.8 C 9.88 g/m*3 14.8 C 0 km/h
1445 16-10-2008 00:27:03 14.8 C 9.88 g/m*3 14.8 C 0 km/h
1446 16-10-2008 00:32:03 14.8 C 9.88 g/m*3 14.8 C 0 km/h
1447 16-10-2008 00:37:03 14.9 C 9.94 g/m*3 14.9 C 0 km/h
1448 16-10-2008 00:42:03 14.9 C 9.81 g/m*3 14.9 C 0 km/h
1449 16-10-2008 00:47:03 14.9 C 9.81 g/m*3 14.9 C 0 km/h
1450 16-10-2008 00:52:03 15 C 9.75 g/m*3 15 C 0 km/h
Sensor: Nr:Datum:Temp:Abs-Feuchte:Windchill:Wind:
Aussen-T/F 1451 16-10-2008 00:57:04 15 C 9.75 g/m*3 15 C 0 km/h
1452 16-10-2008 01:02:04 15 C 9.75 g/m*3 15 C 0 km/h
1453 16-10-2008 01:07:04 15 C 9.75 g/m*3 15 C 0 km/h
1454 16-10-2008 01:12:04 15 C 9.75 g/m*3 15 C 0 km/h
1455 16-10-2008 01:17:04 15 C 9.75 g/m*3 15 C 0 km/h
1456 16-10-2008 01:22:04 15 C 9.75 g/m*3 15 C 0 km/h
1457 16-10-2008 01:27:04 15 C 9.75 g/m*3 15 C 0 km/h
1458 16-10-2008 01:32:04 15 C 9.75 g/m*3 15 C 0 km/h
1459 16-10-2008 01:37:04 14.9 C 9.81 g/m*3 14.9 C 0 km/h
1460 16-10-2008 01:42:04 15 C 9.75 g/m*3 15 C 0 km/h
1461 16-10-2008 01:47:04 15 C 9.75 g/m*3 15 C 0 km/h
1462 16-10-2008 01:52:04 15 C 9.75 g/m*3 15 C 0 km/h
1463 16-10-2008 01:57:04 15 C 9.75 g/m*3 15 C 0 km/h
1464 16-10-2008 02:02:04 15 C 9.75 g/m*3 15 C 0 km/h
1465 16-10-2008 02:07:04 15 C 9.75 g/m*3 15 C 0 km/h
1466 16-10-2008 02:12:04 15 C 9.75 g/m*3 15 C 0 km/h
1467 16-10-2008 02:17:04 14.9 C 9.81 g/m*3 14.9 C 0 km/h
1468 16-10-2008 02:22:04 14.8 C 9.75 g/m*3 14.8 C 0 km/h
1469 16-10-2008 02:27:04 14.8 C 9.88 g/m*3 14.8 C 0 km/h
1470 16-10-2008 02:32:04 14.8 C 9.88 g/m*3 14.8 C 0 km/h
1471 16-10-2008 02:37:05 14.8 C 9.88 g/m*3 14.8 C 0 km/h
1472 16-10-2008 02:42:05 14.8 C 9.75 g/m*3 14.8 C 0 km/h
1473 16-10-2008 02:47:05 14.9 C 9.81 g/m*3 14.9 C 0 km/h
1474 16-10-2008 02:52:05 15 C 9.62 g/m*3 15 C 0 km/h
1475 16-10-2008 02:57:05 14.9 C 9.56 g/m*3 14.9 C 0 km/h
Sensor: Nr:Datum:Temp:Abs-Feuchte:Windchill:Wind:
Aussen-T/F 1476 16-10-2008 03:02:05 14.9 C 9.56 g/m*3 14.9 C 0 km/h
1477 16-10-2008 03:07:05 14.9 C 9.43 g/m*3 14.9 C 0 km/h
1478 16-10-2008 03:12:05 14.9 C 9.43 g/m*3 14.9 C 0 km/h
1479 16-10-2008 03:17:05 14.9 C 9.43 g/m*3 14.9 C 0 km/h
1480 16-10-2008 03:22:05 14.9 C 9.43 g/m*3 14.9 C 0 km/h
1481 16-10-2008 03:27:05 14.9 C 9.43 g/m*3 14.9 C 0 km/h
1482 16-10-2008 03:32:05 14.9 C 9.43 g/m*3 14.9 C 0 km/h
1483 16-10-2008 03:37:05 14.9 C 9.43 g/m*3 14.9 C 0 km/h
1484 16-10-2008 03:42:05 14.8 C 9.37 g/m*3 14.8 C 0 km/h
1485 16-10-2008 03:47:05 14.8 C 9.37 g/m*3 14.8 C 0 km/h
1486 16-10-2008 03:52:05 14.8 C 9.37 g/m*3 14.8 C 0 km/h
1487 16-10-2008 03:57:05 14.8 C 9.25 g/m*3 14.8 C 0 km/h
1488 16-10-2008 04:02:05 14.7 C 9.32 g/m*3 14.7 C 0 km/h
1489 16-10-2008 04:07:05 14.7 C 9.32 g/m*3 14.7 C 0 km/h
1490 16-10-2008 04:12:06 14.7 C 9.19 g/m*3 14.7 C 0 km/h
1491 16-10-2008 04:17:06 14.7 C 9.19 g/m*3 14.7 C 0 km/h
1492 16-10-2008 04:22:06 14.7 C 9.19 g/m*3 14.7 C 0 km/h
1493 16-10-2008 04:27:06 14.6 C 9.13 g/m*3 14.6 C 0 km/h
1494 16-10-2008 04:32:06 14.5 C 9.2 g/m*3 14.5 C 0 km/h
1495 16-10-2008 04:37:06 14.4 C 9.27 g/m*3 14.4 C 0 km/h
1496 16-10-2008 04:42:06 14 C 9.17 g/m*3 14 C 0 km/h
1497 16-10-2008 04:47:06 13.7 C 9.35 g/m*3 13.7 C 0 km/h
1498 16-10-2008 04:52:06 13.6 C 9.3 g/m*3 13.6 C 0 km/h
1499 16-10-2008 04:57:06 13.7 C 9.59 g/m*3 13.7 C 0 km/h
1500 16-10-2008 05:02:06 13.6 C 9.53 g/m*3 13.6 C 0 km/h
Sensor: Nr:Datum:Temp:Abs-Feuchte:Windchill:Wind:
Aussen-T/F 1501 16-10-2008 05:07:06 13.4 C 9.42 g/m*3 13.4 C 0 km/h
1502 16-10-2008 05:12:06 13.4 C 9.42 g/m*3 13.4 C 0 km/h
1503 16-10-2008 05:17:06 13.3 C 9.36 g/m*3 13.3 C 0 km/h
1504 16-10-2008 05:22:06 13.3 C 9.47 g/m*3 13.3 C 0 km/h
1505 16-10-2008 05:27:06 13.3 C 9.47 g/m*3 13.3 C 0 km/h
1506 16-10-2008 05:32:06 13.2 C 9.42 g/m*3 13.2 C 0 km/h
1507 16-10-2008 05:37:06 13.2 C 9.42 g/m*3 13.2 C 0 km/h
1508 16-10-2008 05:42:06 13.2 C 9.53 g/m*3 13.2 C 0 km/h
1509 16-10-2008 05:47:07 13.2 C 9.53 g/m*3 13.2 C 0 km/h
1510 16-10-2008 05:52:07 13.2 C 9.53 g/m*3 13.2 C 0 km/h
1511 16-10-2008 05:57:07 13.1 C 9.47 g/m*3 13.1 C 0 km/h
1512 16-10-2008 06:02:07 13.1 C 9.47 g/m*3 13.1 C 0 km/h
1513 16-10-2008 06:07:07 13.2 C 9.64 g/m*3 13.2 C 0 km/h
1514 16-10-2008 06:12:07 13.2 C 9.64 g/m*3 13.2 C 0 km/h
1515 16-10-2008 06:17:07 13.2 C 9.53 g/m*3 13.2 C 0 km/h
1516 16-10-2008 06:22:07 13.2 C 9.53 g/m*3 13.2 C 0 km/h
1517 16-10-2008 06:27:07 13.1 C 9.47 g/m*3 13.1 C 0 km/h
1518 16-10-2008 06:32:07 13.1 C 9.36 g/m*3 13.1 C 0 km/h
1519 16-10-2008 06:37:07 13.1 C 9.36 g/m*3 13.1 C 0 km/h
1520 16-10-2008 06:42:07 13.1 C 9.24 g/m*3 13.1 C 0 km/h
1521 16-10-2008 06:47:07 13.2 C 9.07 g/m*3 13.2 C 0 km/h
1522 16-10-2008 06:52:07 13.2 C 8.96 g/m*3 13.2 C 0 km/h
1523 16-10-2008 06:57:07 13.2 C 8.73 g/m*3 13.2 C 0 km/h
1524 16-10-2008 07:02:02 13.2 C 8.61 g/m*3 13.2 C 0 km/h
1525 16-10-2008 07:07:02 13.2 C 8.5 g/m*3 13.2 C 0 km/h
Sensor: Nr:Datum:Temp:Abs-Feuchte:Windchill:Wind:
Aussen-T/F 1526 16-10-2008 07:12:02 13.3 C 8.32 g/m*3 13.3 C 0 km/h
1527 16-10-2008 07:17:01 13.3 C 8.2 g/m*3 13.3 C 0 km/h
1528 16-10-2008 07:22:01 13.3 C 8.2 g/m*3 13.3 C 0 km/h
1529 16-10-2008 07:27:01 13.3 C 8.09 g/m*3 13.3 C 0 km/h
1530 16-10-2008 07:32:02 13.2 C 7.92 g/m*3 13.2 C 0 km/h
1531 16-10-2008 07:37:02 13.1 C 7.87 g/m*3 13.1 C 0 km/h
1532 16-10-2008 07:42:02 13.1 C 7.99 g/m*3 13.1 C 0 km/h
1533 16-10-2008 07:47:02 13 C 7.94 g/m*3 13 C 0 km/h
1534 16-10-2008 07:52:02 13 C 8.05 g/m*3 13 C 0 km/h
1535 16-10-2008 07:57:02 13 C 8.05 g/m*3 13 C 0 km/h
1536 16-10-2008 08:02:02 12.9 C 8.11 g/m*3 12.9 C 0 km/h
1537 16-10-2008 08:07:02 12.9 C 8.11 g/m*3 12.9 C 0 km/h
1538 16-10-2008 08:12:02 12.9 C 8.11 g/m*3 12.9 C 0 km/h
1539 16-10-2008 08:17:02 12.9 C 8.11 g/m*3 12.9 C 0 km/h
1540 16-10-2008 08:22:02 13 C 8.17 g/m*3 13 C 0 km/h
1541 16-10-2008 08:27:02 12.9 C 8.23 g/m*3 12.9 C 0 km/h
1542 16-10-2008 08:32:02 12.9 C 8.23 g/m*3 12.9 C 0 km/h
1543 16-10-2008 08:37:02 13 C 8.17 g/m*3 13 C 0 km/h
1544 16-10-2008 08:42:02 13 C 8.17 g/m*3 13 C 0 km/h
1545 16-10-2008 08:47:02 13 C 8.17 g/m*3 13 C 0 km/h
1546 16-10-2008 08:52:02 13 C 8.05 g/m*3 13 C 0 km/h
1547 16-10-2008 08:57:02 13 C 8.05 g/m*3 13 C 0 km/h
1548 16-10-2008 09:02:03 13.1 C 8.1 g/m*3 13.1 C 0 km/h
1549 16-10-2008 09:07:03 13 C 8.17 g/m*3 13 C 0 km/h
1550 16-10-2008 09:12:03 13 C 8.05 g/m*3 13 C 0 km/h
Sensor: Nr:Datum:Temp:Abs-Feuchte:Windchill:Wind:
Aussen-T/F 1551 16-10-2008 09:17:02 13.1 C 8.1 g/m*3 13.1 C 0 km/h
1552 16-10-2008 09:22:02 13.1 C 8.1 g/m*3 13.1 C 0 km/h
1553 16-10-2008 09:27:02 13.1 C 8.1 g/m*3 13.1 C 0 km/h
1554 16-10-2008 09:32:03 13 C 8.05 g/m*3 13 C 0 km/h
1555 16-10-2008 09:37:03 13 C 8.05 g/m*3 13 C 0 km/h
1556 16-10-2008 09:42:03 13 C 8.17 g/m*3 13 C 0 km/h
1557 16-10-2008 09:47:02 13 C 8.17 g/m*3 13 C 0 km/h
1558 16-10-2008 09:52:02 13 C 8.17 g/m*3 13 C 0 km/h
1559 16-10-2008 09:57:02 13 C 8.17 g/m*3 13 C 0 km/h
1560 16-10-2008 10:02:02 12.7 C 8.24 g/m*3 12.7 C 0 km/h
1561 16-10-2008 10:07:02 12.6 C 8.41 g/m*3 12.6 C 0 km/h
1562 16-10-2008 10:12:02 12.3 C 8.47 g/m*3 12.3 C 0 km/h
1563 16-10-2008 10:17:02 12.2 C 8.63 g/m*3 12.2 C 0 km/h
1564 16-10-2008 10:22:02 12.2 C 8.74 g/m*3 12.2 C 0 km/h
1565 16-10-2008 10:27:02 12.1 C 8.79 g/m*3 12.1 C 0 km/h
1566 16-10-2008 10:32:02 12.1 C 8.9 g/m*3 12.1 C 0 km/h
1567 16-10-2008 10:37:02 12 C 8.85 g/m*3 12 C 0 km/h
1568 16-10-2008 10:42:03 12 C 8.85 g/m*3 12 C 0 km/h
1569 16-10-2008 10:47:01 11.9 C 8.9 g/m*3 11.9 C 0 km/h
1570 16-10-2008 10:52:01 12 C 8.85 g/m*3 12 C 0 km/h
1571 16-10-2008 10:57:01 12 C 8.85 g/m*3 12 C 0 km/h
1572 16-10-2008 11:02:02 12.1 C 8.9 g/m*3 12.1 C 0 km/h
1573 16-10-2008 11:07:02 12.1 C 8.9 g/m*3 12.1 C 0 km/h
1574 16-10-2008 11:12:02 12.1 C 9.01 g/m*3 12.1 C 0 km/h
1575 16-10-2008 11:17:02 12.1 C 9.01 g/m*3 12.1 C 0 km/h
Sensor: Nr:Datum:Temp:Abs-Feuchte:Windchill:Wind:
Aussen-T/F 1576 16-10-2008 11:22:03 12.1 C 9.12 g/m*3 12.1 C 0 km/h
1577 16-10-2008 11:27:03 12 C 9.06 g/m*3 12 C 0 km/h
1578 16-10-2008 11:32:01 11.9 C 9.11 g/m*3 11.9 C 0 km/h
1579 16-10-2008 11:37:01 12 C 9.17 g/m*3 12 C 0 km/h
1580 16-10-2008 11:42:01 11.8 C 9.16 g/m*3 11.8 C 0 km/h
1581 16-10-2008 11:47:01 11.9 C 9.32 g/m*3 11.9 C 0 km/h
1582 16-10-2008 11:52:01 12.1 C 9.33 g/m*3 12.1 C 0 km/h
1583 16-10-2008 11:57:01 12.1 C 9.33 g/m*3 12.1 C 0 km/h
1584 16-10-2008 12:02:02 12.1 C 9.33 g/m*3 12.1 C 0 km/h
1585 16-10-2008 12:07:02 12.1 C 9.33 g/m*3 12.1 C 0 km/h
1586 16-10-2008 12:12:03 12 C 9.27 g/m*3 12 C 0 km/h
1587 16-10-2008 12:17:01 12 C 9.27 g/m*3 12 C 0 km/h
1588 16-10-2008 12:22:01 12 C 9.27 g/m*3 12 C 0 km/h
1589 16-10-2008 12:27:01 12.2 C 9.39 g/m*3 12.2 C 0 km/h
1590 16-10-2008 12:32:02 12.3 C 9.45 g/m*3 12.3 C 0 km/h
1591 16-10-2008 12:37:02 12.3 C 9.45 g/m*3 12.3 C 0 km/h
1592 16-10-2008 12:42:02 12.4 C 9.51 g/m*3 12.4 C 0 km/h
1593 16-10-2008 12:47:02 12.6 C 9.62 g/m*3 12.6 C 0 km/h
1594 16-10-2008 12:52:02 12.5 C 9.57 g/m*3 12.5 C 0 km/h
1595 16-10-2008 12:57:03 12.4 C 9.51 g/m*3 12.4 C 0 km/h
1596 16-10-2008 13:02:02 12.3 C 9.34 g/m*3 12.3 C 0 km/h
1597 16-10-2008 13:07:02 12.3 C 9.34 g/m*3 12.3 C 0 km/h
1598 16-10-2008 13:12:02 12.3 C 9.34 g/m*3 12.3 C 0 km/h
1599 16-10-2008 13:17:02 12.3 C 9.34 g/m*3 12.3 C 0 km/h
1600 16-10-2008 13:22:02 12.3 C 9.34 g/m*3 12.3 C 0 km/h
Sensor: Nr:Datum:Temp:Abs-Feuchte:Windchill:Wind:
Aussen-T/F 1601 16-10-2008 13:27:02 12.3 C 9.45 g/m*3 12.3 C 0 km/h
1602 16-10-2008 13:32:02 12.1 C 9.33 g/m*3 12.1 C 0 km/h
1603 16-10-2008 13:37:02 11.9 C 9.21 g/m*3 11.9 C 0 km/h
1604 16-10-2008 13:42:02 11.9 C 9.21 g/m*3 11.9 C 0 km/h
1605 16-10-2008 13:47:01 11.8 C 9.16 g/m*3 11.8 C 0 km/h
1606 16-10-2008 13:52:01 11.8 C 9.16 g/m*3 11.8 C 0 km/h
1607 16-10-2008 13:57:01 11.8 C 9.16 g/m*3 11.8 C 0 km/h
1608 16-10-2008 14:02:02 11.8 C 9.16 g/m*3 11.8 C 0 km/h
1609 16-10-2008 14:07:02 11.7 C 9.2 g/m*3 11.7 C 0 km/h
1610 16-10-2008 14:12:02 11.6 C 9.15 g/m*3 11.6 C 0 km/h
1611 16-10-2008 14:17:01 11.5 C 9.09 g/m*3 11.5 C 0 km/h
1612 16-10-2008 14:22:01 11.4 C 9.14 g/m*3 11.4 C 0 km/h
1613 16-10-2008 14:27:01 11.4 C 9.14 g/m*3 11.4 C 0 km/h
1614 16-10-2008 14:32:02 11.4 C 9.24 g/m*3 11.4 C 0 km/h
1615 16-10-2008 14:37:02 10.4 C 8.58 g/m*3 10.4 C 0 km/h
1616 16-10-2008 14:42:02 10.1 C 8.32 g/m*3 10.1 C 0 km/h
1617 16-10-2008 14:47:03 10 C 8.36 g/m*3 10 C 0 km/h
1618 16-10-2008 14:52:03 9.9 C 8.4 g/m*3 9.9 C 0 km/h
1619 16-10-2008 14:57:03 9.9 C 8.5 g/m*3 9.9 C 0 km/h
1620 16-10-2008 15:02:02 9.8 C 8.44 g/m*3 9.8 C 0 km/h
1621 16-10-2008 15:07:02 9.7 C 8.39 g/m*3 9.7 C 0 km/h
1622 16-10-2008 15:12:02 9.7 C 8.39 g/m*3 9.7 C 0 km/h
1623 16-10-2008 15:17:02 9.6 C 8.34 g/m*3 9.6 C 0 km/h
1624 16-10-2008 15:22:02 9.8 C 8.54 g/m*3 9.8 C 0 km/h
1625 16-10-2008 15:27:02 9.8 C 8.54 g/m*3 9.8 C 0 km/h
Sensor: Nr:Datum:Temp:Abs-Feuchte:Windchill:Wind:
Aussen-T/F 1626 16-10-2008 15:32:02 9.6 C 8.43 g/m*3 9.6 C 0 km/h
1627 16-10-2008 15:37:02 9.6 C 8.43 g/m*3 9.6 C 0 km/h
1628 16-10-2008 15:42:03 9.6 C 8.43 g/m*3 9.6 C 0 km/h
1629 16-10-2008 15:47:02 9.6 C 8.52 g/m*3 9.6 C 0 km/h
1630 16-10-2008 15:52:02 9.6 C 8.52 g/m*3 9.6 C 0 km/h
1631 16-10-2008 15:57:02 9.5 C 8.47 g/m*3 9.5 C 0 km/h
1632 16-10-2008 16:02:02 9.4 C 8.41 g/m*3 9.4 C 0 km/h
1633 16-10-2008 16:07:02 9.4 C 8.41 g/m*3 9.4 C 0 km/h
1634 16-10-2008 16:12:02 9.5 C 8.47 g/m*3 9.5 C 0 km/h
1635 16-10-2008 16:17:02 9.5 C 8.47 g/m*3 9.5 C 0 km/h
1636 16-10-2008 16:22:02 9.5 C 8.47 g/m*3 9.5 C 0 km/h
1637 16-10-2008 16:27:03 9.4 C 8.41 g/m*3 9.4 C 0 km/h
1638 16-10-2008 16:32:01 9.4 C 8.41 g/m*3 9.4 C 0 km/h
1639 16-10-2008 16:37:01 9.5 C 8.47 g/m*3 9.5 C 0 km/h
1640 16-10-2008 16:42:01 9.6 C 8.43 g/m*3 9.6 C 0 km/h
1641 16-10-2008 16:47:02 9.8 C 8.54 g/m*3 9.8 C 0 km/h
1642 16-10-2008 16:52:02 9.6 C 8.24 g/m*3 9.6 C 0 km/h
1643 16-10-2008 16:57:02 9.6 C 8.24 g/m*3 9.6 C 0 km/h
1644 16-10-2008 17:02:02 9.6 C 8.15 g/m*3 9.6 C 0 km/h
1645 16-10-2008 17:07:02 9.8 C 8.16 g/m*3 9.8 C 0 km/h
1646 16-10-2008 17:12:02 9.6 C 8.06 g/m*3 9.6 C 0 km/h
1647 16-10-2008 17:17:02 9.7 C 8.11 g/m*3 9.7 C 0 km/h
1648 16-10-2008 17:22:03 9.8 C 8.07 g/m*3 9.8 C 0 km/h
1649 16-10-2008 17:27:03 9.8 C 8.07 g/m*3 9.8 C 0 km/h
1650 16-10-2008 17:32:01 9.9 C 8.12 g/m*3 9.9 C 0 km/h
Sensor: Nr:Datum:Temp:Abs-Feuchte:Windchill:Wind:
Aussen-T/F 1651 16-10-2008 17:37:01 10.2 C 8.09 g/m*3 10.2 C 0 km/h
1652 16-10-2008 17:42:01 10.4 C 8.1 g/m*3 10.4 C 0 km/h
1653 16-10-2008 17:47:02 10.4 C 8.1 g/m*3 10.4 C 0 km/h
1654 16-10-2008 17:52:02 10.8 C 8.01 g/m*3 10.8 C 0 km/h
1655 16-10-2008 17:57:02 10.7 C 7.76 g/m*3 10.7 C 0 km/h
1656 16-10-2008 18:02:02 10.5 C 7.66 g/m*3 10.5 C 0 km/h
1657 16-10-2008 18:07:02 10.3 C 7.47 g/m*3 10.3 C 0 km/h
1658 16-10-2008 18:12:02 10 C 7.42 g/m*3 10 C 0 km/h
1659 16-10-2008 18:17:02 9.9 C 7.47 g/m*3 9.9 C 0 km/h
1660 16-10-2008 18:22:02 9.8 C 7.42 g/m*3 9.8 C 0 km/h
1661 16-10-2008 18:27:02 9.8 C 7.42 g/m*3 9.8 C 0 km/h
1662 16-10-2008 18:32:02 9.8 C 7.42 g/m*3 9.8 C 0 km/h
1663 16-10-2008 18:37:02 9.8 C 7.42 g/m*3 9.8 C 0 km/h
1664 16-10-2008 18:42:02 9.7 C 7.56 g/m*3 9.7 C 0 km/h
1665 16-10-2008 18:47:02 9.7 C 7.56 g/m*3 9.7 C 0 km/h
1666 16-10-2008 18:52:02 9.7 C 7.56 g/m*3 9.7 C 0 km/h
1667 16-10-2008 18:57:02 9.4 C 7.51 g/m*3 9.4 C 0 km/h
1668 16-10-2008 19:02:02 9.2 C 7.5 g/m*3 9.2 C 0 km/h
1669 16-10-2008 19:07:03 9.1 C 7.45 g/m*3 9.1 C 0 km/h
1670 16-10-2008 19:12:03 9 C 7.49 g/m*3 9 C 0 km/h
1671 16-10-2008 19:17:02 9 C 7.58 g/m*3 9 C 0 km/h
1672 16-10-2008 19:22:02 8.8 C 7.57 g/m*3 8.8 C 0 km/h
1673 16-10-2008 19:27:03 8.7 C 7.61 g/m*3 8.7 C 0 km/h
1674 16-10-2008 19:32:02 8.6 C 7.56 g/m*3 8.6 C 0 km/h
1675 16-10-2008 19:37:02 8.6 C 7.48 g/m*3 8.6 C 0 km/h
Sensor: Nr:Datum:Temp:Abs-Feuchte:Windchill:Wind:
Aussen-T/F 1676 16-10-2008 19:42:02 8.5 C 7.43 g/m*3 8.5 C 0 km/h
1677 16-10-2008 19:47:03 8.5 C 7.43 g/m*3 8.5 C 0 km/h
1678 16-10-2008 19:52:03 8.5 C 7.43 g/m*3 8.5 C 0 km/h
1679 16-10-2008 19:57:03 8.5 C 7.43 g/m*3 8.5 C 0 km/h
1680 16-10-2008 20:02:02 8.5 C 7.34 g/m*3 8.5 C 0 km/h
1681 16-10-2008 20:07:02 8.5 C 7.17 g/m*3 8.5 C 0 km/h
1682 16-10-2008 20:12:02 8.4 C 7.13 g/m*3 8.4 C 0 km/h
1683 16-10-2008 20:17:02 8.3 C 7 g/m*3 8.3 C 0 km/h
1684 16-10-2008 20:22:03 8.3 C 6.91 g/m*3 8.3 C 0 km/h
1685 16-10-2008 20:27:03 8.3 C 6.83 g/m*3 8.3 C 0 km/h
1686 16-10-2008 20:32:02 8.4 C 6.79 g/m*3 8.4 C 0 km/h
1687 16-10-2008 20:37:02 8.4 C 6.7 g/m*3 8.4 C 0 km/h
1688 16-10-2008 20:42:02 8.5 C 6.74 g/m*3 8.5 C 0 km/h
1689 16-10-2008 20:47:02 8.5 C 6.66 g/m*3 8.5 C 0 km/h
1690 16-10-2008 20:52:02 8.5 C 6.66 g/m*3 8.5 C 0 km/h
1691 16-10-2008 20:57:02 8.5 C 6.74 g/m*3 8.5 C 0 km/h
1692 16-10-2008 21:02:02 8.5 C 6.66 g/m*3 8.5 C 0 km/h
1693 16-10-2008 21:07:02 8.4 C 6.62 g/m*3 8.4 C 0 km/h
1694 16-10-2008 21:12:02 8.4 C 6.62 g/m*3 8.4 C 0 km/h
1695 16-10-2008 21:17:02 8.5 C 6.74 g/m*3 8.5 C 0 km/h
1696 16-10-2008 21:22:03 8.5 C 6.66 g/m*3 8.5 C 0 km/h
1697 16-10-2008 21:27:03 8.5 C 6.66 g/m*3 8.5 C 0 km/h
1698 16-10-2008 21:32:02 8.3 C 6.66 g/m*3 8.3 C 0 km/h
1699 16-10-2008 21:37:02 8.2 C 6.62 g/m*3 8.2 C 0 km/h
1700 16-10-2008 21:42:02 8 C 6.61 g/m*3 8 C 0 km/h
Sensor: Nr:Datum:Temp:Abs-Feuchte:Windchill:Wind:
Aussen-T/F 1701 16-10-2008 21:47:03 8.1 C 6.66 g/m*3 8.1 C 0 km/h
1702 16-10-2008 21:52:03 8.1 C 6.66 g/m*3 8.1 C 0 km/h
1703 16-10-2008 21:57:03 8 C 6.53 g/m*3 8 C 0 km/h
1704 16-10-2008 22:02:03 7.9 C 6.65 g/m*3 7.9 C 0 km/h
1705 16-10-2008 22:07:03 7.9 C 6.65 g/m*3 7.9 C 0 km/h
1706 16-10-2008 22:12:03 7.8 C 6.61 g/m*3 7.8 C 0 km/h
1707 16-10-2008 22:17:02 7.7 C 6.65 g/m*3 7.7 C 0 km/h
1708 16-10-2008 22:22:02 7.7 C 6.65 g/m*3 7.7 C 0 km/h
1709 16-10-2008 22:27:02 7.7 C 6.65 g/m*3 7.7 C 0 km/h
1710 16-10-2008 22:32:03 7.7 C 6.65 g/m*3 7.7 C 0 km/h
1711 16-10-2008 22:37:03 7.6 C 6.53 g/m*3 7.6 C 0 km/h
1712 16-10-2008 22:42:03 7.6 C 6.61 g/m*3 7.6 C 0 km/h
1713 16-10-2008 22:47:02 7.5 C 6.56 g/m*3 7.5 C 0 km/h
1714 16-10-2008 22:52:02 7.4 C 6.52 g/m*3 7.4 C 0 km/h
1715 16-10-2008 22:57:02 7.4 C 6.52 g/m*3 7.4 C 0 km/h
1716 16-10-2008 23:02:02 7.3 C 6.56 g/m*3 7.3 C 0 km/h
1717 16-10-2008 23:07:02 7.3 C 6.56 g/m*3 7.3 C 0 km/h
1718 16-10-2008 23:12:02 7.3 C 6.56 g/m*3 7.3 C 0 km/h
1719 16-10-2008 23:17:03 7.1 C 6.55 g/m*3 7.1 C 0 km/h
1720 16-10-2008 23:22:03 7 C 6.43 g/m*3 7 C 0 km/h
1721 16-10-2008 23:27:03 6.9 C 6.54 g/m*3 6.9 C 0 km/h
1722 16-10-2008 23:33:26 6.9 C 6.54 g/m*3 6.9 C 0 km/h
1723 16-10-2008 23:38:26 6.8 C 6.5 g/m*3 6.8 C 0 km/h
1724 16-10-2008 23:43:26 6.8 C 6.5 g/m*3 6.8 C 0 km/h
1725 16-10-2008 23:48:26 6.8 C 6.5 g/m*3 6.8 C 0 km/h
Sensor: Nr:Datum:Temp:Abs-Feuchte:Windchill:Wind:
Aussen-T/F 1726 16-10-2008 23:53:26 6.8 C 6.5 g/m*3 6.8 C 0 km/h
1727 16-10-2008 23:58:26 6.8 C 6.5 g/m*3 6.8 C 0 km/h
1728 17-10-2008 00:03:26 6.8 C 6.5 g/m*3 6.8 C 0 km/h
1729 17-10-2008 00:08:26 6.8 C 6.42 g/m*3 6.8 C 0 km/h
1730 17-10-2008 00:13:26 6.8 C 6.42 g/m*3 6.8 C 0 km/h
1731 17-10-2008 00:18:26 7 C 6.35 g/m*3 7 C 0 km/h
1732 17-10-2008 00:23:26 6.9 C 6.31 g/m*3 6.9 C 0 km/h
1733 17-10-2008 00:28:26 6.9 C 6.31 g/m*3 6.9 C 0 km/h
1734 17-10-2008 00:33:26 6.8 C 6.19 g/m*3 6.8 C 0 km/h
1735 17-10-2008 00:38:26 6.9 C 6.24 g/m*3 6.9 C 0 km/h
1736 17-10-2008 00:43:26 6.8 C 6.19 g/m*3 6.8 C 0 km/h
1737 17-10-2008 00:48:26 6.8 C 6.19 g/m*3 6.8 C 0 km/h
1738 17-10-2008 00:53:26 6.7 C 6.15 g/m*3 6.7 C 0 km/h
1739 17-10-2008 00:58:26 6.7 C 6.15 g/m*3 6.7 C 0 km/h
1740 17-10-2008 01:03:26 6.7 C 6.23 g/m*3 6.7 C 0 km/h
1741 17-10-2008 01:08:27 6.6 C 6.19 g/m*3 6.6 C 0 km/h
1742 17-10-2008 01:13:27 6.6 C 6.19 g/m*3 6.6 C 0 km/h
1743 17-10-2008 01:18:27 6.6 C 6.19 g/m*3 6.6 C 0 km/h
1744 17-10-2008 01:23:27 6.6 C 6.19 g/m*3 6.6 C 0 km/h
1745 17-10-2008 01:28:27 6.7 C 6.23 g/m*3 6.7 C 0 km/h
1746 17-10-2008 01:33:27 6.6 C 6.19 g/m*3 6.6 C 0 km/h
1747 17-10-2008 01:38:27 6.5 C 6.15 g/m*3 6.5 C 0 km/h
1748 17-10-2008 01:43:27 6.5 C 6.15 g/m*3 6.5 C 0 km/h
1749 17-10-2008 01:48:27 6.5 C 6.15 g/m*3 6.5 C 0 km/h
1750 17-10-2008 01:53:27 6.4 C 6.18 g/m*3 6.4 C 0 km/h
Sensor: Nr:Datum:Temp:Abs-Feuchte:Windchill:Wind:
Aussen-T/F 1751 17-10-2008 01:58:27 6.4 C 6.18 g/m*3 6.4 C 0 km/h
1752 17-10-2008 02:03:27 6.4 C 6.18 g/m*3 6.4 C 0 km/h
1753 17-10-2008 02:08:27 6.3 C 6.14 g/m*3 6.3 C 0 km/h
1754 17-10-2008 02:13:27 6.3 C 6.14 g/m*3 6.3 C 0 km/h
1755 17-10-2008 02:18:27 6.2 C 6.18 g/m*3 6.2 C 0 km/h
1756 17-10-2008 02:23:27 6.2 C 6.18 g/m*3 6.2 C 0 km/h
1757 17-10-2008 02:28:27 6.2 C 6.18 g/m*3 6.2 C 0 km/h
1758 17-10-2008 02:33:27 6.1 C 6.14 g/m*3 6.1 C 0 km/h
1759 17-10-2008 02:38:27 6.1 C 6.21 g/m*3 6.1 C 0 km/h
1760 17-10-2008 02:43:27 6.1 C 6.21 g/m*3 6.1 C 0 km/h
1761 17-10-2008 02:48:28 6.1 C 6.21 g/m*3 6.1 C 0 km/h
1762 17-10-2008 02:53:28 6 C 6.17 g/m*3 6 C 0 km/h
1763 17-10-2008 02:58:28 6 C 6.17 g/m*3 6 C 0 km/h
1764 17-10-2008 03:03:28 6 C 6.17 g/m*3 6 C 0 km/h
1765 17-10-2008 03:08:28 6 C 6.17 g/m*3 6 C 0 km/h
1766 17-10-2008 03:13:28 6 C 6.17 g/m*3 6 C 0 km/h
1767 17-10-2008 03:18:28 5.9 C 6.2 g/m*3 5.9 C 0 km/h
1768 17-10-2008 03:23:28 5.9 C 6.2 g/m*3 5.9 C 0 km/h
1769 17-10-2008 03:28:28 5.9 C 6.2 g/m*3 5.9 C 0 km/h
1770 17-10-2008 03:33:28 5.9 C 6.2 g/m*3 5.9 C 0 km/h
1771 17-10-2008 03:38:28 5.8 C 6.16 g/m*3 5.8 C 0 km/h
1772 17-10-2008 03:43:28 5.7 C 6.12 g/m*3 5.7 C 0 km/h
1773 17-10-2008 03:48:28 5.6 C 6.15 g/m*3 5.6 C 0 km/h
1774 17-10-2008 03:53:28 5.7 C 6.19 g/m*3 5.7 C 0 km/h
1775 17-10-2008 03:58:28 5.7 C 6.19 g/m*3 5.7 C 0 km/h
Sensor: Nr:Datum:Temp:Abs-Feuchte:Windchill:Wind:
Aussen-T/F 1776 17-10-2008 04:03:28 5.7 C 6.19 g/m*3 5.7 C 0 km/h
1777 17-10-2008 04:08:28 5.7 C 6.19 g/m*3 5.7 C 0 km/h
1778 17-10-2008 04:13:28 5.8 C 6.23 g/m*3 5.8 C 0 km/h
1779 17-10-2008 04:18:28 5.8 C 6.23 g/m*3 5.8 C 0 km/h
1780 17-10-2008 04:23:29 5.9 C 6.2 g/m*3 5.9 C 0 km/h
1781 17-10-2008 04:28:29 5.9 C 6.2 g/m*3 5.9 C 0 km/h
1782 17-10-2008 04:33:29 5.9 C 6.2 g/m*3 5.9 C 0 km/h
1783 17-10-2008 04:38:29 6 C 6.1 g/m*3 6 C 0 km/h
1784 17-10-2008 04:43:29 6 C 6.1 g/m*3 6 C 0 km/h
1785 17-10-2008 04:48:29 6 C 6.1 g/m*3 6 C 0 km/h
1786 17-10-2008 04:53:29 6 C 6.1 g/m*3 6 C 0 km/h
1787 17-10-2008 04:58:29 6 C 6.1 g/m*3 6 C 0 km/h
1788 17-10-2008 05:03:29 6 C 6.1 g/m*3 6 C 0 km/h
1789 17-10-2008 05:08:29 6.3 C 6.22 g/m*3 6.3 C 0 km/h
1790 17-10-2008 05:13:29 6.4 C 6.18 g/m*3 6.4 C 0 km/h
1791 17-10-2008 05:18:29 6.4 C 6.11 g/m*3 6.4 C 0 km/h
1792 17-10-2008 05:23:29 6.5 C 6.15 g/m*3 6.5 C 0 km/h
1793 17-10-2008 05:28:29 6.5 C 6.15 g/m*3 6.5 C 0 km/h
1794 17-10-2008 05:33:29 6.5 C 6.07 g/m*3 6.5 C 0 km/h
1795 17-10-2008 05:38:29 6.5 C 6.07 g/m*3 6.5 C 0 km/h
1796 17-10-2008 05:43:29 6.5 C 6.07 g/m*3 6.5 C 0 km/h
1797 17-10-2008 05:48:29 6.4 C 6.04 g/m*3 6.4 C 0 km/h
1798 17-10-2008 05:53:29 6.4 C 6.04 g/m*3 6.4 C 0 km/h
1799 17-10-2008 05:58:30 6.4 C 6.04 g/m*3 6.4 C 0 km/h
1800 17-10-2008 06:03:30 6.3 C 6 g/m*3 6.3 C 0 km/h
Sensor: Nr:Datum:Temp:Abs-Feuchte:Windchill:Wind:
Aussen-T/F 1801 17-10-2008 06:08:30 6.3 C 6 g/m*3 6.3 C 0 km/h
1802 17-10-2008 06:13:30 6.1 C 5.99 g/m*3 6.1 C 0 km/h
1803 17-10-2008 06:18:30 6 C 5.95 g/m*3 6 C 0 km/h
1804 17-10-2008 06:23:30 6 C 5.95 g/m*3 6 C 0 km/h
1805 17-10-2008 06:28:30 5.9 C 5.98 g/m*3 5.9 C 0 km/h
1806 17-10-2008 06:33:30 5.9 C 6.06 g/m*3 5.9 C 0 km/h
1807 17-10-2008 06:38:30 5.9 C 6.06 g/m*3 5.9 C 0 km/h
1808 17-10-2008 06:43:30 5.9 C 6.06 g/m*3 5.9 C 0 km/h
1809 17-10-2008 06:48:03 5.8 C 6.09 g/m*3 5.8 C 0 km/h
1810 17-10-2008 06:53:03 5.7 C 6.05 g/m*3 5.7 C 0 km/h
1811 17-10-2008 06:58:03 5.7 C 6.05 g/m*3 5.7 C 0 km/h
1812 17-10-2008 07:03:03 5.7 C 6.05 g/m*3 5.7 C 0 km/h
1813 17-10-2008 07:08:03 5.6 C 6.01 g/m*3 5.6 C 0 km/h
1814 17-10-2008 07:13:03 5.6 C 6.08 g/m*3 5.6 C 0 km/h
1815 17-10-2008 07:18:03 5.5 C 6.04 g/m*3 5.5 C 0 km/h
1816 17-10-2008 07:23:03 5.4 C 6 g/m*3 5.4 C 0 km/h
1817 17-10-2008 07:28:03 5.4 C 6 g/m*3 5.4 C 0 km/h
1818 17-10-2008 07:33:03 5.3 C 5.96 g/m*3 5.3 C 0 km/h
1819 17-10-2008 07:38:03 5.3 C 6.03 g/m*3 5.3 C 0 km/h
1820 17-10-2008 07:43:03 5.2 C 5.99 g/m*3 5.2 C 0 km/h
1821 17-10-2008 07:48:02 5.2 C 5.99 g/m*3 5.2 C 0 km/h
1822 17-10-2008 07:53:02 5.1 C 5.95 g/m*3 5.1 C 0 km/h
1823 17-10-2008 07:58:02 5.2 C 5.99 g/m*3 5.2 C 0 km/h
1824 17-10-2008 08:03:02 5.2 C 5.99 g/m*3 5.2 C 0 km/h
1825 17-10-2008 08:08:02 5.1 C 5.95 g/m*3 5.1 C 0 km/h
Sensor: Nr:Datum:Temp:Abs-Feuchte:Windchill:Wind:
Aussen-T/F 1826 17-10-2008 08:13:02 5.1 C 5.95 g/m*3 5.1 C 0 km/h
1827 17-10-2008 08:18:03 5.2 C 6.06 g/m*3 5.2 C 0 km/h
1828 17-10-2008 08:23:03 5.2 C 6.06 g/m*3 5.2 C 0 km/h
1829 17-10-2008 08:28:03 5.2 C 6.06 g/m*3 5.2 C 0 km/h
1830 17-10-2008 08:33:03 5.2 C 6.06 g/m*3 5.2 C 0 km/h
1831 17-10-2008 08:38:03 5.2 C 6.06 g/m*3 5.2 C 0 km/h
1832 17-10-2008 08:43:04 5.4 C 6.14 g/m*3 5.4 C 0 km/h
1833 17-10-2008 08:48:02 5.5 C 6.18 g/m*3 5.5 C 0 km/h
1834 17-10-2008 08:53:02 5.6 C 6.22 g/m*3 5.6 C 0 km/h
1835 17-10-2008 08:58:02 5.5 C 6.11 g/m*3 5.5 C 0 km/h
1836 17-10-2008 09:03:02 5.7 C 6.26 g/m*3 5.7 C 0 km/h
1837 17-10-2008 09:08:02 5.9 C 6.27 g/m*3 5.9 C 0 km/h
1838 17-10-2008 09:13:02 5.9 C 6.27 g/m*3 5.9 C 0 km/h
1839 17-10-2008 09:18:02 6.1 C 6.28 g/m*3 6.1 C 0 km/h
1840 17-10-2008 09:23:02 6.2 C 6.25 g/m*3 6.2 C 0 km/h
1841 17-10-2008 09:28:02 6.2 C 6.25 g/m*3 6.2 C 0 km/h
1842 17-10-2008 09:33:02 6.3 C 6.22 g/m*3 6.3 C 0 km/h
1843 17-10-2008 09:38:02 6.7 C 6.38 g/m*3 6.7 C 0 km/h
1844 17-10-2008 09:43:02 6.8 C 6.35 g/m*3 6.8 C 0 km/h
1845 17-10-2008 09:48:02 6.8 C 6.35 g/m*3 6.8 C 0 km/h
1846 17-10-2008 09:53:03 7 C 6.28 g/m*3 7 C 0 km/h
1847 17-10-2008 09:58:03 7 C 6.28 g/m*3 7 C 0 km/h
1848 17-10-2008 10:03:03 7.3 C 6.32 g/m*3 7.3 C 0 km/h
1849 17-10-2008 10:08:03 7.4 C 6.28 g/m*3 7.4 C 0 km/h
1850 17-10-2008 10:13:03 7.5 C 6.32 g/m*3 7.5 C 0 km/h
Sensor: Nr:Datum:Temp:Abs-Feuchte:Windchill:Wind:
Aussen-T/F 1851 17-10-2008 10:18:02 7.4 C 6.2 g/m*3 7.4 C 0 km/h
1852 17-10-2008 10:23:02 7.6 C 6.28 g/m*3 7.6 C 0 km/h
1853 17-10-2008 10:28:03 7.8 C 6.37 g/m*3 7.8 C 0 km/h
1854 17-10-2008 10:33:03 7.9 C 6.41 g/m*3 7.9 C 0 km/h
1855 17-10-2008 10:38:03 8.1 C 6.32 g/m*3 8.1 C 0 km/h
1856 17-10-2008 10:43:03 8.2 C 6.28 g/m*3 8.2 C 0 km/h
1857 17-10-2008 10:48:02 8.2 C 6.2 g/m*3 8.2 C 0 km/h
1858 17-10-2008 10:53:02 8.2 C 6.28 g/m*3 8.2 C 0 km/h
1859 17-10-2008 10:58:02 8.2 C 6.28 g/m*3 8.2 C 0 km/h
1860 17-10-2008 11:03:02 8.2 C 6.36 g/m*3 8.2 C 0 km/h
1861 17-10-2008 11:08:02 8.1 C 6.24 g/m*3 8.1 C 0 km/h
1862 17-10-2008 11:13:02 8.1 C 6.24 g/m*3 8.1 C 0 km/h
1863 17-10-2008 11:18:02 8 C 6.2 g/m*3 8 C 0 km/h
1864 17-10-2008 11:23:02 8.1 C 6.32 g/m*3 8.1 C 0 km/h
1865 17-10-2008 11:28:02 8.2 C 6.36 g/m*3 8.2 C 0 km/h
1866 17-10-2008 11:33:02 8.2 C 6.28 g/m*3 8.2 C 0 km/h
1867 17-10-2008 11:38:02 8.3 C 6.41 g/m*3 8.3 C 0 km/h
1868 17-10-2008 11:43:02 8.5 C 6.49 g/m*3 8.5 C 0 km/h
1869 17-10-2008 11:48:02 8.6 C 6.44 g/m*3 8.6 C 0 km/h
1870 17-10-2008 11:53:03 8.7 C 6.49 g/m*3 8.7 C 0 km/h
1871 17-10-2008 11:58:03 8.9 C 6.57 g/m*3 8.9 C 0 km/h
1872 17-10-2008 12:03:01 9 C 6.52 g/m*3 9 C 0 km/h
1873 17-10-2008 12:08:01 9.3 C 6.56 g/m*3 9.3 C 0 km/h
1874 17-10-2008 12:13:01 9.4 C 6.6 g/m*3 9.4 C 0 km/h
1875 17-10-2008 12:18:02 9.5 C 6.64 g/m*3 9.5 C 0 km/h
Sensor: Nr:Datum:Temp:Abs-Feuchte:Windchill:Wind:
Aussen-T/F 1876 17-10-2008 12:23:02 9.7 C 6.55 g/m*3 9.7 C 0 km/h
1877 17-10-2008 12:28:02 9.8 C 6.59 g/m*3 9.8 C 0 km/h
1878 17-10-2008 12:33:01 10.1 C 6.52 g/m*3 10.1 C 0 km/h
1879 17-10-2008 12:38:01 10.6 C 6.64 g/m*3 10.6 C 0 km/h
1880 17-10-2008 12:43:01 10.7 C 6.48 g/m*3 10.7 C 0 km/h
1881 17-10-2008 12:48:02 11.2 C 6.39 g/m*3 11.2 C 0 km/h
1882 17-10-2008 12:53:02 11.6 C 6.44 g/m*3 11.6 C 0 km/h
1883 17-10-2008 12:58:02 11.6 C 6.34 g/m*3 11.6 C 0 km/h
1884 17-10-2008 13:03:02 11.7 C 6.38 g/m*3 11.7 C 0 km/h
1885 17-10-2008 13:08:02 11.8 C 6.31 g/m*3 11.8 C 0 km/h
1886 17-10-2008 13:13:02 12 C 6.29 g/m*3 12 C 0 km/h
1887 17-10-2008 13:18:02 12 C 6.18 g/m*3 12 C 0 km/h
1888 17-10-2008 13:23:02 12.4 C 6.01 g/m*3 12.4 C 0 km/h
1889 17-10-2008 13:28:02 12.8 C 5.71 g/m*3 12.8 C 0 km/h
1890 17-10-2008 13:33:01 13 C 5.78 g/m*3 13 C 0 km/h
1891 17-10-2008 13:38:01 12.6 C 5.64 g/m*3 12.6 C 0 km/h
1892 17-10-2008 13:43:01 12.5 C 5.5 g/m*3 12.5 C 0 km/h
1893 17-10-2008 13:48:01 12.7 C 5.45 g/m*3 12.7 C 0 km/h
1894 17-10-2008 13:53:01 13 C 5.33 g/m*3 13 C 0 km/h
1895 17-10-2008 13:58:01 13 C 5.22 g/m*3 13 C 0 km/h
1896 17-10-2008 14:03:02 13 C 5.22 g/m*3 13 C 0 km/h
1897 17-10-2008 14:08:02 12.6 C 5.2 g/m*3 12.6 C 0 km/h
1898 17-10-2008 14:13:03 12.4 C 5.24 g/m*3 12.4 C 0 km/h
1899 17-10-2008 14:18:01 12.2 C 5.29 g/m*3 12.2 C 0 km/h
1900 17-10-2008 14:23:01 12.2 C 5.5 g/m*3 12.2 C 0 km/h
Sensor: Nr:Datum:Temp:Abs-Feuchte:Windchill:Wind:
Aussen-T/F 1901 17-10-2008 14:28:01 12.2 C 5.5 g/m*3 12.2 C 0 km/h
1902 17-10-2008 14:33:02 12.3 C 5.43 g/m*3 12.3 C 0 km/h
1903 17-10-2008 14:38:02 12.4 C 5.46 g/m*3 12.4 C 0 km/h
1904 17-10-2008 14:43:02 12.5 C 5.39 g/m*3 12.5 C 0 km/h
1905 17-10-2008 14:48:02 12.6 C 5.42 g/m*3 12.6 C 0 km/h
1906 17-10-2008 14:53:02 12.6 C 5.42 g/m*3 12.6 C 0 km/h
1907 17-10-2008 14:58:02 12.8 C 5.49 g/m*3 12.8 C 0 km/h
1908 17-10-2008 15:03:02 13 C 5.22 g/m*3 13 C 0 km/h
1909 17-10-2008 15:08:02 13.5 C 5.26 g/m*3 13.5 C 0 km/h
1910 17-10-2008 15:13:02 13.3 C 5.2 g/m*3 13.3 C 0 km/h
1911 17-10-2008 15:18:02 13.2 C 5.17 g/m*3 13.2 C 0 km/h
1912 17-10-2008 15:23:02 13.2 C 5.28 g/m*3 13.2 C 0 km/h
1913 17-10-2008 15:28:02 13.2 C 5.28 g/m*3 13.2 C 0 km/h
1914 17-10-2008 15:33:02 13.4 C 5.11 g/m*3 13.4 C 0 km/h
1915 17-10-2008 15:38:02 13.1 C 5.02 g/m*3 13.1 C 0 km/h
1916 17-10-2008 15:43:02 13.1 C 5.02 g/m*3 13.1 C 0 km/h
1917 17-10-2008 15:48:02 12.9 C 5.07 g/m*3 12.9 C 0 km/h
1918 17-10-2008 15:53:02 12.8 C 5.15 g/m*3 12.8 C 0 km/h
1919 17-10-2008 15:58:02 13 C 5.1 g/m*3 13 C 0 km/h
1920 17-10-2008 16:03:03 13 C 5.22 g/m*3 13 C 0 km/h
1921 17-10-2008 16:08:03 12.8 C 5.04 g/m*3 12.8 C 0 km/h
1922 17-10-2008 16:13:03 12.6 C 5.09 g/m*3 12.6 C 0 km/h
1923 17-10-2008 16:18:02 12.5 C 5.06 g/m*3 12.5 C 0 km/h
1924 17-10-2008 16:23:02 12.4 C 5.14 g/m*3 12.4 C 0 km/h
1925 17-10-2008 16:28:02 12.3 C 5.43 g/m*3 12.3 C 0 km/h
Sensor: Nr:Datum:Temp:Abs-Feuchte:Windchill:Wind:
Aussen-T/F 1926 17-10-2008 16:33:04 12.2 C 5.5 g/m*3 12.2 C 0 km/h
1927 17-10-2008 16:38:04 12.1 C 5.68 g/m*3 12.1 C 0 km/h
1928 17-10-2008 16:43:04 12.1 C 5.58 g/m*3 12.1 C 0 km/h
1929 17-10-2008 16:48:02 12.2 C 5.72 g/m*3 12.2 C 0 km/h
1930 17-10-2008 16:53:02 12.2 C 5.83 g/m*3 12.2 C 0 km/h
1931 17-10-2008 16:58:02 12 C 5.86 g/m*3 12 C 0 km/h
1932 17-10-2008 17:03:03 12.1 C 6.01 g/m*3 12.1 C 0 km/h
1933 17-10-2008 17:08:03 12.1 C 6.01 g/m*3 12.1 C 0 km/h
1934 17-10-2008 17:13:03 12 C 6.07 g/m*3 12 C 0 km/h
1935 17-10-2008 17:18:03 11.9 C 6.35 g/m*3 11.9 C 0 km/h
1936 17-10-2008 17:23:03 11.8 C 6.21 g/m*3 11.8 C 0 km/h
1937 17-10-2008 17:28:03 11.8 C 6.31 g/m*3 11.8 C 0 km/h
1938 17-10-2008 17:33:02 12.1 C 6.33 g/m*3 12.1 C 0 km/h
1939 17-10-2008 17:38:03 12 C 6.29 g/m*3 12 C 0 km/h
1940 17-10-2008 17:43:03 12.1 C 6.22 g/m*3 12.1 C 0 km/h
1941 17-10-2008 17:48:02 11.6 C 6.13 g/m*3 11.6 C 0 km/h
1942 17-10-2008 17:53:02 11.5 C 6.09 g/m*3 11.5 C 0 km/h
1943 17-10-2008 17:58:02 11.4 C 6.06 g/m*3 11.4 C 0 km/h
1944 17-10-2008 18:03:02 11.3 C 6.02 g/m*3 11.3 C 0 km/h
1945 17-10-2008 18:08:02 11 C 6.01 g/m*3 11 C 0 km/h
1946 17-10-2008 18:13:02 10.8 C 6.13 g/m*3 10.8 C 0 km/h
1947 17-10-2008 18:18:02 10.6 C 6.15 g/m*3 10.6 C 0 km/h
1948 17-10-2008 18:23:02 10.3 C 6.22 g/m*3 10.3 C 0 km/h
1949 17-10-2008 18:28:02 10.3 C 6.22 g/m*3 10.3 C 0 km/h
1950 17-10-2008 18:33:02 9.8 C 6.22 g/m*3 9.8 C 0 km/h
Sensor: Nr:Datum:Temp:Abs-Feuchte:Windchill:Wind:
Aussen-T/F 1951 17-10-2008 18:38:02 9.6 C 6.23 g/m*3 9.6 C 0 km/h
1952 17-10-2008 18:43:02 9.5 C 6.19 g/m*3 9.5 C 0 km/h
1953 17-10-2008 18:48:02 9.3 C 6.11 g/m*3 9.3 C 0 km/h
1954 17-10-2008 18:53:02 9.1 C 6.12 g/m*3 9.1 C 0 km/h
1955 17-10-2008 18:58:02 8.9 C 6.22 g/m*3 8.9 C 0 km/h
1956 17-10-2008 19:03:02 8.8 C 6.18 g/m*3 8.8 C 0 km/h
1957 17-10-2008 19:08:02 8.7 C 6.14 g/m*3 8.7 C 0 km/h
1958 17-10-2008 19:13:02 8.5 C 6.15 g/m*3 8.5 C 0 km/h
1959 17-10-2008 19:18:02 8.5 C 6.15 g/m*3 8.5 C 0 km/h
1960 17-10-2008 19:23:02 8.4 C 6.11 g/m*3 8.4 C 0 km/h
1961 17-10-2008 19:28:02 8.2 C 6.03 g/m*3 8.2 C 0 km/h
1962 17-10-2008 19:33:02 8.2 C 6.03 g/m*3 8.2 C 0 km/h
1963 17-10-2008 19:38:02 8.1 C 5.99 g/m*3 8.1 C 0 km/h
1964 17-10-2008 19:43:03 7.9 C 6.08 g/m*3 7.9 C 0 km/h
1965 17-10-2008 19:48:02 7.9 C 6.08 g/m*3 7.9 C 0 km/h
1966 17-10-2008 19:53:02 7.8 C 6.12 g/m*3 7.8 C 0 km/h
1967 17-10-2008 19:58:02 7.6 C 6.04 g/m*3 7.6 C 0 km/h
1968 17-10-2008 20:03:03 7.5 C 6.08 g/m*3 7.5 C 0 km/h
1969 17-10-2008 20:08:03 7.5 C 6.08 g/m*3 7.5 C 0 km/h
1970 17-10-2008 20:13:03 7.4 C 5.96 g/m*3 7.4 C 0 km/h
1971 17-10-2008 20:18:02 7.4 C 6.04 g/m*3 7.4 C 0 km/h
1972 17-10-2008 20:23:02 7.4 C 6.12 g/m*3 7.4 C 0 km/h
1973 17-10-2008 20:28:02 7.2 C 5.97 g/m*3 7.2 C 0 km/h
1974 17-10-2008 20:33:02 7.2 C 6.04 g/m*3 7.2 C 0 km/h
1975 17-10-2008 20:38:02 7.2 C 6.04 g/m*3 7.2 C 0 km/h
Sensor: Nr:Datum:Temp:Abs-Feuchte:Windchill:Wind:
Aussen-T/F 1976 17-10-2008 20:43:02 6.9 C 6 g/m*3 6.9 C 0 km/h
1977 17-10-2008 20:48:02 6.8 C 5.97 g/m*3 6.8 C 0 km/h
1978 17-10-2008 20:53:02 6.8 C 6.04 g/m*3 6.8 C 0 km/h
1979 17-10-2008 20:58:02 6.8 C 6.04 g/m*3 6.8 C 0 km/h
1980 17-10-2008 21:03:01 6.7 C 6 g/m*3 6.7 C 0 km/h
1981 17-10-2008 21:08:01 6.7 C 6 g/m*3 6.7 C 0 km/h
1982 17-10-2008 21:13:01 6.6 C 5.96 g/m*3 6.6 C 0 km/h
1983 17-10-2008 21:18:01 6.5 C 5.92 g/m*3 6.5 C 0 km/h
1984 17-10-2008 21:23:01 6.5 C 6 g/m*3 6.5 C 0 km/h
1985 17-10-2008 21:28:01 6.5 C 6.07 g/m*3 6.5 C 0 km/h
1986 17-10-2008 21:33:02 6.4 C 6.04 g/m*3 6.4 C 0 km/h
1987 17-10-2008 21:38:02 6.4 C 6.04 g/m*3 6.4 C 0 km/h
1988 17-10-2008 21:43:02 6.5 C 6.15 g/m*3 6.5 C 0 km/h
1989 17-10-2008 21:48:02 6.4 C 6.11 g/m*3 6.4 C 0 km/h
1990 17-10-2008 21:53:02 6.3 C 6.07 g/m*3 6.3 C 0 km/h
1991 17-10-2008 21:58:02 6.2 C 6.03 g/m*3 6.2 C 0 km/h
1992 17-10-2008 22:03:03 6.2 C 6.03 g/m*3 6.2 C 0 km/h
1993 17-10-2008 22:08:03 6 C 5.95 g/m*3 6 C 0 km/h
1994 17-10-2008 22:13:03 5.9 C 5.98 g/m*3 5.9 C 0 km/h
1995 17-10-2008 22:18:03 5.8 C 5.95 g/m*3 5.8 C 0 km/h
1996 17-10-2008 22:23:03 5.7 C 5.91 g/m*3 5.7 C 0 km/h
1997 17-10-2008 22:28:03 5.7 C 5.98 g/m*3 5.7 C 0 km/h
1998 17-10-2008 22:33:03 5.6 C 5.94 g/m*3 5.6 C 0 km/h
1999 17-10-2008 22:38:03 5.6 C 5.94 g/m*3 5.6 C 0 km/h
2000 17-10-2008 22:43:03 5.5 C 5.97 g/m*3 5.5 C 0 km/h
Sensor: Nr:Datum:Temp:Abs-Feuchte:Windchill:Wind:
Aussen-T/F 2001 17-10-2008 22:48:02 5.5 C 5.97 g/m*3 5.5 C 0 km/h
2002 17-10-2008 22:53:02 5.4 C 5.93 g/m*3 5.4 C 0 km/h
2003 17-10-2008 22:58:02 5.4 C 5.93 g/m*3 5.4 C 0 km/h
2004 17-10-2008 23:03:03 5.3 C 5.89 g/m*3 5.3 C 0 km/h
2005 17-10-2008 23:08:03 5.3 C 5.89 g/m*3 5.3 C 0 km/h
2006 17-10-2008 23:13:03 5.3 C 5.96 g/m*3 5.3 C 0 km/h
2007 17-10-2008 23:18:02 5.2 C 5.92 g/m*3 5.2 C 0 km/h
2008 17-10-2008 23:23:02 5.2 C 5.92 g/m*3 5.2 C 0 km/h
2009 17-10-2008 23:28:03 5.1 C 5.88 g/m*3 5.1 C 0 km/h
2010 17-10-2008 23:33:02 5 C 5.84 g/m*3 5 C 0 km/h
2011 17-10-2008 23:38:02 5 C 5.84 g/m*3 5 C 0 km/h
2012 17-10-2008 23:43:02 5.1 C 5.95 g/m*3 5.1 C 0 km/h
2013 17-10-2008 23:48:02 5 C 5.91 g/m*3 5 C 0 km/h
2014 17-10-2008 23:53:03 5 C 5.91 g/m*3 5 C 0 km/h
2015 17-10-2008 23:58:03 5 C 5.91 g/m*3 5 C 0 km/h
2016 18-10-2008 00:03:02 5 C 5.91 g/m*3 5 C 0 km/h
2017 18-10-2008 00:08:02 4.8 C 5.9 g/m*3 4.8 C 0 km/h
2018 18-10-2008 00:13:02 4.7 C 5.86 g/m*3 4.7 C 0 km/h
2019 18-10-2008 00:18:02 4.6 C 5.82 g/m*3 4.6 C 0 km/h
2020 18-10-2008 00:23:02 4.7 C 5.93 g/m*3 4.7 C 0 km/h
2021 18-10-2008 00:28:02 4.7 C 5.93 g/m*3 4.7 C 0 km/h
2022 18-10-2008 00:33:02 4.6 C 5.89 g/m*3 4.6 C 0 km/h
2023 18-10-2008 00:38:02 4.4 C 5.81 g/m*3 4.4 C 0 km/h
2024 18-10-2008 00:43:02 4.4 C 5.81 g/m*3 4.4 C 0 km/h
2025 18-10-2008 00:48:02 4.3 C 5.77 g/m*3 4.3 C 0 km/h
Sensor: Nr:Datum:Temp:Abs-Feuchte:Windchill:Wind:
Aussen-T/F 2026 18-10-2008 00:53:03 4.4 C 5.81 g/m*3 4.4 C 0 km/h
2027 18-10-2008 00:58:03 4.3 C 5.77 g/m*3 4.3 C 0 km/h
2028 18-10-2008 01:03:02 4.3 C 5.77 g/m*3 4.3 C 0 km/h
2029 18-10-2008 01:08:03 4.2 C 5.73 g/m*3 4.2 C 0 km/h
2030 18-10-2008 01:13:03 4.2 C 5.8 g/m*3 4.2 C 0 km/h
2031 18-10-2008 01:18:02 4.2 C 5.8 g/m*3 4.2 C 0 km/h
2032 18-10-2008 01:23:02 4.2 C 5.8 g/m*3 4.2 C 0 km/h
2033 18-10-2008 01:28:02 4.1 C 5.76 g/m*3 4.1 C 0 km/h
2034 18-10-2008 01:33:02 4 C 5.72 g/m*3 4 C 0 km/h
2035 18-10-2008 01:38:02 4 C 5.72 g/m*3 4 C 0 km/h
2036 18-10-2008 01:43:02 4 C 5.72 g/m*3 4 C 0 km/h
2037 18-10-2008 01:48:02 4 C 5.72 g/m*3 4 C 0 km/h
2038 18-10-2008 01:53:02 3.9 C 5.75 g/m*3 3.9 C 0 km/h
2039 18-10-2008 01:58:02 3.8 C 5.71 g/m*3 3.8 C 0 km/h
2040 18-10-2008 02:03:02 3.8 C 5.71 g/m*3 3.8 C 0 km/h
2041 18-10-2008 02:08:02 3.8 C 5.71 g/m*3 3.8 C 0 km/h
2042 18-10-2008 02:13:02 3.7 C 5.67 g/m*3 3.7 C 0 km/h
2043 18-10-2008 02:18:01 3.6 C 5.63 g/m*3 3.6 C 0 km/h
2044 18-10-2008 02:23:01 3.6 C 5.63 g/m*3 3.6 C 0 km/h
2045 18-10-2008 02:28:01 3.5 C 5.6 g/m*3 3.5 C 0 km/h
2046 18-10-2008 02:33:02 3.4 C 5.56 g/m*3 3.4 C 0 km/h
2047 18-10-2008 02:38:02 3.4 C 5.56 g/m*3 3.4 C 0 km/h
2048 18-10-2008 02:43:02 3.4 C 5.56 g/m*3 3.4 C 0 km/h
2049 18-10-2008 02:49:03 3.3 C 5.52 g/m*3 3.3 C 0 km/h
2050 18-10-2008 02:54:03 3.2 C 5.48 g/m*3 3.2 C 0 km/h
Sensor: Nr:Datum:Temp:Abs-Feuchte:Windchill:Wind:
Aussen-T/F 2051 18-10-2008 02:59:03 3.2 C 5.48 g/m*3 3.2 C 0 km/h
2052 18-10-2008 03:04:03 3.2 C 5.48 g/m*3 3.2 C 0 km/h
2053 18-10-2008 03:09:03 3.2 C 5.48 g/m*3 3.2 C 0 km/h
2054 18-10-2008 03:14:03 3.2 C 5.48 g/m*3 3.2 C 0 km/h
2055 18-10-2008 03:19:03 3.3 C 5.52 g/m*3 3.3 C 0 km/h
2056 18-10-2008 03:24:03 3.4 C 5.62 g/m*3 3.4 C 0 km/h
2057 18-10-2008 03:29:03 3.5 C 5.66 g/m*3 3.5 C 0 km/h
2058 18-10-2008 03:34:01 3.5 C 5.66 g/m*3 3.5 C 0 km/h
2059 18-10-2008 03:39:01 3.6 C 5.69 g/m*3 3.6 C 0 km/h
2060 18-10-2008 03:44:01 3.7 C 5.73 g/m*3 3.7 C 0 km/h
2061 18-10-2008 03:49:01 3.7 C 5.8 g/m*3 3.7 C 0 km/h
2062 18-10-2008 03:54:01 3.7 C 5.8 g/m*3 3.7 C 0 km/h
2063 18-10-2008 03:59:01 3.7 C 5.8 g/m*3 3.7 C 0 km/h
2064 18-10-2008 04:04:01 3.8 C 5.83 g/m*3 3.8 C 0 km/h
2065 18-10-2008 04:09:01 3.8 C 5.83 g/m*3 3.8 C 0 km/h
2066 18-10-2008 04:14:01 3.8 C 5.83 g/m*3 3.8 C 0 km/h
2067 18-10-2008 04:19:01 3.8 C 5.83 g/m*3 3.8 C 0 km/h
2068 18-10-2008 04:24:01 3.9 C 5.87 g/m*3 3.9 C 0 km/h
2069 18-10-2008 04:29:01 3.9 C 5.87 g/m*3 3.9 C 0 km/h
2070 18-10-2008 04:34:01 3.9 C 5.87 g/m*3 3.9 C 0 km/h
2071 18-10-2008 04:39:01 3.8 C 5.83 g/m*3 3.8 C 0 km/h
2072 18-10-2008 04:44:01 3.8 C 5.83 g/m*3 3.8 C 0 km/h
2073 18-10-2008 04:49:03 3.7 C 5.8 g/m*3 3.7 C 0 km/h
2074 18-10-2008 04:54:03 3.7 C 5.8 g/m*3 3.7 C 0 km/h
2075 18-10-2008 04:59:03 3.7 C 5.8 g/m*3 3.7 C 0 km/h
Sensor: Nr:Datum:Temp:Abs-Feuchte:Windchill:Wind:
Aussen-T/F 2076 18-10-2008 05:04:02 3.7 C 5.8 g/m*3 3.7 C 0 km/h
2077 18-10-2008 05:09:02 3.7 C 5.8 g/m*3 3.7 C 0 km/h
2078 18-10-2008 05:14:02 3.7 C 5.8 g/m*3 3.7 C 0 km/h
2079 18-10-2008 05:19:02 3.7 C 5.8 g/m*3 3.7 C 0 km/h
2080 18-10-2008 05:24:02 3.7 C 5.8 g/m*3 3.7 C 0 km/h
2081 18-10-2008 05:29:02 3.7 C 5.8 g/m*3 3.7 C 0 km/h
2082 18-10-2008 05:34:02 3.7 C 5.8 g/m*3 3.7 C 0 km/h
2083 18-10-2008 05:39:03 3.7 C 5.8 g/m*3 3.7 C 0 km/h
2084 18-10-2008 05:44:03 3.7 C 5.8 g/m*3 3.7 C 0 km/h
2085 18-10-2008 05:49:02 3.7 C 5.8 g/m*3 3.7 C 0 km/h
2086 18-10-2008 05:54:02 3.6 C 5.76 g/m*3 3.6 C 0 km/h
2087 18-10-2008 05:59:03 3.4 C 5.62 g/m*3 3.4 C 0 km/h
2088 18-10-2008 06:04:01 3.4 C 5.62 g/m*3 3.4 C 0 km/h
2089 18-10-2008 06:09:01 3.4 C 5.62 g/m*3 3.4 C 0 km/h
2090 18-10-2008 06:14:01 3.4 C 5.62 g/m*3 3.4 C 0 km/h
2091 18-10-2008 06:19:02 3.5 C 5.66 g/m*3 3.5 C 0 km/h
2092 18-10-2008 06:24:02 3.5 C 5.66 g/m*3 3.5 C 0 km/h
2093 18-10-2008 06:29:02 3.4 C 5.62 g/m*3 3.4 C 0 km/h
2094 18-10-2008 06:34:01 3.3 C 5.58 g/m*3 3.3 C 0 km/h
2095 18-10-2008 06:39:01 3.4 C 5.62 g/m*3 3.4 C 0 km/h
2096 18-10-2008 06:44:01 3.2 C 5.48 g/m*3 3.2 C 0 km/h
2097 18-10-2008 06:49:01 3.2 C 5.48 g/m*3 3.2 C 0 km/h
2098 18-10-2008 06:54:01 3.2 C 5.48 g/m*3 3.2 C 0 km/h
2099 18-10-2008 06:59:01 3.1 C 5.45 g/m*3 3.1 C 0 km/h
2100 18-10-2008 07:04:02 3 C 5.41 g/m*3 3 C 0 km/h
Sensor: Nr:Datum:Temp:Abs-Feuchte:Windchill:Wind:
Aussen-T/F 2101 18-10-2008 07:09:02 3 C 5.41 g/m*3 3 C 0 km/h
2102 18-10-2008 07:14:02 2.8 C 5.4 g/m*3 2.8 C 0 km/h
2103 18-10-2008 07:19:01 2.7 C 5.36 g/m*3 2.7 C 0 km/h
2104 18-10-2008 07:24:01 2.7 C 5.36 g/m*3 2.7 C 0 km/h
2105 18-10-2008 07:29:01 2.7 C 5.42 g/m*3 2.7 C 0 km/h
2106 18-10-2008 07:34:02 2.7 C 5.42 g/m*3 2.7 C 0 km/h
2107 18-10-2008 07:39:02 2.6 C 5.38 g/m*3 2.6 C 0 km/h
2108 18-10-2008 07:44:02 2.5 C 5.35 g/m*3 2.5 C 0 km/h
2109 18-10-2008 07:49:02 2.7 C 5.42 g/m*3 2.7 C 0 km/h
2110 18-10-2008 07:54:03 2.7 C 5.42 g/m*3 2.7 C 0 km/h
2111 18-10-2008 07:59:03 2.7 C 5.42 g/m*3 2.7 C 0 km/h
2112 18-10-2008 08:04:02 2.7 C 5.42 g/m*3 2.7 C 0 km/h
2113 18-10-2008 08:09:02 2.7 C 5.42 g/m*3 2.7 C 0 km/h
2114 18-10-2008 08:14:02 2.7 C 5.42 g/m*3 2.7 C 0 km/h
2115 18-10-2008 08:19:02 2.7 C 5.42 g/m*3 2.7 C 0 km/h
2116 18-10-2008 08:24:02 2.8 C 5.46 g/m*3 2.8 C 0 km/h
2117 18-10-2008 08:29:02 2.7 C 5.42 g/m*3 2.7 C 0 km/h
2118 18-10-2008 08:34:02 2.7 C 5.42 g/m*3 2.7 C 0 km/h
2119 18-10-2008 08:39:02 2.8 C 5.46 g/m*3 2.8 C 0 km/h
2120 18-10-2008 08:44:02 2.8 C 5.46 g/m*3 2.8 C 0 km/h
2121 18-10-2008 08:49:02 3 C 5.47 g/m*3 3 C 0 km/h
2122 18-10-2008 08:54:02 3 C 5.47 g/m*3 3 C 0 km/h
2123 18-10-2008 08:59:02 3 C 5.47 g/m*3 3 C 0 km/h
2124 18-10-2008 09:04:02 3 C 5.47 g/m*3 3 C 0 km/h
2125 18-10-2008 09:09:02 2.9 C 5.43 g/m*3 2.9 C 0 km/h
Sensor: Nr:Datum:Temp:Abs-Feuchte:Windchill:Wind:
Aussen-T/F 2126 18-10-2008 09:14:02 2.8 C 5.4 g/m*3 2.8 C 0 km/h
2127 18-10-2008 09:19:02 2.9 C 5.43 g/m*3 2.9 C 0 km/h
2128 18-10-2008 09:24:02 3 C 5.41 g/m*3 3 C 0 km/h
2129 18-10-2008 09:29:02 3 C 5.41 g/m*3 3 C 0 km/h
2130 18-10-2008 09:34:02 3.1 C 5.45 g/m*3 3.1 C 0 km/h
2131 18-10-2008 09:39:02 3.1 C 5.45 g/m*3 3.1 C 0 km/h
2132 18-10-2008 09:44:02 3.2 C 5.54 g/m*3 3.2 C 0 km/h
2133 18-10-2008 09:49:02 3.3 C 5.58 g/m*3 3.3 C 0 km/h
2134 18-10-2008 09:54:02 3.3 C 5.58 g/m*3 3.3 C 0 km/h
2135 18-10-2008 09:59:02 3.4 C 5.62 g/m*3 3.4 C 0 km/h
2136 18-10-2008 10:04:02 3.4 C 5.62 g/m*3 3.4 C 0 km/h
2137 18-10-2008 10:09:03 3.5 C 5.66 g/m*3 3.5 C 0 km/h
2138 18-10-2008 10:14:03 3.5 C 5.66 g/m*3 3.5 C 0 km/h
2139 18-10-2008 10:19:02 3.6 C 5.69 g/m*3 3.6 C 0 km/h
2140 18-10-2008 10:24:02 3.7 C 5.73 g/m*3 3.7 C 0 km/h
2141 18-10-2008 10:29:02 3.7 C 5.67 g/m*3 3.7 C 0 km/h
2142 18-10-2008 10:34:01 3.7 C 5.67 g/m*3 3.7 C 0 km/h
2143 18-10-2008 10:39:01 3.8 C 5.71 g/m*3 3.8 C 0 km/h
2144 18-10-2008 10:44:01 3.9 C 5.75 g/m*3 3.9 C 0 km/h
2145 18-10-2008 10:49:02 4 C 5.72 g/m*3 4 C 0 km/h
2146 18-10-2008 10:54:02 4.2 C 5.8 g/m*3 4.2 C 0 km/h
2147 18-10-2008 10:59:02 4.3 C 5.84 g/m*3 4.3 C 0 km/h
2148 18-10-2008 11:04:02 4.4 C 5.81 g/m*3 4.4 C 0 km/h
2149 18-10-2008 11:09:02 4.4 C 5.81 g/m*3 4.4 C 0 km/h
2150 18-10-2008 11:14:02 4.5 C 5.78 g/m*3 4.5 C 0 km/h
Sensor: Nr:Datum:Temp:Abs-Feuchte:Windchill:Wind:
Aussen-T/F 2151 18-10-2008 11:19:02 4.7 C 5.86 g/m*3 4.7 C 0 km/h
2152 18-10-2008 11:24:02 4.7 C 5.8 g/m*3 4.7 C 0 km/h
2153 18-10-2008 11:29:02 4.8 C 5.83 g/m*3 4.8 C 0 km/h
2154 18-10-2008 11:34:02 5 C 5.84 g/m*3 5 C 0 km/h
2155 18-10-2008 11:39:02 5.2 C 5.92 g/m*3 5.2 C 0 km/h
2156 18-10-2008 11:44:02 5.2 C 5.85 g/m*3 5.2 C 0 km/h
2157 18-10-2008 11:49:02 5.2 C 5.85 g/m*3 5.2 C 0 km/h
2158 18-10-2008 11:54:02 5.2 C 5.78 g/m*3 5.2 C 0 km/h
2159 18-10-2008 11:59:02 5.5 C 5.9 g/m*3 5.5 C 0 km/h
2160 18-10-2008 12:04:02 5.7 C 5.98 g/m*3 5.7 C 0 km/h
2161 18-10-2008 12:09:03 6.2 C 6.1 g/m*3 6.2 C 0 km/h
2162 18-10-2008 12:14:03 6.5 C 6.22 g/m*3 6.5 C 0 km/h
2163 18-10-2008 12:19:02 6.5 C 6.15 g/m*3 6.5 C 0 km/h
2164 18-10-2008 12:24:02 6.5 C 6.07 g/m*3 6.5 C 0 km/h
2165 18-10-2008 12:29:02 6.7 C 6.15 g/m*3 6.7 C 0 km/h
2166 18-10-2008 12:34:03 6.7 C 6.15 g/m*3 6.7 C 0 km/h
2167 18-10-2008 12:39:03 6.9 C 6.31 g/m*3 6.9 C 0 km/h
2168 18-10-2008 12:44:03 7.2 C 6.36 g/m*3 7.2 C 0 km/h
2169 18-10-2008 12:49:02 7.5 C 6.48 g/m*3 7.5 C 0 km/h
2170 18-10-2008 12:54:02 7.8 C 6.61 g/m*3 7.8 C 0 km/h
2171 18-10-2008 12:59:02 8.1 C 6.57 g/m*3 8.1 C 0 km/h
2172 18-10-2008 13:04:03 8.5 C 6.66 g/m*3 8.5 C 0 km/h
2173 18-10-2008 13:09:03 8.5 C 6.66 g/m*3 8.5 C 0 km/h
2174 18-10-2008 13:14:03 9 C 6.61 g/m*3 9 C 0 km/h
2175 18-10-2008 13:19:02 9.5 C 6.74 g/m*3 9.5 C 0 km/h
Sensor: Nr:Datum:Temp:Abs-Feuchte:Windchill:Wind:
Aussen-T/F 2176 18-10-2008 13:24:02 9.6 C 6.69 g/m*3 9.6 C 0 km/h
2177 18-10-2008 13:29:02 10.1 C 6.62 g/m*3 10.1 C 0 km/h
2178 18-10-2008 13:34:06 10.5 C 6.69 g/m*3 10.5 C 0 km/h
2179 18-10-2008 13:39:06 10.7 C 6.68 g/m*3 10.7 C 0 km/h
2180 18-10-2008 13:44:06 11.1 C 6.55 g/m*3 11.1 C 0 km/h
2181 18-10-2008 13:49:02 11.4 C 6.67 g/m*3 11.4 C 0 km/h
2182 18-10-2008 13:54:02 11.7 C 6.69 g/m*3 11.7 C 0 km/h
2183 18-10-2008 13:59:02 12.1 C 6.86 g/m*3 12.1 C 0 km/h
2184 18-10-2008 14:04:02 12.6 C 7.08 g/m*3 12.6 C 0 km/h
2185 18-10-2008 14:09:02 13 C 7.03 g/m*3 13 C 0 km/h
2186 18-10-2008 14:14:02 13.2 C 7.12 g/m*3 13.2 C 0 km/h
2187 18-10-2008 14:19:02 13.5 C 7.02 g/m*3 13.5 C 0 km/h
2188 18-10-2008 14:24:02 13.8 C 7.03 g/m*3 13.8 C 0 km/h
2189 18-10-2008 14:29:02 13.9 C 6.83 g/m*3 13.9 C 0 km/h
2190 18-10-2008 14:34:02 14.5 C 6.84 g/m*3 14.5 C 0 km/h
2191 18-10-2008 14:39:02 14.8 C 6.84 g/m*3 14.8 C 0 km/h
2192 18-10-2008 14:44:02 15.1 C 6.45 g/m*3 15.1 C 0 km/h
2193 18-10-2008 14:49:02 15.2 C 6.36 g/m*3 15.2 C 0 km/h
2194 18-10-2008 14:54:02 15.5 C 6.21 g/m*3 15.5 C 0 km/h
2195 18-10-2008 14:59:02 15.8 C 6.06 g/m*3 15.8 C 0 km/h
2196 18-10-2008 15:04:02 15.9 C 6.09 g/m*3 15.9 C 0 km/h
2197 18-10-2008 15:09:02 16.1 C 6.03 g/m*3 16.1 C 0 km/h
2198 18-10-2008 15:14:02 16.1 C 5.21 g/m*3 16.1 C 0 km/h
2199 18-10-2008 15:19:02 16.2 C 5.52 g/m*3 16.2 C 0 km/h
2200 18-10-2008 15:24:02 16 C 5.04 g/m*3 16 C 0 km/h
Sensor: Nr:Datum:Temp:Abs-Feuchte:Windchill:Wind:
Aussen-T/F 2201 18-10-2008 15:29:03 15.8 C 5.12 g/m*3 15.8 C 0 km/h
2202 18-10-2008 15:34:01 15.7 C 4.82 g/m*3 15.7 C 0 km/h
2203 18-10-2008 15:39:01 15.6 C 4.79 g/m*3 15.6 C 0 km/h
2204 18-10-2008 15:44:01 15.4 C 4.73 g/m*3 15.4 C 0 km/h
2205 18-10-2008 15:49:02 15.7 C 4.55 g/m*3 15.7 C 0 km/h
2206 18-10-2008 15:54:02 15.8 C 4.58 g/m*3 15.8 C 0 km/h
2207 18-10-2008 15:59:02 15.8 C 4.58 g/m*3 15.8 C 0 km/h
2208 18-10-2008 16:04:02 16.2 C 4.96 g/m*3 16.2 C 0 km/h
2209 18-10-2008 16:09:02 16 C 4.5 g/m*3 16 C 0 km/h
2210 18-10-2008 16:14:02 15.3 C 4.57 g/m*3 15.3 C 0 km/h
2211 18-10-2008 16:19:01 15.4 C 4.47 g/m*3 15.4 C 0 km/h
2212 18-10-2008 16:24:01 15.4 C 4.34 g/m*3 15.4 C 0 km/h
2213 18-10-2008 16:29:01 15.6 C 4.52 g/m*3 15.6 C 0 km/h
2214 18-10-2008 16:34:02 15.5 C 4.63 g/m*3 15.5 C 0 km/h
2215 18-10-2008 16:39:02 15.6 C 4.65 g/m*3 15.6 C 0 km/h
2216 18-10-2008 16:44:02 15.6 C 4.79 g/m*3 15.6 C 0 km/h
2217 18-10-2008 16:49:02 15.6 C 4.92 g/m*3 15.6 C 0 km/h
2218 18-10-2008 16:54:02 15.8 C 4.98 g/m*3 15.8 C 0 km/h
2219 18-10-2008 16:59:03 15.8 C 4.98 g/m*3 15.8 C 0 km/h
2220 18-10-2008 17:04:02 15.5 C 4.76 g/m*3 15.5 C 0 km/h
2221 18-10-2008 17:09:02 15 C 4.87 g/m*3 15 C 0 km/h
2222 18-10-2008 17:14:02 14.7 C 4.78 g/m*3 14.7 C 0 km/h
2223 18-10-2008 17:19:02 14.2 C 4.64 g/m*3 14.2 C 0 km/h
2224 18-10-2008 17:24:02 13.8 C 4.77 g/m*3 13.8 C 0 km/h
2225 18-10-2008 17:29:02 13.7 C 4.74 g/m*3 13.7 C 0 km/h
Sensor: Nr:Datum:Temp:Abs-Feuchte:Windchill:Wind:
Aussen-T/F 2226 18-10-2008 17:34:02 13.7 C 4.86 g/m*3 13.7 C 0 km/h
2227 18-10-2008 17:39:02 13.3 C 4.85 g/m*3 13.3 C 0 km/h
2228 18-10-2008 17:44:02 12.9 C 5.07 g/m*3 12.9 C 0 km/h
2229 18-10-2008 17:49:02 12.7 C 4.9 g/m*3 12.7 C 0 km/h
2230 18-10-2008 17:54:02 12.5 C 4.95 g/m*3 12.5 C 0 km/h
2231 18-10-2008 17:59:02 12.5 C 5.06 g/m*3 12.5 C 0 km/h
2232 18-10-2008 18:04:03 12.4 C 5.03 g/m*3 12.4 C 0 km/h
2233 18-10-2008 18:09:03 12.3 C 5.1 g/m*3 12.3 C 0 km/h
2234 18-10-2008 18:14:03 12 C 5.12 g/m*3 12 C 0 km/h
2235 18-10-2008 18:19:02 12 C 5.12 g/m*3 12 C 0 km/h
2236 18-10-2008 18:24:02 11.5 C 5.16 g/m*3 11.5 C 0 km/h
2237 18-10-2008 18:29:02 11.3 C 5.1 g/m*3 11.3 C 0 km/h
2238 18-10-2008 18:34:03 11.2 C 5.17 g/m*3 11.2 C 0 km/h
2239 18-10-2008 18:39:03 11 C 5.1 g/m*3 11 C 0 km/h
2240 18-10-2008 18:44:03 10.9 C 5.27 g/m*3 10.9 C 0 km/h
2241 18-10-2008 18:49:02 10.8 C 5.44 g/m*3 10.8 C 0 km/h
2242 18-10-2008 18:54:02 10.8 C 5.44 g/m*3 10.8 C 0 km/h
2243 18-10-2008 18:59:02 10.8 C 5.54 g/m*3 10.8 C 0 km/h
2244 18-10-2008 19:04:02 10.6 C 5.47 g/m*3 10.6 C 0 km/h
2245 18-10-2008 19:09:02 10.5 C 5.53 g/m*3 10.5 C 0 km/h
2246 18-10-2008 19:14:02 10.3 C 5.46 g/m*3 10.3 C 0 km/h
2247 18-10-2008 19:19:02 10.2 C 5.61 g/m*3 10.2 C 0 km/h
2248 18-10-2008 19:24:02 10.1 C 5.58 g/m*3 10.1 C 0 km/h
2249 18-10-2008 19:29:02 9.9 C 5.6 g/m*3 9.9 C 0 km/h
2250 18-10-2008 19:34:02 9.7 C 5.62 g/m*3 9.7 C 0 km/h
Sensor: Nr:Datum:Temp:Abs-Feuchte:Windchill:Wind:
Aussen-T/F 2251 18-10-2008 19:39:02 9.5 C 5.64 g/m*3 9.5 C 0 km/h
2252 18-10-2008 19:44:02 9.5 C 5.73 g/m*3 9.5 C 0 km/h
2253 18-10-2008 19:49:02 9.2 C 5.63 g/m*3 9.2 C 0 km/h
2254 18-10-2008 19:54:02 9.2 C 5.71 g/m*3 9.2 C 0 km/h
2255 18-10-2008 19:59:02 9.1 C 5.77 g/m*3 9.1 C 0 km/h
2256 18-10-2008 20:04:03 9 C 5.73 g/m*3 9 C 0 km/h
2257 18-10-2008 20:09:03 8.8 C 5.83 g/m*3 8.8 C 0 km/h
2258 18-10-2008 20:14:03 8.7 C 5.79 g/m*3 8.7 C 0 km/h
2259 18-10-2008 20:19:02 8.6 C 5.84 g/m*3 8.6 C 0 km/h
2260 18-10-2008 20:24:02 8.6 C 5.84 g/m*3 8.6 C 0 km/h
2261 18-10-2008 20:29:02 8.5 C 5.81 g/m*3 8.5 C 0 km/h
2262 18-10-2008 20:34:02 8.5 C 5.72 g/m*3 8.5 C 0 km/h
2263 18-10-2008 20:39:02 8.5 C 5.72 g/m*3 8.5 C 0 km/h
2264 18-10-2008 20:44:02 8.4 C 5.77 g/m*3 8.4 C 0 km/h
2265 18-10-2008 20:49:03 8.4 C 5.77 g/m*3 8.4 C 0 km/h
2266 18-10-2008 20:54:03 8.3 C 5.82 g/m*3 8.3 C 0 km/h
2267 18-10-2008 20:59:03 8.3 C 5.82 g/m*3 8.3 C 0 km/h
2268 18-10-2008 21:04:02 8.2 C 5.78 g/m*3 8.2 C 0 km/h
2269 18-10-2008 21:09:02 8.1 C 5.74 g/m*3 8.1 C 0 km/h
2270 18-10-2008 21:14:03 8 C 5.79 g/m*3 8 C 0 km/h
2271 18-10-2008 21:19:02 7.9 C 5.83 g/m*3 7.9 C 0 km/h
2272 18-10-2008 21:24:02 7.8 C 5.79 g/m*3 7.8 C 0 km/h
2273 18-10-2008 21:29:02 7.8 C 5.88 g/m*3 7.8 C 0 km/h
2274 18-10-2008 21:34:03 7.7 C 5.84 g/m*3 7.7 C 0 km/h
2275 18-10-2008 21:39:03 7.6 C 5.88 g/m*3 7.6 C 0 km/h
Sensor: Nr:Datum:Temp:Abs-Feuchte:Windchill:Wind:
Aussen-T/F 2276 18-10-2008 21:44:03 7.4 C 5.81 g/m*3 7.4 C 0 km/h
2277 18-10-2008 21:49:02 7.3 C 5.77 g/m*3 7.3 C 0 km/h
2278 18-10-2008 21:54:02 7.3 C 5.85 g/m*3 7.3 C 0 km/h
2279 18-10-2008 21:59:03 7.3 C 5.85 g/m*3 7.3 C 0 km/h
2280 18-10-2008 22:04:01 7.2 C 5.89 g/m*3 7.2 C 0 km/h
2281 18-10-2008 22:09:01 7.2 C 5.89 g/m*3 7.2 C 0 km/h
2282 18-10-2008 22:14:01 7 C 5.81 g/m*3 7 C 0 km/h
2283 18-10-2008 22:20:03 7 C 5.81 g/m*3 7 C 0 km/h
2284 18-10-2008 22:25:03 6.9 C 5.93 g/m*3 6.9 C 0 km/h
2285 18-10-2008 22:30:03 6.8 C 5.89 g/m*3 6.8 C 0 km/h
2286 18-10-2008 22:35:03 6.7 C 5.85 g/m*3 6.7 C 0 km/h
2287 18-10-2008 22:40:03 6.6 C 5.81 g/m*3 6.6 C 0 km/h
2288 18-10-2008 22:45:03 6.6 C 5.81 g/m*3 6.6 C 0 km/h
2289 18-10-2008 22:50:03 6.4 C 5.81 g/m*3 6.4 C 0 km/h
2290 18-10-2008 22:55:03 6.3 C 5.77 g/m*3 6.3 C 0 km/h
2291 18-10-2008 23:00:03 6.3 C 5.77 g/m*3 6.3 C 0 km/h
2292 18-10-2008 23:05:03 6.2 C 5.81 g/m*3 6.2 C 0 km/h
2293 18-10-2008 23:10:03 6.2 C 5.88 g/m*3 6.2 C 0 km/h
2294 18-10-2008 23:15:03 6.2 C 5.88 g/m*3 6.2 C 0 km/h
2295 18-10-2008 23:20:03 6 C 5.88 g/m*3 6 C 0 km/h
2296 18-10-2008 23:25:03 6 C 5.81 g/m*3 6 C 0 km/h
2297 18-10-2008 23:30:04 5.9 C 5.84 g/m*3 5.9 C 0 km/h
2298 18-10-2008 23:35:04 5.8 C 5.8 g/m*3 5.8 C 0 km/h
2299 18-10-2008 23:40:04 5.8 C 5.87 g/m*3 5.8 C 0 km/h
2300 18-10-2008 23:45:04 5.8 C 5.87 g/m*3 5.8 C 0 km/h
Sensor: Nr:Datum:Temp:Abs-Feuchte:Windchill:Wind:
Aussen-T/F 2301 18-10-2008 23:50:04 5.8 C 5.95 g/m*3 5.8 C 0 km/h
2302 18-10-2008 23:55:04 5.8 C 5.95 g/m*3 5.8 C 0 km/h
2303 19-10-2008 00:00:04 5.8 C 5.95 g/m*3 5.8 C 0 km/h
2304 19-10-2008 00:05:04 5.7 C 5.91 g/m*3 5.7 C 0 km/h
2305 19-10-2008 00:10:04 5.7 C 5.91 g/m*3 5.7 C 0 km/h
2306 19-10-2008 00:15:04 5.7 C 5.98 g/m*3 5.7 C 0 km/h
2307 19-10-2008 00:20:04 5.7 C 5.98 g/m*3 5.7 C 0 km/h
2308 19-10-2008 00:25:04 5.7 C 5.98 g/m*3 5.7 C 0 km/h
2309 19-10-2008 00:30:04 5.6 C 5.94 g/m*3 5.6 C 0 km/h
2310 19-10-2008 00:35:04 5.6 C 5.94 g/m*3 5.6 C 0 km/h
2311 19-10-2008 00:40:04 5.5 C 5.9 g/m*3 5.5 C 0 km/h
2312 19-10-2008 00:45:04 5.5 C 5.9 g/m*3 5.5 C 0 km/h
2313 19-10-2008 00:50:04 5.4 C 5.86 g/m*3 5.4 C 0 km/h
2314 19-10-2008 00:55:04 5.4 C 5.86 g/m*3 5.4 C 0 km/h
2315 19-10-2008 01:00:04 5.4 C 5.93 g/m*3 5.4 C 0 km/h
2316 19-10-2008 01:05:05 5.3 C 5.89 g/m*3 5.3 C 0 km/h
2317 19-10-2008 01:10:05 5.3 C 5.89 g/m*3 5.3 C 0 km/h
2318 19-10-2008 01:15:05 5.2 C 5.85 g/m*3 5.2 C 0 km/h
2319 19-10-2008 01:20:05 5 C 5.78 g/m*3 5 C 0 km/h
2320 19-10-2008 01:25:05 5 C 5.71 g/m*3 5 C 0 km/h
2321 19-10-2008 01:30:05 4.9 C 5.74 g/m*3 4.9 C 0 km/h
2322 19-10-2008 01:35:05 4.9 C 5.81 g/m*3 4.9 C 0 km/h
2323 19-10-2008 01:40:05 4.8 C 5.83 g/m*3 4.8 C 0 km/h
2324 19-10-2008 01:45:05 4.7 C 5.8 g/m*3 4.7 C 0 km/h
2325 19-10-2008 01:50:05 4.6 C 5.82 g/m*3 4.6 C 0 km/h
Sensor: Nr:Datum:Temp:Abs-Feuchte:Windchill:Wind:
Aussen-T/F 2326 19-10-2008 01:55:05 4.5 C 5.78 g/m*3 4.5 C 0 km/h
2327 19-10-2008 02:00:05 4.5 C 5.78 g/m*3 4.5 C 0 km/h
2328 19-10-2008 02:05:05 4.5 C 5.85 g/m*3 4.5 C 0 km/h
2329 19-10-2008 02:10:05 4.6 C 5.89 g/m*3 4.6 C 0 km/h
2330 19-10-2008 02:15:05 4.6 C 5.89 g/m*3 4.6 C 0 km/h
2331 19-10-2008 02:20:05 4.6 C 5.89 g/m*3 4.6 C 0 km/h
2332 19-10-2008 02:25:05 4.5 C 5.85 g/m*3 4.5 C 0 km/h
2333 19-10-2008 02:30:05 4.5 C 5.85 g/m*3 4.5 C 0 km/h
2334 19-10-2008 02:35:05 4.6 C 5.89 g/m*3 4.6 C 0 km/h
2335 19-10-2008 02:40:05 4.6 C 5.96 g/m*3 4.6 C 0 km/h
2336 19-10-2008 02:45:05 4.6 C 5.96 g/m*3 4.6 C 0 km/h
2337 19-10-2008 02:50:06 4.6 C 5.96 g/m*3 4.6 C 0 km/h
2338 19-10-2008 02:55:06 4.6 C 5.96 g/m*3 4.6 C 0 km/h
2339 19-10-2008 03:00:06 4.5 C 5.92 g/m*3 4.5 C 0 km/h
2340 19-10-2008 03:05:06 4.5 C 5.92 g/m*3 4.5 C 0 km/h
2341 19-10-2008 03:10:06 4.3 C 5.84 g/m*3 4.3 C 0 km/h
2342 19-10-2008 03:15:06 4.3 C 5.84 g/m*3 4.3 C 0 km/h
2343 19-10-2008 03:20:06 4.4 C 5.88 g/m*3 4.4 C 0 km/h
2344 19-10-2008 03:25:06 4.5 C 5.92 g/m*3 4.5 C 0 km/h
2345 19-10-2008 03:30:06 4.6 C 6.02 g/m*3 4.6 C 0 km/h
2346 19-10-2008 03:35:06 4.6 C 6.02 g/m*3 4.6 C 0 km/h
2347 19-10-2008 03:40:06 4.6 C 6.02 g/m*3 4.6 C 0 km/h
2348 19-10-2008 03:45:06 4.6 C 6.02 g/m*3 4.6 C 0 km/h
2349 19-10-2008 03:50:06 4.6 C 5.96 g/m*3 4.6 C 0 km/h
2350 19-10-2008 03:55:06 4.6 C 5.96 g/m*3 4.6 C 0 km/h
Sensor: Nr:Datum:Temp:Abs-Feuchte:Windchill:Wind:
Aussen-T/F 2351 19-10-2008 04:00:06 4.6 C 5.96 g/m*3 4.6 C 0 km/h
2352 19-10-2008 04:05:06 4.6 C 5.96 g/m*3 4.6 C 0 km/h
2353 19-10-2008 04:10:06 4.6 C 5.96 g/m*3 4.6 C 0 km/h
2354 19-10-2008 04:15:06 4.5 C 5.92 g/m*3 4.5 C 0 km/h
2355 19-10-2008 04:20:06 4.6 C 5.96 g/m*3 4.6 C 0 km/h
2356 19-10-2008 04:25:06 4.4 C 5.88 g/m*3 4.4 C 0 km/h
2357 19-10-2008 04:30:07 4.3 C 5.84 g/m*3 4.3 C 0 km/h
2358 19-10-2008 04:35:07 4.2 C 5.8 g/m*3 4.2 C 0 km/h
2359 19-10-2008 04:40:07 4.4 C 5.88 g/m*3 4.4 C 0 km/h
2360 19-10-2008 04:45:07 4.6 C 6.02 g/m*3 4.6 C 0 km/h
2361 19-10-2008 04:50:07 4.6 C 6.02 g/m*3 4.6 C 0 km/h
2362 19-10-2008 04:55:07 4.7 C 6.06 g/m*3 4.7 C 0 km/h
2363 19-10-2008 05:00:07 4.8 C 6.1 g/m*3 4.8 C 0 km/h
2364 19-10-2008 05:05:07 4.8 C 6.1 g/m*3 4.8 C 0 km/h
2365 19-10-2008 05:10:07 4.8 C 6.04 g/m*3 4.8 C 0 km/h
2366 19-10-2008 05:15:07 4.8 C 6.04 g/m*3 4.8 C 0 km/h
2367 19-10-2008 05:20:07 5 C 6.05 g/m*3 5 C 0 km/h
2368 19-10-2008 05:25:07 5 C 6.05 g/m*3 5 C 0 km/h
2369 19-10-2008 05:30:07 5 C 5.98 g/m*3 5 C 0 km/h
2370 19-10-2008 05:35:07 4.8 C 5.97 g/m*3 4.8 C 0 km/h
2371 19-10-2008 05:40:07 4.8 C 5.97 g/m*3 4.8 C 0 km/h
2372 19-10-2008 05:45:07 4.7 C 5.93 g/m*3 4.7 C 0 km/h
2373 19-10-2008 05:50:07 4.4 C 5.81 g/m*3 4.4 C 0 km/h
2374 19-10-2008 05:55:07 4.3 C 5.77 g/m*3 4.3 C 0 km/h
2375 19-10-2008 06:00:07 4.2 C 5.73 g/m*3 4.2 C 0 km/h
Sensor: Nr:Datum:Temp:Abs-Feuchte:Windchill:Wind:
Aussen-T/F 2376 19-10-2008 06:05:07 4.1 C 5.7 g/m*3 4.1 C 0 km/h
2377 19-10-2008 06:10:07 4.1 C 5.7 g/m*3 4.1 C 0 km/h
2378 19-10-2008 06:15:08 4 C 5.72 g/m*3 4 C 0 km/h
2379 19-10-2008 06:20:08 3.8 C 5.71 g/m*3 3.8 C 0 km/h
2380 19-10-2008 06:25:08 3.9 C 5.75 g/m*3 3.9 C 0 km/h
2381 19-10-2008 06:30:08 3.8 C 5.71 g/m*3 3.8 C 0 km/h
2382 19-10-2008 06:35:08 3.8 C 5.77 g/m*3 3.8 C 0 km/h
2383 19-10-2008 06:40:08 3.7 C 5.73 g/m*3 3.7 C 0 km/h
2384 19-10-2008 06:45:08 3.6 C 5.69 g/m*3 3.6 C 0 km/h
2385 19-10-2008 06:50:08 3.5 C 5.66 g/m*3 3.5 C 0 km/h
2386 19-10-2008 06:55:08 3.5 C 5.66 g/m*3 3.5 C 0 km/h
2387 19-10-2008 07:00:08 3.4 C 5.62 g/m*3 3.4 C 0 km/h
2388 19-10-2008 07:05:08 3.3 C 5.58 g/m*3 3.3 C 0 km/h
2389 19-10-2008 07:10:08 3.2 C 5.48 g/m*3 3.2 C 0 km/h
2390 19-10-2008 07:15:08 3.2 C 5.54 g/m*3 3.2 C 0 km/h
2391 19-10-2008 07:20:08 3.2 C 5.54 g/m*3 3.2 C 0 km/h
2392 19-10-2008 07:25:08 3.1 C 5.51 g/m*3 3.1 C 0 km/h
2393 19-10-2008 07:30:08 3.1 C 5.51 g/m*3 3.1 C 0 km/h
2394 19-10-2008 07:35:08 3.1 C 5.51 g/m*3 3.1 C 0 km/h
2395 19-10-2008 07:40:08 3.1 C 5.51 g/m*3 3.1 C 0 km/h
2396 19-10-2008 07:45:08 3.1 C 5.51 g/m*3 3.1 C 0 km/h
2397 19-10-2008 07:50:08 3.1 C 5.51 g/m*3 3.1 C 0 km/h
2398 19-10-2008 07:55:08 3.1 C 5.51 g/m*3 3.1 C 0 km/h
2399 19-10-2008 08:00:09 3.1 C 5.51 g/m*3 3.1 C 0 km/h
2400 19-10-2008 08:05:09 3.1 C 5.51 g/m*3 3.1 C 0 km/h
Sensor: Nr:Datum:Temp:Abs-Feuchte:Windchill:Wind:
Aussen-T/F 2401 19-10-2008 08:10:09 3.1 C 5.51 g/m*3 3.1 C 0 km/h
2402 19-10-2008 08:15:09 3.1 C 5.51 g/m*3 3.1 C 0 km/h
2403 19-10-2008 08:20:09 3.1 C 5.51 g/m*3 3.1 C 0 km/h
2404 19-10-2008 08:25:09 3.1 C 5.51 g/m*3 3.1 C 0 km/h
2405 19-10-2008 08:30:09 3.2 C 5.54 g/m*3 3.2 C 0 km/h
2406 19-10-2008 08:35:09 3.2 C 5.6 g/m*3 3.2 C 0 km/h
2407 19-10-2008 08:40:09 3.2 C 5.6 g/m*3 3.2 C 0 km/h
2408 19-10-2008 08:45:09 3.3 C 5.64 g/m*3 3.3 C 0 km/h
2409 19-10-2008 08:50:09 3.4 C 5.68 g/m*3 3.4 C 0 km/h
2410 19-10-2008 08:55:09 3.4 C 5.68 g/m*3 3.4 C 0 km/h
2411 19-10-2008 09:00:09 3.5 C 5.72 g/m*3 3.5 C 0 km/h
2412 19-10-2008 09:05:09 3.5 C 5.72 g/m*3 3.5 C 0 km/h
2413 19-10-2008 09:10:09 3.6 C 5.76 g/m*3 3.6 C 0 km/h
2414 19-10-2008 09:15:09 3.7 C 5.8 g/m*3 3.7 C 0 km/h
2415 19-10-2008 09:20:09 3.7 C 5.8 g/m*3 3.7 C 0 km/h
2416 19-10-2008 09:25:09 3.9 C 5.87 g/m*3 3.9 C 0 km/h
2417 19-10-2008 09:30:09 4 C 5.91 g/m*3 4 C 0 km/h
2418 19-10-2008 09:35:03 4.1 C 5.95 g/m*3 4.1 C 0 km/h
2419 19-10-2008 09:40:03 4.2 C 5.99 g/m*3 4.2 C 0 km/h
2420 19-10-2008 09:45:02 4.3 C 6.03 g/m*3 4.3 C 0 km/h
2421 19-10-2008 09:50:02 4.4 C 6.07 g/m*3 4.4 C 0 km/h
2422 19-10-2008 09:55:02 4.5 C 6.11 g/m*3 4.5 C 0 km/h
2423 19-10-2008 10:00:02 4.5 C 6.11 g/m*3 4.5 C 0 km/h
2424 19-10-2008 10:05:02 4.7 C 6.19 g/m*3 4.7 C 0 km/h
2425 19-10-2008 10:10:02 4.9 C 6.28 g/m*3 4.9 C 0 km/h
Sensor: Nr:Datum:Temp:Abs-Feuchte:Windchill:Wind:
Aussen-T/F 2426 19-10-2008 10:15:02 4.9 C 6.28 g/m*3 4.9 C 0 km/h
2427 19-10-2008 10:20:02 5 C 6.32 g/m*3 5 C 0 km/h
2428 19-10-2008 10:25:02 5.2 C 6.4 g/m*3 5.2 C 0 km/h
2429 19-10-2008 10:30:02 5.4 C 6.49 g/m*3 5.4 C 0 km/h
2430 19-10-2008 10:35:03 5.5 C 6.53 g/m*3 5.5 C 0 km/h
2431 19-10-2008 10:40:03 5.8 C 6.66 g/m*3 5.8 C 0 km/h
2432 19-10-2008 10:45:02 6.2 C 6.84 g/m*3 6.2 C 0 km/h
2433 19-10-2008 10:50:02 6.4 C 6.93 g/m*3 6.4 C 0 km/h
2434 19-10-2008 10:55:02 6.8 C 7.11 g/m*3 6.8 C 0 km/h
2435 19-10-2008 11:00:02 7.3 C 7.35 g/m*3 7.3 C 0 km/h
2436 19-10-2008 11:05:02 7.3 C 7.27 g/m*3 7.3 C 0 km/h
2437 19-10-2008 11:10:02 7.7 C 7.46 g/m*3 7.7 C 0 km/h
2438 19-10-2008 11:15:02 7.9 C 7.47 g/m*3 7.9 C 0 km/h
2439 19-10-2008 11:20:02 8 C 7.36 g/m*3 8 C 0 km/h
2440 19-10-2008 11:25:02 8.3 C 7.33 g/m*3 8.3 C 0 km/h
2441 19-10-2008 11:30:02 8.5 C 7.26 g/m*3 8.5 C 0 km/h
2442 19-10-2008 11:35:02 8.8 C 7.14 g/m*3 8.8 C 0 km/h
2443 19-10-2008 11:40:02 8.8 C 7.05 g/m*3 8.8 C 0 km/h
2444 19-10-2008 11:45:02 9 C 6.88 g/m*3 9 C 0 km/h
2445 19-10-2008 11:50:02 9.2 C 6.79 g/m*3 9.2 C 0 km/h
2446 19-10-2008 11:55:02 9.2 C 6.7 g/m*3 9.2 C 0 km/h
2447 19-10-2008 12:00:02 9.5 C 6.64 g/m*3 9.5 C 0 km/h
2448 19-10-2008 12:05:02 9.7 C 6.55 g/m*3 9.7 C 0 km/h
2449 19-10-2008 12:10:02 9.8 C 6.59 g/m*3 9.8 C 0 km/h
2450 19-10-2008 12:15:02 10 C 6.39 g/m*3 10 C 0 km/h
Sensor: Nr:Datum:Temp:Abs-Feuchte:Windchill:Wind:
Aussen-T/F 2451 19-10-2008 12:20:02 10.2 C 6.47 g/m*3 10.2 C 0 km/h
2452 19-10-2008 12:25:02 10.5 C 6.4 g/m*3 10.5 C 0 km/h
2453 19-10-2008 12:30:02 10.6 C 6.44 g/m*3 10.6 C 0 km/h
2454 19-10-2008 12:35:02 10.9 C 6.47 g/m*3 10.9 C 0 km/h
2455 19-10-2008 12:40:03 11.2 C 6.39 g/m*3 11.2 C 0 km/h
2456 19-10-2008 12:45:02 11.4 C 6.26 g/m*3 11.4 C 0 km/h
2457 19-10-2008 12:50:02 11.6 C 6.13 g/m*3 11.6 C 0 km/h
2458 19-10-2008 12:55:02 12 C 6.07 g/m*3 12 C 0 km/h
2459 19-10-2008 13:00:02 12 C 5.97 g/m*3 12 C 0 km/h
2460 19-10-2008 13:05:02 12.2 C 5.94 g/m*3 12.2 C 0 km/h
2461 19-10-2008 13:10:02 12.6 C 6.08 g/m*3 12.6 C 0 km/h
2462 19-10-2008 13:15:02 12.8 C 6.16 g/m*3 12.8 C 0 km/h
2463 19-10-2008 13:20:03 13 C 6.01 g/m*3 13 C 0 km/h
2464 19-10-2008 13:25:03 13.2 C 5.86 g/m*3 13.2 C 0 km/h
2465 19-10-2008 13:30:03 13.4 C 5.93 g/m*3 13.4 C 0 km/h
2466 19-10-2008 13:35:02 13.4 C 5.81 g/m*3 13.4 C 0 km/h
2467 19-10-2008 13:40:02 13.5 C 5.85 g/m*3 13.5 C 0 km/h
2468 19-10-2008 13:45:02 13.7 C 5.92 g/m*3 13.7 C 0 km/h
2469 19-10-2008 13:50:02 13.7 C 5.92 g/m*3 13.7 C 0 km/h
2470 19-10-2008 13:55:02 13.8 C 5.96 g/m*3 13.8 C 0 km/h
2471 19-10-2008 14:00:02 13.9 C 5.87 g/m*3 13.9 C 0 km/h
2472 19-10-2008 14:05:02 13.9 C 5.75 g/m*3 13.9 C 0 km/h
2473 19-10-2008 14:10:02 14.1 C 5.7 g/m*3 14.1 C 0 km/h
2474 19-10-2008 14:15:02 14.2 C 5.74 g/m*3 14.2 C 0 km/h
2475 19-10-2008 14:20:02 14.4 C 5.81 g/m*3 14.4 C 0 km/h
Sensor: Nr:Datum:Temp:Abs-Feuchte:Windchill:Wind:
Aussen-T/F 2476 19-10-2008 14:25:02 14.3 C 5.77 g/m*3 14.3 C 0 km/h
2477 19-10-2008 14:30:02 14.5 C 5.85 g/m*3 14.5 C 0 km/h
2478 19-10-2008 14:35:02 14.5 C 5.72 g/m*3 14.5 C 0 km/h
2479 19-10-2008 14:40:02 14.5 C 5.72 g/m*3 14.5 C 0 km/h
2480 19-10-2008 14:45:02 14.8 C 5.7 g/m*3 14.8 C 0 km/h
2481 19-10-2008 14:50:02 15 C 5.64 g/m*3 15 C 0 km/h
2482 19-10-2008 14:55:02 15.1 C 5.55 g/m*3 15.1 C 0 km/h
2483 19-10-2008 15:00:02 15.3 C 5.35 g/m*3 15.3 C 0 km/h
2484 19-10-2008 15:05:02 15.5 C 5.42 g/m*3 15.5 C 0 km/h
2485 19-10-2008 15:10:02 15.4 C 5.39 g/m*3 15.4 C 0 km/h
2486 19-10-2008 15:15:02 15.4 C 5.39 g/m*3 15.4 C 0 km/h
2487 19-10-2008 15:20:02 15.3 C 5.35 g/m*3 15.3 C 0 km/h
2488 19-10-2008 15:25:02 15.2 C 5.32 g/m*3 15.2 C 0 km/h
2489 19-10-2008 15:30:02 15.2 C 5.32 g/m*3 15.2 C 0 km/h
2490 19-10-2008 15:35:02 15.2 C 5.32 g/m*3 15.2 C 0 km/h
2491 19-10-2008 15:40:02 15.3 C 5.35 g/m*3 15.3 C 0 km/h
2492 19-10-2008 15:45:02 15.4 C 5.39 g/m*3 15.4 C 0 km/h
2493 19-10-2008 15:50:02 15.7 C 5.35 g/m*3 15.7 C 0 km/h
2494 19-10-2008 15:55:02 15.9 C 5.28 g/m*3 15.9 C 0 km/h
2495 19-10-2008 16:00:02 15.8 C 5.25 g/m*3 15.8 C 0 km/h
2496 19-10-2008 16:05:02 16.2 C 5.24 g/m*3 16.2 C 0 km/h
2497 19-10-2008 16:10:02 16.3 C 5.13 g/m*3 16.3 C 0 km/h
2498 19-10-2008 16:15:02 16.4 C 5.16 g/m*3 16.4 C 0 km/h
2499 19-10-2008 16:20:02 16.3 C 5.13 g/m*3 16.3 C 0 km/h
2500 19-10-2008 16:25:02 16.3 C 5.27 g/m*3 16.3 C 0 km/h
Sensor: Nr:Datum:Temp:Abs-Feuchte:Windchill:Wind:
Aussen-T/F 2501 19-10-2008 16:30:02 16.2 C 5.24 g/m*3 16.2 C 0 km/h
2502 19-10-2008 16:35:02 16.2 C 5.24 g/m*3 16.2 C 0 km/h
2503 19-10-2008 16:40:02 16.4 C 5.3 g/m*3 16.4 C 0 km/h
2504 19-10-2008 16:45:03 16.2 C 5.1 g/m*3 16.2 C 0 km/h
2505 19-10-2008 16:50:03 16.1 C 5.21 g/m*3 16.1 C 0 km/h
2506 19-10-2008 16:55:03 15.9 C 5.28 g/m*3 15.9 C 0 km/h
2507 19-10-2008 17:00:03 15.7 C 5.35 g/m*3 15.7 C 0 km/h
2508 19-10-2008 17:05:02 15.6 C 5.45 g/m*3 15.6 C 0 km/h
2509 19-10-2008 17:10:02 15.4 C 5.39 g/m*3 15.4 C 0 km/h
2510 19-10-2008 17:15:02 15.3 C 5.62 g/m*3 15.3 C 0 km/h
2511 19-10-2008 17:20:02 15.2 C 5.71 g/m*3 15.2 C 0 km/h
2512 19-10-2008 17:25:03 15.1 C 5.81 g/m*3 15.1 C 0 km/h
2513 19-10-2008 17:30:03 14.8 C 5.95 g/m*3 14.8 C 0 km/h
2514 19-10-2008 17:35:02 14.5 C 5.85 g/m*3 14.5 C 0 km/h
2515 19-10-2008 17:40:02 14.2 C 5.86 g/m*3 14.2 C 0 km/h
2516 19-10-2008 17:45:02 13.8 C 5.96 g/m*3 13.8 C 0 km/h
2517 19-10-2008 17:50:02 13.5 C 5.97 g/m*3 13.5 C 0 km/h
2518 19-10-2008 17:55:02 13.4 C 5.93 g/m*3 13.4 C 0 km/h
2519 19-10-2008 18:00:02 13.3 C 6.01 g/m*3 13.3 C 0 km/h
2520 19-10-2008 18:05:02 13.1 C 5.93 g/m*3 13.1 C 0 km/h
2521 19-10-2008 18:10:02 13 C 5.9 g/m*3 13 C 0 km/h
2522 19-10-2008 18:15:02 12.8 C 6.16 g/m*3 12.8 C 0 km/h
2523 19-10-2008 18:20:02 12.4 C 6.12 g/m*3 12.4 C 0 km/h
2524 19-10-2008 18:25:02 12.1 C 6.11 g/m*3 12.1 C 0 km/h
2525 19-10-2008 18:30:02 12 C 6.07 g/m*3 12 C 0 km/h
Sensor: Nr:Datum:Temp:Abs-Feuchte:Windchill:Wind:
Aussen-T/F 2526 19-10-2008 18:35:03 11.8 C 6.21 g/m*3 11.8 C 0 km/h
2527 19-10-2008 18:40:03 11.5 C 6.09 g/m*3 11.5 C 0 km/h
2528 19-10-2008 18:45:02 11.4 C 6.16 g/m*3 11.4 C 0 km/h
2529 19-10-2008 18:50:03 11.2 C 6.18 g/m*3 11.2 C 0 km/h
2530 19-10-2008 18:55:03 11.1 C 6.14 g/m*3 11.1 C 0 km/h
2531 19-10-2008 19:00:03 11 C 6.21 g/m*3 11 C 0 km/h
2532 19-10-2008 19:05:02 10.8 C 6.33 g/m*3 10.8 C 0 km/h
2533 19-10-2008 19:10:02 10.6 C 6.34 g/m*3 10.6 C 0 km/h
2534 19-10-2008 19:15:02 10.4 C 6.36 g/m*3 10.4 C 0 km/h
2535 19-10-2008 19:20:02 10.4 C 6.36 g/m*3 10.4 C 0 km/h
2536 19-10-2008 19:25:02 10.2 C 6.38 g/m*3 10.2 C 0 km/h
2537 19-10-2008 19:30:02 10.1 C 6.43 g/m*3 10.1 C 0 km/h
2538 19-10-2008 19:35:02 10.1 C 6.43 g/m*3 10.1 C 0 km/h
2539 19-10-2008 19:40:02 10.1 C 6.43 g/m*3 10.1 C 0 km/h
2540 19-10-2008 19:45:02 10 C 6.39 g/m*3 10 C 0 km/h
2541 19-10-2008 19:50:02 9.9 C 6.44 g/m*3 9.9 C 0 km/h
2542 19-10-2008 19:55:02 9.7 C 6.45 g/m*3 9.7 C 0 km/h
2543 19-10-2008 20:00:02 9.6 C 6.41 g/m*3 9.6 C 0 km/h
2544 19-10-2008 20:05:02 9.6 C 6.5 g/m*3 9.6 C 0 km/h
2545 19-10-2008 20:10:02 9.5 C 6.55 g/m*3 9.5 C 0 km/h
2546 19-10-2008 20:15:02 9.3 C 6.47 g/m*3 9.3 C 0 km/h
2547 19-10-2008 20:20:02 9.3 C 6.56 g/m*3 9.3 C 0 km/h
2548 19-10-2008 20:25:02 9.3 C 6.47 g/m*3 9.3 C 0 km/h
2549 19-10-2008 20:30:02 9.2 C 6.52 g/m*3 9.2 C 0 km/h
2550 19-10-2008 20:35:02 9.1 C 6.48 g/m*3 9.1 C 0 km/h
Sensor: Nr:Datum:Temp:Abs-Feuchte:Windchill:Wind:
Aussen-T/F 2551 19-10-2008 20:40:02 9 C 6.44 g/m*3 9 C 0 km/h
2552 19-10-2008 20:45:02 8.9 C 6.48 g/m*3 8.9 C 0 km/h
2553 19-10-2008 20:50:02 8.8 C 6.44 g/m*3 8.8 C 0 km/h
2554 19-10-2008 20:55:02 8.7 C 6.49 g/m*3 8.7 C 0 km/h
2555 19-10-2008 21:00:02 8.6 C 6.44 g/m*3 8.6 C 0 km/h
2556 19-10-2008 21:05:02 8.5 C 6.4 g/m*3 8.5 C 0 km/h
2557 19-10-2008 21:10:02 8.4 C 6.36 g/m*3 8.4 C 0 km/h
2558 19-10-2008 21:15:02 8.2 C 6.36 g/m*3 8.2 C 0 km/h
2559 19-10-2008 21:20:02 8.1 C 6.32 g/m*3 8.1 C 0 km/h
2560 19-10-2008 21:25:02 8.1 C 6.41 g/m*3 8.1 C 0 km/h
2561 19-10-2008 21:30:02 8.1 C 6.41 g/m*3 8.1 C 0 km/h
2562 19-10-2008 21:35:02 8 C 6.37 g/m*3 8 C 0 km/h
2563 19-10-2008 21:40:02 7.9 C 6.41 g/m*3 7.9 C 0 km/h
2564 19-10-2008 21:45:02 7.9 C 6.49 g/m*3 7.9 C 0 km/h
2565 19-10-2008 21:50:02 7.8 C 6.53 g/m*3 7.8 C 0 km/h
2566 19-10-2008 21:55:02 7.6 C 6.44 g/m*3 7.6 C 0 km/h
2567 19-10-2008 22:00:02 7.6 C 6.44 g/m*3 7.6 C 0 km/h
2568 19-10-2008 22:05:01 7.5 C 6.4 g/m*3 7.5 C 0 km/h
2569 19-10-2008 22:10:01 7.3 C 6.32 g/m*3 7.3 C 0 km/h
2570 19-10-2008 22:15:02 7.3 C 6.32 g/m*3 7.3 C 0 km/h
2571 19-10-2008 22:20:02 7.2 C 6.28 g/m*3 7.2 C 0 km/h
2572 19-10-2008 22:25:03 7.1 C 6.24 g/m*3 7.1 C 0 km/h
2573 19-10-2008 22:30:03 7.2 C 6.36 g/m*3 7.2 C 0 km/h
2574 19-10-2008 22:35:02 7.2 C 6.36 g/m*3 7.2 C 0 km/h
2575 19-10-2008 22:40:02 6.9 C 6.31 g/m*3 6.9 C 0 km/h
Sensor: Nr:Datum:Temp:Abs-Feuchte:Windchill:Wind:
Aussen-T/F 2576 19-10-2008 22:46:02 6.9 C 6.31 g/m*3 6.9 C 0 km/h
2577 19-10-2008 22:51:03 6.8 C 6.35 g/m*3 6.8 C 0 km/h
2578 19-10-2008 22:56:03 6.9 C 6.39 g/m*3 6.9 C 0 km/h
2579 19-10-2008 23:01:03 6.7 C 6.31 g/m*3 6.7 C 0 km/h
2580 19-10-2008 23:06:03 6.7 C 6.31 g/m*3 6.7 C 0 km/h
2581 19-10-2008 23:11:03 6.6 C 6.34 g/m*3 6.6 C 0 km/h
2582 19-10-2008 23:16:03 6.6 C 6.34 g/m*3 6.6 C 0 km/h
2583 19-10-2008 23:21:03 6.5 C 6.3 g/m*3 6.5 C 0 km/h
2584 19-10-2008 23:26:03 6.4 C 6.26 g/m*3 6.4 C 0 km/h
2585 19-10-2008 23:31:03 6.3 C 6.29 g/m*3 6.3 C 0 km/h
2586 19-10-2008 23:36:03 6.2 C 6.25 g/m*3 6.2 C 0 km/h
2587 19-10-2008 23:41:03 6.2 C 6.25 g/m*3 6.2 C 0 km/h
2588 19-10-2008 23:46:03 6.1 C 6.21 g/m*3 6.1 C 0 km/h
2589 19-10-2008 23:51:03 6 C 6.24 g/m*3 6 C 0 km/h
2590 19-10-2008 23:56:03 6 C 6.24 g/m*3 6 C 0 km/h
2591 20-10-2008 00:01:03 6 C 6.24 g/m*3 6 C 0 km/h
2592 20-10-2008 00:06:03 5.9 C 6.27 g/m*3 5.9 C 0 km/h
2593 20-10-2008 00:11:03 5.9 C 6.27 g/m*3 5.9 C 0 km/h
2594 20-10-2008 00:16:03 5.9 C 6.27 g/m*3 5.9 C 0 km/h
2595 20-10-2008 00:21:03 5.9 C 6.27 g/m*3 5.9 C 0 km/h
2596 20-10-2008 00:26:04 5.8 C 6.23 g/m*3 5.8 C 0 km/h
2597 20-10-2008 00:31:04 5.7 C 6.19 g/m*3 5.7 C 0 km/h
2598 20-10-2008 00:36:04 5.6 C 6.15 g/m*3 5.6 C 0 km/h
2599 20-10-2008 00:41:04 5.4 C 6.07 g/m*3 5.4 C 0 km/h
2600 20-10-2008 00:46:04 5.4 C 6.07 g/m*3 5.4 C 0 km/h
Sensor: Nr:Datum:Temp:Abs-Feuchte:Windchill:Wind:
Aussen-T/F 2601 20-10-2008 00:51:04 5.4 C 6.07 g/m*3 5.4 C 0 km/h
2602 20-10-2008 00:56:04 5.3 C 6.03 g/m*3 5.3 C 0 km/h
2603 20-10-2008 01:01:04 5.2 C 5.99 g/m*3 5.2 C 0 km/h
2604 20-10-2008 01:06:04 5.2 C 6.06 g/m*3 5.2 C 0 km/h
2605 20-10-2008 01:11:04 5.1 C 6.02 g/m*3 5.1 C 0 km/h
2606 20-10-2008 01:16:04 5.1 C 6.02 g/m*3 5.1 C 0 km/h
2607 20-10-2008 01:21:04 5.1 C 6.02 g/m*3 5.1 C 0 km/h
2608 20-10-2008 01:26:04 5 C 5.98 g/m*3 5 C 0 km/h
2609 20-10-2008 01:31:04 5 C 5.98 g/m*3 5 C 0 km/h
2610 20-10-2008 01:36:04 4.9 C 6.01 g/m*3 4.9 C 0 km/h
2611 20-10-2008 01:41:04 4.8 C 5.97 g/m*3 4.8 C 0 km/h
2612 20-10-2008 01:46:04 4.9 C 6.01 g/m*3 4.9 C 0 km/h
2613 20-10-2008 01:51:04 4.9 C 6.01 g/m*3 4.9 C 0 km/h
2614 20-10-2008 01:56:04 4.9 C 6.01 g/m*3 4.9 C 0 km/h
2615 20-10-2008 02:01:05 4.7 C 5.93 g/m*3 4.7 C 0 km/h
2616 20-10-2008 02:06:05 4.7 C 5.93 g/m*3 4.7 C 0 km/h
2617 20-10-2008 02:11:05 4.6 C 5.89 g/m*3 4.6 C 0 km/h
2618 20-10-2008 02:16:05 4.5 C 5.85 g/m*3 4.5 C 0 km/h
2619 20-10-2008 02:21:05 4.4 C 5.81 g/m*3 4.4 C 0 km/h
2620 20-10-2008 02:26:05 4.3 C 5.77 g/m*3 4.3 C 0 km/h
2621 20-10-2008 02:31:05 4.3 C 5.77 g/m*3 4.3 C 0 km/h
2622 20-10-2008 02:36:05 4.1 C 5.7 g/m*3 4.1 C 0 km/h
2623 20-10-2008 02:41:05 4.1 C 5.7 g/m*3 4.1 C 0 km/h
2624 20-10-2008 02:46:05 4.2 C 5.73 g/m*3 4.2 C 0 km/h
2625 20-10-2008 02:51:05 4.2 C 5.73 g/m*3 4.2 C 0 km/h
Sensor: Nr:Datum:Temp:Abs-Feuchte:Windchill:Wind:
Aussen-T/F 2626 20-10-2008 02:56:05 4.2 C 5.73 g/m*3 4.2 C 0 km/h
2627 20-10-2008 03:01:05 4 C 5.66 g/m*3 4 C 0 km/h
2628 20-10-2008 03:06:05 4 C 5.66 g/m*3 4 C 0 km/h
2629 20-10-2008 03:11:05 4 C 5.66 g/m*3 4 C 0 km/h
2630 20-10-2008 03:16:05 4 C 5.72 g/m*3 4 C 0 km/h
2631 20-10-2008 03:21:05 4 C 5.72 g/m*3 4 C 0 km/h
2632 20-10-2008 03:26:05 3.8 C 5.71 g/m*3 3.8 C 0 km/h
2633 20-10-2008 03:31:05 3.8 C 5.71 g/m*3 3.8 C 0 km/h
2634 20-10-2008 03:36:06 3.7 C 5.67 g/m*3 3.7 C 0 km/h
2635 20-10-2008 03:41:06 3.7 C 5.67 g/m*3 3.7 C 0 km/h
2636 20-10-2008 03:46:06 3.7 C 5.67 g/m*3 3.7 C 0 km/h
2637 20-10-2008 03:51:06 3.6 C 5.63 g/m*3 3.6 C 0 km/h
2638 20-10-2008 03:56:06 3.7 C 5.67 g/m*3 3.7 C 0 km/h
2639 20-10-2008 04:01:06 3.7 C 5.67 g/m*3 3.7 C 0 km/h
2640 20-10-2008 04:06:06 3.7 C 5.67 g/m*3 3.7 C 0 km/h
2641 20-10-2008 04:11:06 3.5 C 5.6 g/m*3 3.5 C 0 km/h
2642 20-10-2008 04:16:06 3.4 C 5.56 g/m*3 3.4 C 0 km/h
2643 20-10-2008 04:21:06 3.3 C 5.52 g/m*3 3.3 C 0 km/h
2644 20-10-2008 04:26:06 3.3 C 5.52 g/m*3 3.3 C 0 km/h
2645 20-10-2008 04:31:06 3.2 C 5.48 g/m*3 3.2 C 0 km/h
2646 20-10-2008 04:36:06 3.1 C 5.45 g/m*3 3.1 C 0 km/h
2647 20-10-2008 04:41:06 3.1 C 5.45 g/m*3 3.1 C 0 km/h
2648 20-10-2008 04:46:06 3.2 C 5.48 g/m*3 3.2 C 0 km/h
2649 20-10-2008 04:51:06 3.1 C 5.45 g/m*3 3.1 C 0 km/h
2650 20-10-2008 04:56:06 3.1 C 5.45 g/m*3 3.1 C 0 km/h
Sensor: Nr:Datum:Temp:Abs-Feuchte:Windchill:Wind:
Aussen-T/F 2651 20-10-2008 05:01:06 3.1 C 5.45 g/m*3 3.1 C 0 km/h
2652 20-10-2008 05:06:06 3 C 5.41 g/m*3 3 C 0 km/h
2653 20-10-2008 05:11:06 3 C 5.41 g/m*3 3 C 0 km/h
2654 20-10-2008 05:16:07 3 C 5.41 g/m*3 3 C 0 km/h
2655 20-10-2008 05:21:07 3 C 5.41 g/m*3 3 C 0 km/h
2656 20-10-2008 05:26:07 3 C 5.41 g/m*3 3 C 0 km/h
2657 20-10-2008 05:31:07 3 C 5.41 g/m*3 3 C 0 km/h
2658 20-10-2008 05:36:07 2.8 C 5.4 g/m*3 2.8 C 0 km/h
2659 20-10-2008 05:41:07 2.8 C 5.4 g/m*3 2.8 C 0 km/h
2660 20-10-2008 05:46:07 2.8 C 5.4 g/m*3 2.8 C 0 km/h
2661 20-10-2008 05:51:07 2.8 C 5.46 g/m*3 2.8 C 0 km/h
2662 20-10-2008 05:56:07 2.7 C 5.42 g/m*3 2.7 C 0 km/h
2663 20-10-2008 06:01:07 2.8 C 5.46 g/m*3 2.8 C 0 km/h
2664 20-10-2008 06:06:07 2.7 C 5.42 g/m*3 2.7 C 0 km/h
2665 20-10-2008 06:11:07 2.7 C 5.42 g/m*3 2.7 C 0 km/h
2666 20-10-2008 06:16:07 2.7 C 5.42 g/m*3 2.7 C 0 km/h
2667 20-10-2008 06:21:07 2.6 C 5.38 g/m*3 2.6 C 0 km/h
2668 20-10-2008 06:26:07 2.7 C 5.42 g/m*3 2.7 C 0 km/h
2669 20-10-2008 06:31:07 2.7 C 5.42 g/m*3 2.7 C 0 km/h
2670 20-10-2008 06:36:07 2.7 C 5.42 g/m*3 2.7 C 0 km/h
2671 20-10-2008 06:41:07 2.6 C 5.38 g/m*3 2.6 C 0 km/h
2672 20-10-2008 06:46:07 2.6 C 5.38 g/m*3 2.6 C 0 km/h
2673 20-10-2008 06:51:08 2.7 C 5.42 g/m*3 2.7 C 0 km/h
2674 20-10-2008 06:56:08 2.7 C 5.42 g/m*3 2.7 C 0 km/h
2675 20-10-2008 07:01:02 2.7 C 5.42 g/m*3 2.7 C 0 km/h
Sensor: Nr:Datum:Temp:Abs-Feuchte:Windchill:Wind:
Aussen-T/F 2676 20-10-2008 07:06:02 2.6 C 5.38 g/m*3 2.6 C 0 km/h
2677 20-10-2008 07:11:02 2.6 C 5.38 g/m*3 2.6 C 0 km/h
2678 20-10-2008 07:16:01 2.7 C 5.48 g/m*3 2.7 C 0 km/h
2679 20-10-2008 07:21:01 2.7 C 5.48 g/m*3 2.7 C 0 km/h
2680 20-10-2008 07:26:01 2.7 C 5.48 g/m*3 2.7 C 0 km/h
2681 20-10-2008 07:31:02 2.7 C 5.42 g/m*3 2.7 C 0 km/h
2682 20-10-2008 07:36:02 2.7 C 5.42 g/m*3 2.7 C 0 km/h
2683 20-10-2008 07:41:02 2.7 C 5.42 g/m*3 2.7 C 0 km/h
2684 20-10-2008 07:46:02 2.6 C 5.38 g/m*3 2.6 C 0 km/h
2685 20-10-2008 07:51:02 2.6 C 5.38 g/m*3 2.6 C 0 km/h
2686 20-10-2008 07:56:02 2.6 C 5.38 g/m*3 2.6 C 0 km/h
2687 20-10-2008 08:01:01 2.6 C 5.38 g/m*3 2.6 C 0 km/h
2688 20-10-2008 08:06:01 2.7 C 5.42 g/m*3 2.7 C 0 km/h
2689 20-10-2008 08:11:01 2.7 C 5.48 g/m*3 2.7 C 0 km/h
2690 20-10-2008 08:16:02 2.7 C 5.48 g/m*3 2.7 C 0 km/h
2691 20-10-2008 08:21:02 2.6 C 5.38 g/m*3 2.6 C 0 km/h
2692 20-10-2008 08:26:02 2.6 C 5.38 g/m*3 2.6 C 0 km/h
2693 20-10-2008 08:31:02 2.6 C 5.38 g/m*3 2.6 C 0 km/h
2694 20-10-2008 08:36:02 2.6 C 5.38 g/m*3 2.6 C 0 km/h
2695 20-10-2008 08:41:02 2.7 C 5.42 g/m*3 2.7 C 0 km/h
2696 20-10-2008 08:46:02 2.6 C 5.38 g/m*3 2.6 C 0 km/h
2697 20-10-2008 08:51:02 2.6 C 5.38 g/m*3 2.6 C 0 km/h
2698 20-10-2008 08:56:02 2.6 C 5.38 g/m*3 2.6 C 0 km/h
2699 20-10-2008 09:01:02 2.7 C 5.42 g/m*3 2.7 C 0 km/h
2700 20-10-2008 09:06:02 2.7 C 5.42 g/m*3 2.7 C 0 km/h
Sensor: Nr:Datum:Temp:Abs-Feuchte:Windchill:Wind:
Aussen-T/F 2701 20-10-2008 09:11:02 2.8 C 5.51 g/m*3 2.8 C 0 km/h
2702 20-10-2008 09:16:02 2.8 C 5.51 g/m*3 2.8 C 0 km/h
2703 20-10-2008 09:21:02 2.9 C 5.55 g/m*3 2.9 C 0 km/h
2704 20-10-2008 09:26:02 3.1 C 5.57 g/m*3 3.1 C 0 km/h
2705 20-10-2008 09:31:03 3.3 C 5.64 g/m*3 3.3 C 0 km/h
2706 20-10-2008 09:36:03 3.4 C 5.74 g/m*3 3.4 C 0 km/h
2707 20-10-2008 09:41:03 3.3 C 5.64 g/m*3 3.3 C 0 km/h
2708 20-10-2008 09:46:01 3.2 C 5.6 g/m*3 3.2 C 0 km/h
2709 20-10-2008 09:51:01 3.2 C 5.6 g/m*3 3.2 C 0 km/h
2710 20-10-2008 09:56:02 3.2 C 5.6 g/m*3 3.2 C 0 km/h
2711 20-10-2008 10:01:01 3.3 C 5.64 g/m*3 3.3 C 0 km/h
2712 20-10-2008 10:06:01 3.4 C 5.68 g/m*3 3.4 C 0 km/h
2713 20-10-2008 10:11:01 3.4 C 5.68 g/m*3 3.4 C 0 km/h
2714 20-10-2008 10:16:02 3.4 C 5.68 g/m*3 3.4 C 0 km/h
2715 20-10-2008 10:21:02 3.4 C 5.68 g/m*3 3.4 C 0 km/h
2716 20-10-2008 10:26:02 3.5 C 5.72 g/m*3 3.5 C 0 km/h
2717 20-10-2008 10:31:01 3.6 C 5.76 g/m*3 3.6 C 0 km/h
2718 20-10-2008 10:36:01 3.6 C 5.76 g/m*3 3.6 C 0 km/h
2719 20-10-2008 10:41:01 3.6 C 5.76 g/m*3 3.6 C 0 km/h
2720 20-10-2008 10:46:01 3.8 C 5.83 g/m*3 3.8 C 0 km/h
2721 20-10-2008 10:51:01 4 C 5.91 g/m*3 4 C 0 km/h
2722 20-10-2008 10:56:01 4.1 C 5.95 g/m*3 4.1 C 0 km/h
2723 20-10-2008 11:01:02 4.4 C 6.07 g/m*3 4.4 C 0 km/h
2724 20-10-2008 11:06:02 4.7 C 6.26 g/m*3 4.7 C 0 km/h
2725 20-10-2008 11:11:02 5.1 C 6.36 g/m*3 5.1 C 0 km/h
Sensor: Nr:Datum:Temp:Abs-Feuchte:Windchill:Wind:
Aussen-T/F 2726 20-10-2008 11:16:01 5.2 C 6.4 g/m*3 5.2 C 0 km/h
2727 20-10-2008 11:21:01 5.4 C 6.56 g/m*3 5.4 C 0 km/h
2728 20-10-2008 11:26:01 5.7 C 6.69 g/m*3 5.7 C 0 km/h
2729 20-10-2008 11:31:02 5.8 C 6.73 g/m*3 5.8 C 0 km/h
2730 20-10-2008 11:36:02 6.1 C 6.87 g/m*3 6.1 C 0 km/h
2731 20-10-2008 11:41:02 6.4 C 7 g/m*3 6.4 C 0 km/h
2732 20-10-2008 11:46:03 6.5 C 7.05 g/m*3 6.5 C 0 km/h
2733 20-10-2008 11:51:03 7 C 7.28 g/m*3 7 C 0 km/h
2734 20-10-2008 11:56:03 7.6 C 7.57 g/m*3 7.6 C 0 km/h
2735 20-10-2008 12:01:02 8.2 C 7.87 g/m*3 8.2 C 0 km/h
2736 20-10-2008 12:06:02 8.5 C 8.03 g/m*3 8.5 C 0 km/h
2737 20-10-2008 12:11:02 9 C 8.2 g/m*3 9 C 0 km/h
2738 20-10-2008 12:16:03 9.3 C 8.27 g/m*3 9.3 C 0 km/h
2739 20-10-2008 12:21:03 9.6 C 8.43 g/m*3 9.6 C 0 km/h
2740 20-10-2008 12:26:03 9.7 C 8.39 g/m*3 9.7 C 0 km/h
2741 20-10-2008 12:31:02 10 C 8.36 g/m*3 10 C 0 km/h
2742 20-10-2008 12:36:02 10.3 C 8.33 g/m*3 10.3 C 0 km/h
2743 20-10-2008 12:41:03 10.8 C 8.2 g/m*3 10.8 C 0 km/h
2744 20-10-2008 12:46:02 11.2 C 7.91 g/m*3 11.2 C 0 km/h
2745 20-10-2008 12:51:02 11.4 C 7.8 g/m*3 11.4 C 0 km/h
2746 20-10-2008 12:56:02 11.8 C 7.58 g/m*3 11.8 C 0 km/h
2747 20-10-2008 13:01:01 12.2 C 7.55 g/m*3 12.2 C 0 km/h
2748 20-10-2008 13:06:01 12.7 C 7.46 g/m*3 12.7 C 0 km/h
2749 20-10-2008 13:11:01 12.9 C 7.44 g/m*3 12.9 C 0 km/h
2750 20-10-2008 13:16:02 13.4 C 7.32 g/m*3 13.4 C 0 km/h
Sensor: Nr:Datum:Temp:Abs-Feuchte:Windchill:Wind:
Aussen-T/F 2751 20-10-2008 13:21:02 13.6 C 7.41 g/m*3 13.6 C 0 km/h
2752 20-10-2008 13:26:02 13.8 C 7.51 g/m*3 13.8 C 0 km/h
2753 20-10-2008 13:31:01 14.1 C 7.4 g/m*3 14.1 C 0 km/h
2754 20-10-2008 13:36:01 14.6 C 7.51 g/m*3 14.6 C 0 km/h
2755 20-10-2008 13:41:01 14.8 C 7.47 g/m*3 14.8 C 0 km/h
2756 20-10-2008 13:46:01 15.1 C 7.48 g/m*3 15.1 C 0 km/h
2757 20-10-2008 13:51:01 15.6 C 7.45 g/m*3 15.6 C 0 km/h
2758 20-10-2008 13:56:01 15.8 C 7.67 g/m*3 15.8 C 0 km/h
2759 20-10-2008 14:01:02 16 C 7.49 g/m*3 16 C 0 km/h
2760 20-10-2008 14:06:02 16.4 C 7.54 g/m*3 16.4 C 0 km/h
2761 20-10-2008 14:11:02 16.7 C 7.53 g/m*3 16.7 C 0 km/h
2762 20-10-2008 14:16:02 16.9 C 7.62 g/m*3 16.9 C 0 km/h
2763 20-10-2008 14:21:02 17.3 C 7.51 g/m*3 17.3 C 0 km/h
2764 20-10-2008 14:26:02 17.7 C 7.85 g/m*3 17.7 C 0 km/h
2765 20-10-2008 14:31:02 17.9 C 7.94 g/m*3 17.9 C 0 km/h
2766 20-10-2008 14:36:02 18.2 C 7.62 g/m*3 18.2 C 0 km/h
2767 20-10-2008 14:41:02 18.5 C 7.91 g/m*3 18.5 C 0 km/h
2768 20-10-2008 14:46:02 18.7 C 7.68 g/m*3 18.7 C 0 km/h
2769 20-10-2008 14:51:02 18.9 C 7.61 g/m*3 18.9 C 0 km/h
2770 20-10-2008 14:56:02 19.1 C 7.7 g/m*3 19.1 C 0 km/h
2771 20-10-2008 15:01:01 19.3 C 7.63 g/m*3 19.3 C 0 km/h
2772 20-10-2008 15:06:01 19.4 C 7.67 g/m*3 19.4 C 0 km/h
2773 20-10-2008 15:11:01 19.6 C 7.6 g/m*3 19.6 C 0 km/h
2774 20-10-2008 15:16:01 19.7 C 7.64 g/m*3 19.7 C 0 km/h
2775 20-10-2008 15:21:01 19.6 C 7.43 g/m*3 19.6 C 0 km/h
Sensor: Nr:Datum:Temp:Abs-Feuchte:Windchill:Wind:
Aussen-T/F 2776 20-10-2008 15:26:01 19.7 C 7.47 g/m*3 19.7 C 0 km/h
2777 20-10-2008 15:31:01 19.9 C 7.56 g/m*3 19.9 C 0 km/h
2778 20-10-2008 15:36:01 19.8 C 7.34 g/m*3 19.8 C 0 km/h
2779 20-10-2008 15:41:02 19.8 C 7.52 g/m*3 19.8 C 0 km/h
2780 20-10-2008 15:46:02 19.8 C 7.52 g/m*3 19.8 C 0 km/h
2781 20-10-2008 15:51:02 20 C 7.43 g/m*3 20 C 0 km/h
2782 20-10-2008 15:56:02 20 C 7.43 g/m*3 20 C 0 km/h
2783 20-10-2008 16:01:02 20.1 C 7.47 g/m*3 20.1 C 0 km/h
2784 20-10-2008 16:06:02 20.3 C 7.56 g/m*3 20.3 C 0 km/h
2785 20-10-2008 16:11:02 20.3 C 7.56 g/m*3 20.3 C 0 km/h
2786 20-10-2008 16:16:02 20.2 C 7.52 g/m*3 20.2 C 0 km/h
2787 20-10-2008 16:21:03 20.2 C 7.52 g/m*3 20.2 C 0 km/h
2788 20-10-2008 16:26:03 20.3 C 7.56 g/m*3 20.3 C 0 km/h
2789 20-10-2008 16:31:01 20.3 C 7.56 g/m*3 20.3 C 0 km/h
2790 20-10-2008 16:36:01 20.2 C 7.52 g/m*3 20.2 C 0 km/h
2791 20-10-2008 16:41:01 20.2 C 7.52 g/m*3 20.2 C 0 km/h
2792 20-10-2008 16:46:01 20.3 C 7.74 g/m*3 20.3 C 0 km/h
2793 20-10-2008 16:51:01 20.5 C 8.01 g/m*3 20.5 C 0 km/h
2794 20-10-2008 16:56:01 20.4 C 7.78 g/m*3 20.4 C 0 km/h
2795 20-10-2008 17:01:02 20.4 C 7.61 g/m*3 20.4 C 0 km/h
2796 20-10-2008 17:06:03 20.2 C 7.52 g/m*3 20.2 C 0 km/h
2797 20-10-2008 17:11:03 20.2 C 7.52 g/m*3 20.2 C 0 km/h
2798 20-10-2008 17:16:01 20.1 C 7.47 g/m*3 20.1 C 0 km/h
2799 20-10-2008 17:21:01 20.1 C 7.65 g/m*3 20.1 C 0 km/h
2800 20-10-2008 17:26:01 20.2 C 7.87 g/m*3 20.2 C 0 km/h
Sensor: Nr:Datum:Temp:Abs-Feuchte:Windchill:Wind:
Aussen-T/F 2801 20-10-2008 17:31:02 20.2 C 7.69 g/m*3 20.2 C 0 km/h
2802 20-10-2008 17:36:02 20.2 C 7.87 g/m*3 20.2 C 0 km/h
2803 20-10-2008 17:41:02 20 C 7.6 g/m*3 20 C 0 km/h
2804 20-10-2008 17:46:02 19.9 C 7.73 g/m*3 19.9 C 0 km/h
2805 20-10-2008 17:51:02 19.7 C 7.81 g/m*3 19.7 C 0 km/h
2806 20-10-2008 17:56:02 19.3 C 7.63 g/m*3 19.3 C 0 km/h
2807 20-10-2008 18:01:02 18.9 C 7.78 g/m*3 18.9 C 0 km/h
2808 20-10-2008 18:06:02 18.6 C 7.8 g/m*3 18.6 C 0 km/h
2809 20-10-2008 18:11:02 18.2 C 7.77 g/m*3 18.2 C 0 km/h
2810 20-10-2008 18:16:02 17.8 C 7.89 g/m*3 17.8 C 0 km/h
2811 20-10-2008 18:21:02 17.6 C 7.95 g/m*3 17.6 C 0 km/h
2812 20-10-2008 18:26:02 17.2 C 8.05 g/m*3 17.2 C 0 km/h
2813 20-10-2008 18:31:02 17 C 8.1 g/m*3 17 C 0 km/h
2814 20-10-2008 18:36:02 16.9 C 8.34 g/m*3 16.9 C 0 km/h
2815 20-10-2008 18:41:02 16.7 C 8.38 g/m*3 16.7 C 0 km/h
2816 20-10-2008 18:46:02 16.6 C 8.33 g/m*3 16.6 C 0 km/h
2817 20-10-2008 18:51:02 16.5 C 8.43 g/m*3 16.5 C 0 km/h
2818 20-10-2008 18:56:02 16.3 C 8.46 g/m*3 16.3 C 0 km/h
2819 20-10-2008 19:01:02 16.2 C 8.55 g/m*3 16.2 C 0 km/h
2820 20-10-2008 19:06:02 16 C 8.45 g/m*3 16 C 0 km/h
2821 20-10-2008 19:11:02 16 C 8.58 g/m*3 16 C 0 km/h
2822 20-10-2008 19:16:01 15.8 C 8.62 g/m*3 15.8 C 0 km/h
2823 20-10-2008 19:21:01 15.8 C 8.75 g/m*3 15.8 C 0 km/h
2824 20-10-2008 19:26:01 15.7 C 8.7 g/m*3 15.7 C 0 km/h
2825 20-10-2008 19:31:02 15.6 C 8.78 g/m*3 15.6 C 0 km/h
Sensor: Nr:Datum:Temp:Abs-Feuchte:Windchill:Wind:
Aussen-T/F 2826 20-10-2008 19:36:02 15.5 C 8.86 g/m*3 15.5 C 0 km/h
2827 20-10-2008 19:41:02 15.5 C 8.99 g/m*3 15.5 C 0 km/h
2828 20-10-2008 19:46:03 15.6 C 9.04 g/m*3 15.6 C 0 km/h
2829 20-10-2008 19:51:03 15.7 C 9.1 g/m*3 15.7 C 0 km/h
2830 20-10-2008 19:56:03 15.8 C 9.15 g/m*3 15.8 C 0 km/h
2831 20-10-2008 20:01:02 15.8 C 9.15 g/m*3 15.8 C 0 km/h
2832 20-10-2008 20:06:02 15.8 C 9.15 g/m*3 15.8 C 0 km/h
2833 20-10-2008 20:11:02 15.8 C 9.15 g/m*3 15.8 C 0 km/h
2834 20-10-2008 20:16:03 15.8 C 9.15 g/m*3 15.8 C 0 km/h
2835 20-10-2008 20:21:03 15.5 C 8.99 g/m*3 15.5 C 0 km/h
2836 20-10-2008 20:26:03 15.2 C 8.96 g/m*3 15.2 C 0 km/h
2837 20-10-2008 20:31:02 15.2 C 9.09 g/m*3 15.2 C 0 km/h
2838 20-10-2008 20:36:02 15 C 8.98 g/m*3 15 C 0 km/h
2839 20-10-2008 20:41:02 14.9 C 9.18 g/m*3 14.9 C 0 km/h
2840 20-10-2008 20:46:02 14.8 C 9.12 g/m*3 14.8 C 0 km/h
2841 20-10-2008 20:51:02 14.7 C 9.19 g/m*3 14.7 C 0 km/h
2842 20-10-2008 20:56:02 14.6 C 9.26 g/m*3 14.6 C 0 km/h
2843 20-10-2008 21:01:02 14.6 C 9.39 g/m*3 14.6 C 0 km/h
2844 20-10-2008 21:06:02 14.5 C 9.33 g/m*3 14.5 C 0 km/h
2845 20-10-2008 21:11:02 14.4 C 9.27 g/m*3 14.4 C 0 km/h
2846 20-10-2008 21:16:02 14.4 C 9.39 g/m*3 14.4 C 0 km/h
2847 20-10-2008 21:21:02 14.4 C 9.39 g/m*3 14.4 C 0 km/h
2848 20-10-2008 21:26:02 14.4 C 9.39 g/m*3 14.4 C 0 km/h
2849 20-10-2008 21:31:01 14.2 C 9.4 g/m*3 14.2 C 0 km/h
2850 20-10-2008 21:36:01 14.2 C 9.4 g/m*3 14.2 C 0 km/h
Sensor: Nr:Datum:Temp:Abs-Feuchte:Windchill:Wind:
Aussen-T/F 2851 20-10-2008 21:41:01 14 C 9.29 g/m*3 14 C 0 km/h
2852 20-10-2008 21:47:02 13.8 C 9.29 g/m*3 13.8 C 0 km/h
2853 20-10-2008 21:52:02 13.7 C 9.24 g/m*3 13.7 C 0 km/h
2854 20-10-2008 21:57:02 13.7 C 9.35 g/m*3 13.7 C 0 km/h
2855 20-10-2008 22:02:02 13.6 C 9.3 g/m*3 13.6 C 0 km/h
2856 20-10-2008 22:07:03 13.4 C 9.18 g/m*3 13.4 C 0 km/h
2857 20-10-2008 22:12:03 13.4 C 9.3 g/m*3 13.4 C 0 km/h
2858 20-10-2008 22:17:03 13.3 C 9.24 g/m*3 13.3 C 0 km/h
2859 20-10-2008 22:22:03 13.3 C 9.36 g/m*3 13.3 C 0 km/h
2860 20-10-2008 22:27:03 13.3 C 9.36 g/m*3 13.3 C 0 km/h
2861 20-10-2008 22:32:03 13.3 C 9.36 g/m*3 13.3 C 0 km/h
2862 20-10-2008 22:37:03 13.2 C 9.3 g/m*3 13.2 C 0 km/h
2863 20-10-2008 22:42:03 13.2 C 9.3 g/m*3 13.2 C 0 km/h
2864 20-10-2008 22:47:03 13.1 C 9.36 g/m*3 13.1 C 0 km/h
2865 20-10-2008 22:52:03 13.1 C 9.36 g/m*3 13.1 C 0 km/h
2866 20-10-2008 22:57:03 13 C 9.3 g/m*3 13 C 0 km/h
2867 20-10-2008 23:02:03 13 C 9.3 g/m*3 13 C 0 km/h
2868 20-10-2008 23:07:03 12.9 C 9.35 g/m*3 12.9 C 0 km/h
2869 20-10-2008 23:12:03 13 C 9.41 g/m*3 13 C 0 km/h
2870 20-10-2008 23:17:03 13 C 9.41 g/m*3 13 C 0 km/h
2871 20-10-2008 23:22:03 12.9 C 9.47 g/m*3 12.9 C 0 km/h
2872 20-10-2008 23:27:03 12.8 C 9.41 g/m*3 12.8 C 0 km/h
2873 20-10-2008 23:32:03 12.9 C 9.47 g/m*3 12.9 C 0 km/h
2874 20-10-2008 23:37:03 12.8 C 9.52 g/m*3 12.8 C 0 km/h
2875 20-10-2008 23:42:04 12.9 C 9.58 g/m*3 12.9 C 0 km/h
Sensor: Nr:Datum:Temp:Abs-Feuchte:Windchill:Wind:
Aussen-T/F 2876 20-10-2008 23:47:04 12.9 C 9.58 g/m*3 12.9 C 0 km/h
2877 20-10-2008 23:52:04 13 C 9.64 g/m*3 13 C 0 km/h
2878 20-10-2008 23:57:04 13 C 9.64 g/m*3 13 C 0 km/h
2879 21-10-2008 00:02:04 12.9 C 9.69 g/m*3 12.9 C 0 km/h
2880 21-10-2008 00:07:04 12.9 C 9.81 g/m*3 12.9 C 0 km/h
2881 21-10-2008 00:12:04 13 C 9.75 g/m*3 13 C 0 km/h
2882 21-10-2008 00:17:04 13.1 C 9.81 g/m*3 13.1 C 0 km/h
2883 21-10-2008 00:22:04 13.3 C 9.94 g/m*3 13.3 C 0 km/h
2884 21-10-2008 00:27:04 13.8 C 10.37 g/m*3 13.8 C 0 km/h
2885 21-10-2008 00:32:04 14 C 10.37 g/m*3 14 C 0 km/h
2886 21-10-2008 00:37:04 14.2 C 10.38 g/m*3 14.2 C 0 km/h
2887 21-10-2008 00:42:04 14.6 C 10.51 g/m*3 14.6 C 0 km/h
2888 21-10-2008 00:47:04 15.1 C 10.45 g/m*3 15.1 C 0 km/h
2889 21-10-2008 00:52:04 15.1 C 10.06 g/m*3 15.1 C 0 km/h
2890 21-10-2008 00:57:04 15.1 C 10.06 g/m*3 15.1 C 0 km/h
2891 21-10-2008 01:02:04 15 C 10 g/m*3 15 C 0 km/h
2892 21-10-2008 01:07:04 14.7 C 9.95 g/m*3 14.7 C 0 km/h
2893 21-10-2008 01:12:04 14.7 C 9.95 g/m*3 14.7 C 0 km/h
2894 21-10-2008 01:17:05 14.4 C 9.89 g/m*3 14.4 C 0 km/h
2895 21-10-2008 01:22:05 14.4 C 9.89 g/m*3 14.4 C 0 km/h
2896 21-10-2008 01:27:05 14.1 C 9.71 g/m*3 14.1 C 0 km/h
2897 21-10-2008 01:32:05 13.8 C 9.65 g/m*3 13.8 C 0 km/h
2898 21-10-2008 01:37:05 13.6 C 9.65 g/m*3 13.6 C 0 km/h
2899 21-10-2008 01:42:05 13.6 C 9.65 g/m*3 13.6 C 0 km/h
2900 21-10-2008 01:47:05 13.4 C 9.65 g/m*3 13.4 C 0 km/h
Sensor: Nr:Datum:Temp:Abs-Feuchte:Windchill:Wind:
Aussen-T/F 2901 21-10-2008 01:52:05 13.3 C 9.59 g/m*3 13.3 C 0 km/h
2902 21-10-2008 01:57:05 13.2 C 9.64 g/m*3 13.2 C 0 km/h
2903 21-10-2008 02:02:05 13.1 C 9.59 g/m*3 13.1 C 0 km/h
2904 21-10-2008 02:07:05 13.1 C 9.59 g/m*3 13.1 C 0 km/h
2905 21-10-2008 02:12:05 13.1 C 9.59 g/m*3 13.1 C 0 km/h
2906 21-10-2008 02:17:05 13.1 C 9.7 g/m*3 13.1 C 0 km/h
2907 21-10-2008 02:22:05 13.1 C 9.7 g/m*3 13.1 C 0 km/h
2908 21-10-2008 02:27:05 13.2 C 9.87 g/m*3 13.2 C 0 km/h
2909 21-10-2008 02:32:05 13.2 C 9.87 g/m*3 13.2 C 0 km/h
2910 21-10-2008 02:37:05 13.3 C 10.05 g/m*3 13.3 C 0 km/h
2911 21-10-2008 02:42:05 13.4 C 10.11 g/m*3 13.4 C 0 km/h
2912 21-10-2008 02:47:05 13.4 C 10.11 g/m*3 13.4 C 0 km/h
2913 21-10-2008 02:52:05 13.5 C 10.18 g/m*3 13.5 C 0 km/h
2914 21-10-2008 02:57:06 13.5 C 10.18 g/m*3 13.5 C 0 km/h
2915 21-10-2008 03:02:06 13.2 C 9.87 g/m*3 13.2 C 0 km/h
2916 21-10-2008 03:07:06 13.2 C 9.87 g/m*3 13.2 C 0 km/h
2917 21-10-2008 03:12:06 13.2 C 9.87 g/m*3 13.2 C 0 km/h
2918 21-10-2008 03:17:06 13.2 C 9.87 g/m*3 13.2 C 0 km/h
2919 21-10-2008 03:22:06 13.2 C 9.87 g/m*3 13.2 C 0 km/h
2920 21-10-2008 03:27:06 13.2 C 9.87 g/m*3 13.2 C 0 km/h
2921 21-10-2008 03:32:06 13.1 C 9.81 g/m*3 13.1 C 0 km/h
2922 21-10-2008 03:37:06 13.2 C 9.87 g/m*3 13.2 C 0 km/h
2923 21-10-2008 03:42:06 13.2 C 9.87 g/m*3 13.2 C 0 km/h
2924 21-10-2008 03:47:06 13.6 C 10.24 g/m*3 13.6 C 0 km/h
2925 21-10-2008 03:52:06 13.7 C 10.3 g/m*3 13.7 C 0 km/h
Sensor: Nr:Datum:Temp:Abs-Feuchte:Windchill:Wind:
Aussen-T/F 2926 21-10-2008 03:57:06 13.9 C 10.31 g/m*3 13.9 C 0 km/h
2927 21-10-2008 04:02:06 14 C 10.25 g/m*3 14 C 0 km/h
2928 21-10-2008 04:07:06 13.9 C 10.19 g/m*3 13.9 C 0 km/h
2929 21-10-2008 04:12:06 13.9 C 10.19 g/m*3 13.9 C 0 km/h
2930 21-10-2008 04:17:06 14 C 10.13 g/m*3 14 C 0 km/h
2931 21-10-2008 04:22:06 13.9 C 10.07 g/m*3 13.9 C 0 km/h
2932 21-10-2008 04:27:06 14 C 10.01 g/m*3 14 C 0 km/h
2933 21-10-2008 04:32:07 13.9 C 10.07 g/m*3 13.9 C 0 km/h
2934 21-10-2008 04:37:07 13.8 C 10.01 g/m*3 13.8 C 0 km/h
2935 21-10-2008 04:42:07 13.8 C 10.01 g/m*3 13.8 C 0 km/h
2936 21-10-2008 04:47:07 13.8 C 10.01 g/m*3 13.8 C 0 km/h
2937 21-10-2008 04:52:07 13.9 C 10.07 g/m*3 13.9 C 0 km/h
2938 21-10-2008 04:57:07 13.9 C 10.07 g/m*3 13.9 C 0 km/h
2939 21-10-2008 05:02:07 14.3 C 10.32 g/m*3 14.3 C 0 km/h
2940 21-10-2008 05:07:07 14.2 C 10.26 g/m*3 14.2 C 0 km/h
2941 21-10-2008 05:12:07 14.6 C 10.39 g/m*3 14.6 C 0 km/h
2942 21-10-2008 05:17:07 14.7 C 10.45 g/m*3 14.7 C 0 km/h
2943 21-10-2008 05:22:07 14.8 C 10.51 g/m*3 14.8 C 0 km/h
2944 21-10-2008 05:27:07 15 C 10.51 g/m*3 15 C 0 km/h
2945 21-10-2008 05:32:07 15.1 C 10.32 g/m*3 15.1 C 0 km/h
2946 21-10-2008 05:37:07 15.2 C 10.38 g/m*3 15.2 C 0 km/h
2947 21-10-2008 05:42:07 15.2 C 10.38 g/m*3 15.2 C 0 km/h
2948 21-10-2008 05:47:07 15.4 C 10.38 g/m*3 15.4 C 0 km/h
2949 21-10-2008 05:52:07 15.6 C 10.51 g/m*3 15.6 C 0 km/h
2950 21-10-2008 05:57:07 15.6 C 10.37 g/m*3 15.6 C 0 km/h
Sensor: Nr:Datum:Temp:Abs-Feuchte:Windchill:Wind:
Aussen-T/F 2951 21-10-2008 06:02:07 15.7 C 10.44 g/m*3 15.7 C 0 km/h
2952 21-10-2008 06:07:08 15.9 C 10.43 g/m*3 15.9 C 0 km/h
2953 21-10-2008 06:12:08 16 C 10.22 g/m*3 16 C 0 km/h
2954 21-10-2008 06:17:08 16.1 C 10.14 g/m*3 16.1 C 0 km/h
2955 21-10-2008 06:22:08 16.2 C 10.07 g/m*3 16.2 C 0 km/h
2956 21-10-2008 06:27:08 16.3 C 10.13 g/m*3 16.3 C 0 km/h
2957 21-10-2008 06:32:03 16.4 C 10.05 g/m*3 16.4 C 0 km/h
2958 21-10-2008 06:37:03 16.5 C 10.11 g/m*3 16.5 C 0 km/h
2959 21-10-2008 06:42:03 16.5 C 10.11 g/m*3 16.5 C 0 km/h
2960 21-10-2008 06:47:02 16.7 C 10.09 g/m*3 16.7 C 0 km/h
2961 21-10-2008 06:52:02 16.6 C 10.03 g/m*3 16.6 C 0 km/h
2962 21-10-2008 06:57:02 16.6 C 10.03 g/m*3 16.6 C 0 km/h
2963 21-10-2008 07:02:02 16.6 C 10.03 g/m*3 16.6 C 0 km/h
2964 21-10-2008 07:07:02 16.6 C 10.03 g/m*3 16.6 C 0 km/h
2965 21-10-2008 07:12:02 16.5 C 9.97 g/m*3 16.5 C 0 km/h
2966 21-10-2008 07:17:02 16.5 C 9.97 g/m*3 16.5 C 0 km/h
2967 21-10-2008 07:22:02 16.5 C 9.97 g/m*3 16.5 C 0 km/h
2968 21-10-2008 07:27:02 16.4 C 9.91 g/m*3 16.4 C 0 km/h
2969 21-10-2008 07:32:02 16.4 C 9.91 g/m*3 16.4 C 0 km/h
2970 21-10-2008 07:37:02 16.4 C 10.05 g/m*3 16.4 C 0 km/h
2971 21-10-2008 07:42:03 16.6 C 10.03 g/m*3 16.6 C 0 km/h
2972 21-10-2008 07:47:01 16.9 C 9.92 g/m*3 16.9 C 0 km/h
2973 21-10-2008 07:52:01 17 C 9.84 g/m*3 17 C 0 km/h
2974 21-10-2008 07:57:01 16.9 C 9.92 g/m*3 16.9 C 0 km/h
2975 21-10-2008 08:02:01 16.9 C 9.92 g/m*3 16.9 C 0 km/h
Sensor: Nr:Datum:Temp:Abs-Feuchte:Windchill:Wind:
Aussen-T/F 2976 21-10-2008 08:07:01 16.9 C 9.92 g/m*3 16.9 C 0 km/h
2977 21-10-2008 08:12:01 16.9 C 9.78 g/m*3 16.9 C 0 km/h
2978 21-10-2008 08:17:02 16.9 C 9.64 g/m*3 16.9 C 0 km/h
2979 21-10-2008 08:22:03 17.2 C 9.67 g/m*3 17.2 C 0 km/h
2980 21-10-2008 08:27:03 17.1 C 9.46 g/m*3 17.1 C 0 km/h
2981 21-10-2008 08:32:01 17.2 C 9.37 g/m*3 17.2 C 0 km/h
2982 21-10-2008 08:37:01 17.1 C 9.32 g/m*3 17.1 C 0 km/h
2983 21-10-2008 08:42:01 17.1 C 9.17 g/m*3 17.1 C 0 km/h
2984 21-10-2008 08:47:01 17.1 C 9.17 g/m*3 17.1 C 0 km/h
2985 21-10-2008 08:52:01 17.1 C 9.17 g/m*3 17.1 C 0 km/h
2986 21-10-2008 08:57:01 17.1 C 9.17 g/m*3 17.1 C 0 km/h
2987 21-10-2008 09:02:02 17.2 C 9.08 g/m*3 17.2 C 0 km/h
2988 21-10-2008 09:07:03 17.1 C 9.03 g/m*3 17.1 C 0 km/h
2989 21-10-2008 09:12:03 17.2 C 9.08 g/m*3 17.2 C 0 km/h
2990 21-10-2008 09:17:01 17.1 C 9.03 g/m*3 17.1 C 0 km/h
2991 21-10-2008 09:22:01 17.2 C 9.08 g/m*3 17.2 C 0 km/h
2992 21-10-2008 09:27:01 17.1 C 9.03 g/m*3 17.1 C 0 km/h
2993 21-10-2008 09:32:02 17.2 C 8.93 g/m*3 17.2 C 0 km/h
2994 21-10-2008 09:37:02 17.2 C 8.93 g/m*3 17.2 C 0 km/h
2995 21-10-2008 09:42:02 17.3 C 8.99 g/m*3 17.3 C 0 km/h
2996 21-10-2008 09:47:02 17.3 C 8.84 g/m*3 17.3 C 0 km/h
2997 21-10-2008 09:52:02 17.3 C 8.84 g/m*3 17.3 C 0 km/h
2998 21-10-2008 09:57:02 17.3 C 8.84 g/m*3 17.3 C 0 km/h
2999 21-10-2008 10:02:02 17.3 C 8.84 g/m*3 17.3 C 0 km/h
3000 21-10-2008 10:07:02 17.4 C 8.89 g/m*3 17.4 C 0 km/h
Sensor: Nr:Datum:Temp:Abs-Feuchte:Windchill:Wind:
Aussen-T/F 3001 21-10-2008 10:12:02 17.5 C 8.8 g/m*3 17.5 C 0 km/h
3002 21-10-2008 10:17:02 17.5 C 8.8 g/m*3 17.5 C 0 km/h
3003 21-10-2008 10:22:03 17.5 C 8.8 g/m*3 17.5 C 0 km/h
3004 21-10-2008 10:27:03 17.5 C 8.8 g/m*3 17.5 C 0 km/h
3005 21-10-2008 10:32:01 17.4 C 8.74 g/m*3 17.4 C 0 km/h
3006 21-10-2008 10:37:01 17.5 C 8.65 g/m*3 17.5 C 0 km/h
3007 21-10-2008 10:42:01 17.5 C 8.65 g/m*3 17.5 C 0 km/h
3008 21-10-2008 10:47:01 17.6 C 8.7 g/m*3 17.6 C 0 km/h
3009 21-10-2008 10:52:01 17.6 C 8.7 g/m*3 17.6 C 0 km/h
3010 21-10-2008 10:57:01 17.6 C 8.55 g/m*3 17.6 C 0 km/h
3011 21-10-2008 11:02:02 17.7 C 8.6 g/m*3 17.7 C 0 km/h
3012 21-10-2008 11:07:03 17.7 C 8.6 g/m*3 17.7 C 0 km/h
3013 21-10-2008 11:12:03 17.8 C 8.5 g/m*3 17.8 C 0 km/h
3014 21-10-2008 11:17:01 17.8 C 8.65 g/m*3 17.8 C 0 km/h
3015 21-10-2008 11:22:01 17.9 C 8.7 g/m*3 17.9 C 0 km/h
3016 21-10-2008 11:27:01 18 C 8.6 g/m*3 18 C 0 km/h
3017 21-10-2008 11:32:02 18.1 C 8.34 g/m*3 18.1 C 0 km/h
3018 21-10-2008 11:37:02 18.1 C 8.34 g/m*3 18.1 C 0 km/h
3019 21-10-2008 11:42:02 18.1 C 8.34 g/m*3 18.1 C 0 km/h
3020 21-10-2008 11:47:02 18.1 C 8.34 g/m*3 18.1 C 0 km/h
3021 21-10-2008 11:52:03 18.1 C 8.34 g/m*3 18.1 C 0 km/h
3022 21-10-2008 11:57:03 18.1 C 8.34 g/m*3 18.1 C 0 km/h
3023 21-10-2008 12:02:02 18.3 C 8.44 g/m*3 18.3 C 0 km/h
3024 21-10-2008 12:07:02 18.2 C 8.39 g/m*3 18.2 C 0 km/h
3025 21-10-2008 12:12:02 18.2 C 8.39 g/m*3 18.2 C 0 km/h
Sensor: Nr:Datum:Temp:Abs-Feuchte:Windchill:Wind:
Aussen-T/F 3026 21-10-2008 12:17:02 18.1 C 8.5 g/m*3 18.1 C 0 km/h
3027 21-10-2008 12:22:02 17.7 C 8.45 g/m*3 17.7 C 0 km/h
3028 21-10-2008 12:27:02 16.1 C 7.26 g/m*3 16.1 C 0 km/h
3029 21-10-2008 12:32:02 14.8 C 7.6 g/m*3 14.8 C 0 km/h
3030 21-10-2008 12:37:02 14.1 C 7.65 g/m*3 14.1 C 0 km/h
3031 21-10-2008 12:42:02 13.7 C 7.93 g/m*3 13.7 C 0 km/h
3032 21-10-2008 12:47:02 13.2 C 7.92 g/m*3 13.2 C 0 km/h
3033 21-10-2008 12:52:02 12.6 C 8.19 g/m*3 12.6 C 0 km/h
3034 21-10-2008 12:57:02 12.1 C 8.36 g/m*3 12.1 C 0 km/h
3035 21-10-2008 13:02:02 12.1 C 8.47 g/m*3 12.1 C 0 km/h
3036 21-10-2008 13:07:02 12 C 8.63 g/m*3 12 C 0 km/h
3037 21-10-2008 13:12:02 12 C 8.74 g/m*3 12 C 0 km/h
3038 21-10-2008 13:17:02 12 C 8.74 g/m*3 12 C 0 km/h
3039 21-10-2008 13:22:02 11.8 C 8.74 g/m*3 11.8 C 0 km/h
3040 21-10-2008 13:27:02 11.7 C 8.79 g/m*3 11.7 C 0 km/h
3041 21-10-2008 13:32:03 11.7 C 8.89 g/m*3 11.7 C 0 km/h
3042 21-10-2008 13:37:03 11.6 C 8.94 g/m*3 11.6 C 0 km/h
3043 21-10-2008 13:42:03 11.6 C 8.94 g/m*3 11.6 C 0 km/h
3044 21-10-2008 13:47:02 11.6 C 9.04 g/m*3 11.6 C 0 km/h
3045 21-10-2008 13:52:02 11.7 C 9.2 g/m*3 11.7 C 0 km/h
3046 21-10-2008 13:57:02 11.5 C 9.09 g/m*3 11.5 C 0 km/h
3047 21-10-2008 14:02:02 11.3 C 8.98 g/m*3 11.3 C 0 km/h
3048 21-10-2008 14:07:02 11.4 C 9.03 g/m*3 11.4 C 0 km/h
3049 21-10-2008 14:12:02 11.4 C 9.03 g/m*3 11.4 C 0 km/h
3050 21-10-2008 14:17:01 11.6 C 9.15 g/m*3 11.6 C 0 km/h
Sensor: Nr:Datum:Temp:Abs-Feuchte:Windchill:Wind:
Aussen-T/F 3051 21-10-2008 14:22:01 11.6 C 9.15 g/m*3 11.6 C 0 km/h
3052 21-10-2008 14:27:01 11.5 C 9.09 g/m*3 11.5 C 0 km/h
3053 21-10-2008 14:32:02 11.4 C 9.14 g/m*3 11.4 C 0 km/h
3054 21-10-2008 14:37:02 11.4 C 9.14 g/m*3 11.4 C 0 km/h
3055 21-10-2008 14:42:03 11.4 C 9.14 g/m*3 11.4 C 0 km/h
3056 21-10-2008 14:47:02 11.5 C 9.19 g/m*3 11.5 C 0 km/h
3057 21-10-2008 14:52:02 11.5 C 9.19 g/m*3 11.5 C 0 km/h
3058 21-10-2008 14:57:02 11.5 C 9.19 g/m*3 11.5 C 0 km/h
3059 21-10-2008 15:02:02 11.5 C 9.19 g/m*3 11.5 C 0 km/h
3060 21-10-2008 15:07:02 11.7 C 9.41 g/m*3 11.7 C 0 km/h
3061 21-10-2008 15:12:02 11.7 C 9.41 g/m*3 11.7 C 0 km/h
3062 21-10-2008 15:17:03 11.7 C 9.41 g/m*3 11.7 C 0 km/h
3063 21-10-2008 15:22:03 11.7 C 9.41 g/m*3 11.7 C 0 km/h
3064 21-10-2008 15:27:03 11.7 C 9.31 g/m*3 11.7 C 0 km/h
3065 21-10-2008 15:32:02 11.4 C 9.14 g/m*3 11.4 C 0 km/h
3066 21-10-2008 15:37:02 11.2 C 9.02 g/m*3 11.2 C 0 km/h
3067 21-10-2008 15:42:02 11.3 C 9.08 g/m*3 11.3 C 0 km/h
3068 21-10-2008 15:47:01 11.3 C 9.08 g/m*3 11.3 C 0 km/h
3069 21-10-2008 15:52:01 11.2 C 9.02 g/m*3 11.2 C 0 km/h
3070 21-10-2008 15:57:01 11.2 C 9.02 g/m*3 11.2 C 0 km/h
3071 21-10-2008 16:02:02 11.2 C 9.02 g/m*3 11.2 C 0 km/h
3072 21-10-2008 16:07:02 11.1 C 8.96 g/m*3 11.1 C 0 km/h
3073 21-10-2008 16:12:02 11 C 8.91 g/m*3 11 C 0 km/h
3074 21-10-2008 16:17:01 11.1 C 8.96 g/m*3 11.1 C 0 km/h
3075 21-10-2008 16:22:01 11.3 C 9.18 g/m*3 11.3 C 0 km/h
Sensor: Nr:Datum:Temp:Abs-Feuchte:Windchill:Wind:
Aussen-T/F 3076 21-10-2008 16:27:01 11.1 C 9.07 g/m*3 11.1 C 0 km/h
3077 21-10-2008 16:32:02 11 C 9.01 g/m*3 11 C 0 km/h
3078 21-10-2008 16:37:02 10.9 C 8.95 g/m*3 10.9 C 0 km/h
3079 21-10-2008 16:42:02 10.7 C 8.84 g/m*3 10.7 C 0 km/h
3080 21-10-2008 16:47:02 10.8 C 8.99 g/m*3 10.8 C 0 km/h
3081 21-10-2008 16:52:02 10.9 C 9.05 g/m*3 10.9 C 0 km/h
3082 21-10-2008 16:57:02 10.9 C 9.05 g/m*3 10.9 C 0 km/h
3083 21-10-2008 17:02:02 10.9 C 9.15 g/m*3 10.9 C 0 km/h
3084 21-10-2008 17:07:02 11 C 9.11 g/m*3 11 C 0 km/h
3085 21-10-2008 17:12:02 11.1 C 9.17 g/m*3 11.1 C 0 km/h
3086 21-10-2008 17:17:02 11 C 9.11 g/m*3 11 C 0 km/h
3087 21-10-2008 17:22:02 10.9 C 9.15 g/m*3 10.9 C 0 km/h
3088 21-10-2008 17:27:02 10.9 C 9.15 g/m*3 10.9 C 0 km/h
3089 21-10-2008 17:32:02 11 C 9.11 g/m*3 11 C 0 km/h
3090 21-10-2008 17:37:02 10.9 C 9.15 g/m*3 10.9 C 0 km/h
3091 21-10-2008 17:42:02 10.9 C 9.15 g/m*3 10.9 C 0 km/h
3092 21-10-2008 17:47:02 11 C 9.21 g/m*3 11 C 0 km/h
3093 21-10-2008 17:52:02 10.9 C 9.15 g/m*3 10.9 C 0 km/h
3094 21-10-2008 17:57:02 11 C 9.21 g/m*3 11 C 0 km/h
3095 21-10-2008 18:02:02 10.9 C 9.15 g/m*3 10.9 C 0 km/h
3096 21-10-2008 18:07:02 10.8 C 9.09 g/m*3 10.8 C 0 km/h
3097 21-10-2008 18:12:02 10.6 C 8.98 g/m*3 10.6 C 0 km/h
3098 21-10-2008 18:17:02 10.5 C 8.92 g/m*3 10.5 C 0 km/h
3099 21-10-2008 18:22:02 10.2 C 8.76 g/m*3 10.2 C 0 km/h
3100 21-10-2008 18:27:02 10.2 C 8.76 g/m*3 10.2 C 0 km/h
Sensor: Nr:Datum:Temp:Abs-Feuchte:Windchill:Wind:
Aussen-T/F 3101 21-10-2008 18:32:03 10.2 C 8.76 g/m*3 10.2 C 0 km/h
3102 21-10-2008 18:37:03 10.1 C 8.7 g/m*3 10.1 C 0 km/h
3103 21-10-2008 18:42:03 10.3 C 8.81 g/m*3 10.3 C 0 km/h
3104 21-10-2008 18:47:02 10.3 C 8.81 g/m*3 10.3 C 0 km/h
3105 21-10-2008 18:52:02 10.1 C 8.7 g/m*3 10.1 C 0 km/h
3106 21-10-2008 18:57:02 10 C 8.64 g/m*3 10 C 0 km/h
3107 21-10-2008 19:02:02 10 C 8.64 g/m*3 10 C 0 km/h
3108 21-10-2008 19:07:02 9.9 C 8.78 g/m*3 9.9 C 0 km/h
3109 21-10-2008 19:12:02 9.9 C 8.78 g/m*3 9.9 C 0 km/h
3110 21-10-2008 19:17:02 9.9 C 8.78 g/m*3 9.9 C 0 km/h
3111 21-10-2008 19:22:02 9.9 C 8.78 g/m*3 9.9 C 0 km/h
3112 21-10-2008 19:27:02 9.9 C 8.78 g/m*3 9.9 C 0 km/h
3113 21-10-2008 19:32:02 9.8 C 8.72 g/m*3 9.8 C 0 km/h
3114 21-10-2008 19:37:03 9.9 C 8.78 g/m*3 9.9 C 0 km/h
3115 21-10-2008 19:42:03 9.7 C 8.67 g/m*3 9.7 C 0 km/h
3116 21-10-2008 19:47:01 9.7 C 8.67 g/m*3 9.7 C 0 km/h
3117 21-10-2008 19:52:01 9.6 C 8.61 g/m*3 9.6 C 0 km/h
3118 21-10-2008 19:57:01 9.6 C 8.61 g/m*3 9.6 C 0 km/h
3119 21-10-2008 20:02:01 9.4 C 8.5 g/m*3 9.4 C 0 km/h
3120 21-10-2008 20:07:01 9.4 C 8.5 g/m*3 9.4 C 0 km/h
3121 21-10-2008 20:12:01 9.4 C 8.5 g/m*3 9.4 C 0 km/h
3122 21-10-2008 20:17:02 9.4 C 8.5 g/m*3 9.4 C 0 km/h
3123 21-10-2008 20:22:02 9.5 C 8.56 g/m*3 9.5 C 0 km/h
3124 21-10-2008 20:27:02 9.5 C 8.56 g/m*3 9.5 C 0 km/h
3125 21-10-2008 20:32:01 9.5 C 8.56 g/m*3 9.5 C 0 km/h
Sensor: Nr:Datum:Temp:Abs-Feuchte:Windchill:Wind:
Aussen-T/F 3126 21-10-2008 20:37:01 9.5 C 8.56 g/m*3 9.5 C 0 km/h
3127 21-10-2008 20:42:01 9.7 C 8.67 g/m*3 9.7 C 0 km/h
3128 21-10-2008 20:47:01 9.7 C 8.67 g/m*3 9.7 C 0 km/h
3129 21-10-2008 20:52:01 9.5 C 8.56 g/m*3 9.5 C 0 km/h
3130 21-10-2008 20:57:01 9.7 C 8.67 g/m*3 9.7 C 0 km/h
3131 21-10-2008 21:02:02 9.7 C 8.76 g/m*3 9.7 C 0 km/h
3132 21-10-2008 21:07:03 9.5 C 8.65 g/m*3 9.5 C 0 km/h
3133 21-10-2008 21:12:03 9.7 C 8.76 g/m*3 9.7 C 0 km/h
3134 21-10-2008 21:17:01 9.6 C 8.7 g/m*3 9.6 C 0 km/h
3135 21-10-2008 21:22:01 9.6 C 8.7 g/m*3 9.6 C 0 km/h
3136 21-10-2008 21:27:01 9.6 C 8.7 g/m*3 9.6 C 0 km/h
3137 21-10-2008 21:32:02 9.5 C 8.65 g/m*3 9.5 C 0 km/h
3138 21-10-2008 21:37:02 9.5 C 8.65 g/m*3 9.5 C 0 km/h
3139 21-10-2008 21:42:02 9.3 C 8.54 g/m*3 9.3 C 0 km/h
3140 21-10-2008 21:47:02 9.3 C 8.54 g/m*3 9.3 C 0 km/h
3141 21-10-2008 21:52:02 9.2 C 8.48 g/m*3 9.2 C 0 km/h
3142 21-10-2008 21:57:02 9.1 C 8.43 g/m*3 9.1 C 0 km/h
3143 21-10-2008 22:02:02 9.1 C 8.34 g/m*3 9.1 C 0 km/h
3144 21-10-2008 22:07:02 9.1 C 8.34 g/m*3 9.1 C 0 km/h
3145 21-10-2008 22:12:02 9.1 C 8.34 g/m*3 9.1 C 0 km/h
3146 21-10-2008 22:18:04 9.1 C 8.34 g/m*3 9.1 C 0 km/h
3147 21-10-2008 22:23:04 9.2 C 8.39 g/m*3 9.2 C 0 km/h
3148 21-10-2008 22:28:04 9.2 C 8.39 g/m*3 9.2 C 0 km/h
3149 21-10-2008 22:33:04 9.1 C 8.34 g/m*3 9.1 C 0 km/h
3150 21-10-2008 22:38:04 9 C 8.29 g/m*3 9 C 0 km/h
Sensor: Nr:Datum:Temp:Abs-Feuchte:Windchill:Wind:
Aussen-T/F 3151 21-10-2008 22:43:04 9 C 8.29 g/m*3 9 C 0 km/h
3152 21-10-2008 22:48:04 8.9 C 8.32 g/m*3 8.9 C 0 km/h
3153 21-10-2008 22:53:04 8.8 C 8.27 g/m*3 8.8 C 0 km/h
3154 21-10-2008 22:58:04 8.8 C 8.27 g/m*3 8.8 C 0 km/h
3155 21-10-2008 23:03:04 8.7 C 8.22 g/m*3 8.7 C 0 km/h
3156 21-10-2008 23:08:05 8.7 C 8.22 g/m*3 8.7 C 0 km/h
3157 21-10-2008 23:13:05 8.7 C 8.22 g/m*3 8.7 C 0 km/h
3158 21-10-2008 23:18:05 8.7 C 8.22 g/m*3 8.7 C 0 km/h
3159 21-10-2008 23:23:05 8.7 C 8.22 g/m*3 8.7 C 0 km/h
3160 21-10-2008 23:28:05 8.7 C 8.22 g/m*3 8.7 C 0 km/h
3161 21-10-2008 23:33:05 8.6 C 8.16 g/m*3 8.6 C 0 km/h
3162 21-10-2008 23:38:05 8.7 C 8.22 g/m*3 8.7 C 0 km/h
3163 21-10-2008 23:43:05 8.6 C 8.16 g/m*3 8.6 C 0 km/h
3164 21-10-2008 23:48:05 8.6 C 8.16 g/m*3 8.6 C 0 km/h
3165 21-10-2008 23:53:05 8.7 C 8.22 g/m*3 8.7 C 0 km/h
3166 21-10-2008 23:58:05 8.8 C 8.27 g/m*3 8.8 C 0 km/h
3167 22-10-2008 00:03:05 8.8 C 8.27 g/m*3 8.8 C 0 km/h
3168 22-10-2008 00:08:05 8.7 C 8.22 g/m*3 8.7 C 0 km/h
3169 22-10-2008 00:13:05 8.8 C 8.27 g/m*3 8.8 C 0 km/h
3170 22-10-2008 00:18:05 8.7 C 8.22 g/m*3 8.7 C 0 km/h
3171 22-10-2008 00:23:05 8.7 C 8.22 g/m*3 8.7 C 0 km/h
3172 22-10-2008 00:28:05 8.8 C 8.27 g/m*3 8.8 C 0 km/h
3173 22-10-2008 00:33:05 8.8 C 8.27 g/m*3 8.8 C 0 km/h
3174 22-10-2008 00:38:05 8.8 C 8.27 g/m*3 8.8 C 0 km/h
3175 22-10-2008 00:43:06 8.8 C 8.27 g/m*3 8.8 C 0 km/h
Sensor: Nr:Datum:Temp:Abs-Feuchte:Windchill:Wind:
Aussen-T/F 3176 22-10-2008 00:48:06 8.8 C 8.18 g/m*3 8.8 C 0 km/h
3177 22-10-2008 00:53:06 8.8 C 8.27 g/m*3 8.8 C 0 km/h
3178 22-10-2008 00:58:06 8.8 C 8.18 g/m*3 8.8 C 0 km/h
3179 22-10-2008 01:03:06 8.8 C 8.18 g/m*3 8.8 C 0 km/h
3180 22-10-2008 01:08:06 8.8 C 8.18 g/m*3 8.8 C 0 km/h
3181 22-10-2008 01:13:06 8.8 C 8.18 g/m*3 8.8 C 0 km/h
3182 22-10-2008 01:18:06 8.7 C 8.13 g/m*3 8.7 C 0 km/h
3183 22-10-2008 01:23:06 8.7 C 8.13 g/m*3 8.7 C 0 km/h
3184 22-10-2008 01:28:06 8.7 C 8.13 g/m*3 8.7 C 0 km/h
3185 22-10-2008 01:33:06 8.8 C 8.18 g/m*3 8.8 C 0 km/h
3186 22-10-2008 01:38:06 8.7 C 8.13 g/m*3 8.7 C 0 km/h
3187 22-10-2008 01:43:06 8.7 C 8.13 g/m*3 8.7 C 0 km/h
3188 22-10-2008 01:48:06 8.7 C 8.13 g/m*3 8.7 C 0 km/h
3189 22-10-2008 01:53:06 8.7 C 8.13 g/m*3 8.7 C 0 km/h
3190 22-10-2008 01:58:06 8.7 C 8.13 g/m*3 8.7 C 0 km/h
3191 22-10-2008 02:03:06 8.7 C 8.13 g/m*3 8.7 C 0 km/h
3192 22-10-2008 02:08:06 8.7 C 8.13 g/m*3 8.7 C 0 km/h
3193 22-10-2008 02:13:06 8.7 C 8.13 g/m*3 8.7 C 0 km/h
3194 22-10-2008 02:18:06 8.6 C 8.08 g/m*3 8.6 C 0 km/h
3195 22-10-2008 02:23:07 8.6 C 8.08 g/m*3 8.6 C 0 km/h
3196 22-10-2008 02:28:07 8.6 C 8.08 g/m*3 8.6 C 0 km/h
3197 22-10-2008 02:33:07 8.6 C 8.08 g/m*3 8.6 C 0 km/h
3198 22-10-2008 02:38:07 8.6 C 8.08 g/m*3 8.6 C 0 km/h
3199 22-10-2008 02:43:07 8.6 C 8.16 g/m*3 8.6 C 0 km/h
3200 22-10-2008 02:48:07 8.5 C 8.03 g/m*3 8.5 C 0 km/h
Sensor: Nr:Datum:Temp:Abs-Feuchte:Windchill:Wind:
Aussen-T/F 3201 22-10-2008 02:53:07 8.5 C 8.03 g/m*3 8.5 C 0 km/h
3202 22-10-2008 02:58:07 8.5 C 8.03 g/m*3 8.5 C 0 km/h
3203 22-10-2008 03:03:07 8.5 C 8.03 g/m*3 8.5 C 0 km/h
3204 22-10-2008 03:08:07 8.5 C 8.11 g/m*3 8.5 C 0 km/h
3205 22-10-2008 03:13:07 8.5 C 8.11 g/m*3 8.5 C 0 km/h
3206 22-10-2008 03:18:07 8.5 C 8.11 g/m*3 8.5 C 0 km/h
3207 22-10-2008 03:23:07 8.5 C 8.11 g/m*3 8.5 C 0 km/h
3208 22-10-2008 03:28:07 8.5 C 8.11 g/m*3 8.5 C 0 km/h
3209 22-10-2008 03:33:07 8.5 C 8.11 g/m*3 8.5 C 0 km/h
3210 22-10-2008 03:38:07 8.5 C 8.11 g/m*3 8.5 C 0 km/h
3211 22-10-2008 03:43:07 8.5 C 8.11 g/m*3 8.5 C 0 km/h
3212 22-10-2008 03:48:07 8.5 C 8.11 g/m*3 8.5 C 0 km/h
3213 22-10-2008 03:53:07 8.5 C 8.11 g/m*3 8.5 C 0 km/h
3214 22-10-2008 03:58:08 8.5 C 8.11 g/m*3 8.5 C 0 km/h
3215 22-10-2008 04:03:08 8.5 C 8.11 g/m*3 8.5 C 0 km/h
3216 22-10-2008 04:08:08 8.4 C 8.06 g/m*3 8.4 C 0 km/h
3217 22-10-2008 04:13:08 8.5 C 8.11 g/m*3 8.5 C 0 km/h
3218 22-10-2008 04:18:08 8.4 C 8.06 g/m*3 8.4 C 0 km/h
3219 22-10-2008 04:23:08 8.4 C 8.06 g/m*3 8.4 C 0 km/h
3220 22-10-2008 04:28:08 8.4 C 8.06 g/m*3 8.4 C 0 km/h
3221 22-10-2008 04:33:08 8.4 C 8.06 g/m*3 8.4 C 0 km/h
3222 22-10-2008 04:38:08 8.4 C 8.06 g/m*3 8.4 C 0 km/h
3223 22-10-2008 04:43:08 8.4 C 8.06 g/m*3 8.4 C 0 km/h
3224 22-10-2008 04:48:08 8.4 C 8.06 g/m*3 8.4 C 0 km/h
3225 22-10-2008 04:53:08 8.4 C 8.06 g/m*3 8.4 C 0 km/h
Sensor: Nr:Datum:Temp:Abs-Feuchte:Windchill:Wind:
Aussen-T/F 3226 22-10-2008 04:58:08 8.4 C 8.06 g/m*3 8.4 C 0 km/h
3227 22-10-2008 05:03:08 8.3 C 8.01 g/m*3 8.3 C 0 km/h
3228 22-10-2008 05:08:08 8.3 C 8.01 g/m*3 8.3 C 0 km/h
3229 22-10-2008 05:13:08 8.3 C 8.01 g/m*3 8.3 C 0 km/h
3230 22-10-2008 05:18:08 8.3 C 8.01 g/m*3 8.3 C 0 km/h
3231 22-10-2008 05:23:08 8.3 C 8.01 g/m*3 8.3 C 0 km/h
3232 22-10-2008 05:28:08 8.3 C